<?xml version="1.0" encoding="UTF-8" standalone="no" ?>
<gpx xmlns="http://www.topografix.com/GPX/1/1" xmlns:xsi="http://www.w3.org/2001/XMLSchema-instance" xsi:schemaLocation="http://www.topografix.com/GPX/1/1 http://www.topografix.com/GPX/1/1/gpx.xsd" version="1.1" creator="VisuGPX - https://www.visugpx.com">
  <metadata>
    <name>le circus JY AUBRAC</name>
    <desc><![CDATA[Circus en off]]></desc>
  </metadata>
  <trk>
    <name><![CDATA[le circus JY AUBRAC]]></name>
    <trkseg>
      <trkpt lat="44.66239" lon="3.04675">
        <ele>1178.571793</ele>
        <time>2021-06-12T14:45:28.512Z</time>
      </trkpt>
      <trkpt lat="44.66243" lon="3.04677">
        <ele>1178.571793</ele>
        <time>2021-06-12T14:45:30.379Z</time>
      </trkpt>
      <trkpt lat="44.66247" lon="3.04677">
        <ele>1178.571793</ele>
        <time>2021-06-12T14:45:32.459Z</time>
      </trkpt>
      <trkpt lat="44.66252" lon="3.04674">
        <ele>1178.571793</ele>
        <time>2021-06-12T14:45:34.659Z</time>
      </trkpt>
      <trkpt lat="44.66257" lon="3.04666">
        <ele>1178.571793</ele>
        <time>2021-06-12T14:45:38.462Z</time>
      </trkpt>
      <trkpt lat="44.66261" lon="3.04645">
        <ele>1178.571793</ele>
        <time>2021-06-12T14:45:45.920Z</time>
      </trkpt>
      <trkpt lat="44.66262" lon="3.04634">
        <ele>1178.571793</ele>
        <time>2021-06-12T14:45:49.604Z</time>
      </trkpt>
      <trkpt lat="44.66262" lon="3.04624">
        <ele>1178.571793</ele>
        <time>2021-06-12T14:45:52.975Z</time>
      </trkpt>
      <trkpt lat="44.66263" lon="3.04616">
        <ele>1178.571793</ele>
        <time>2021-06-12T14:45:56.051Z</time>
      </trkpt>
      <trkpt lat="44.66263" lon="3.04607">
        <ele>1178.571793</ele>
        <time>2021-06-12T14:45:58.975Z</time>
      </trkpt>
      <trkpt lat="44.66264" lon="3.04573">
        <ele>1178.571793</ele>
        <time>2021-06-12T14:46:10.436Z</time>
      </trkpt>
      <trkpt lat="44.66264" lon="3.04564">
        <ele>1178.632331</ele>
        <time>2021-06-12T14:46:13.881Z</time>
      </trkpt>
      <trkpt lat="44.66263" lon="3.04547">
        <ele>1178.787292</ele>
        <time>2021-06-12T14:46:19.584Z</time>
      </trkpt>
      <trkpt lat="44.66264" lon="3.04517">
        <ele>1179.064711</ele>
        <time>2021-06-12T14:46:29.860Z</time>
      </trkpt>
      <trkpt lat="44.66266" lon="3.04475">
        <ele>1179.454003</ele>
        <time>2021-06-12T14:46:44.174Z</time>
      </trkpt>
      <trkpt lat="44.66284" lon="3.04466">
        <ele>1179.701469</ele>
        <time>2021-06-12T14:46:53.345Z</time>
      </trkpt>
      <trkpt lat="44.66327" lon="3.04439">
        <ele>1180.30956</ele>
        <time>2021-06-12T14:47:14.915Z</time>
      </trkpt>
      <trkpt lat="44.66376" lon="3.04402">
        <ele>1180.91715</ele>
        <time>2021-06-12T14:47:40.298Z</time>
      </trkpt>
      <trkpt lat="44.66428" lon="3.04362">
        <ele>1180.911828</ele>
        <time>2021-06-12T14:48:06.723Z</time>
      </trkpt>
      <trkpt lat="44.66443" lon="3.0435">
        <ele>1180.91033</ele>
        <time>2021-06-12T14:48:14.087Z</time>
      </trkpt>
      <trkpt lat="44.66498" lon="3.04307">
        <ele>1180.904657</ele>
        <time>2021-06-12T14:48:42.030Z</time>
      </trkpt>
      <trkpt lat="44.66544" lon="3.04231">
        <ele>1181.456334</ele>
        <time>2021-06-12T14:49:13.795Z</time>
      </trkpt>
      <trkpt lat="44.66572" lon="3.04175">
        <ele>1182.122679</ele>
        <time>2021-06-12T14:49:36.082Z</time>
      </trkpt>
      <trkpt lat="44.66574" lon="3.04171">
        <ele>1182.169932</ele>
        <time>2021-06-12T14:49:37.651Z</time>
      </trkpt>
      <trkpt lat="44.66575" lon="3.0415">
        <ele>1182.377095</ele>
        <time>2021-06-12T14:49:44.756Z</time>
      </trkpt>
      <trkpt lat="44.66638" lon="3.03913">
        <ele>1186.057372</ele>
        <time>2021-06-12T14:51:13.209Z</time>
      </trkpt>
      <trkpt lat="44.66636" lon="3.03868">
        <ele>1186.855238</ele>
        <time>2021-06-12T14:51:29.212Z</time>
      </trkpt>
      <trkpt lat="44.6663" lon="3.03829">
        <ele>1187.559434</ele>
        <time>2021-06-12T14:51:43.228Z</time>
      </trkpt>
      <trkpt lat="44.66582" lon="3.0376">
        <ele>1188.995663</ele>
        <time>2021-06-12T14:52:16.173Z</time>
      </trkpt>
      <trkpt lat="44.66565" lon="3.03727">
        <ele>1189.594222</ele>
        <time>2021-06-12T14:52:30.401Z</time>
      </trkpt>
      <trkpt lat="44.66562" lon="3.03629">
        <ele>1191.003163</ele>
        <time>2021-06-12T14:53:03.690Z</time>
      </trkpt>
      <trkpt lat="44.66564" lon="3.03593">
        <ele>1191.531461</ele>
        <time>2021-06-12T14:53:15.977Z</time>
      </trkpt>
      <trkpt lat="44.66578" lon="3.03554">
        <ele>1192.175377</ele>
        <time>2021-06-12T14:53:30.558Z</time>
      </trkpt>
      <trkpt lat="44.66588" lon="3.03508">
        <ele>1192.90127</ele>
        <time>2021-06-12T14:53:47.252Z</time>
      </trkpt>
      <trkpt lat="44.66586" lon="3.03487">
        <ele>1193.22464</ele>
        <time>2021-06-12T14:53:54.734Z</time>
      </trkpt>
      <trkpt lat="44.66572" lon="3.03459">
        <ele>1193.729436</ele>
        <time>2021-06-12T14:54:06.363Z</time>
      </trkpt>
      <trkpt lat="44.66551" lon="3.03418">
        <ele>1194.486025</ele>
        <time>2021-06-12T14:54:23.811Z</time>
      </trkpt>
      <trkpt lat="44.66546" lon="3.03394">
        <ele>1194.851839</ele>
        <time>2021-06-12T14:54:32.330Z</time>
      </trkpt>
      <trkpt lat="44.66553" lon="3.03354">
        <ele>1195.533598</ele>
        <time>2021-06-12T14:54:46.597Z</time>
      </trkpt>
      <trkpt lat="44.66553" lon="3.03353">
        <ele>1195.569688</ele>
        <time>2021-06-12T14:54:47.245Z</time>
      </trkpt>
      <trkpt lat="44.66562" lon="3.03325">
        <ele>1196.187511</ele>
        <time>2021-06-12T14:54:57.570Z</time>
      </trkpt>
      <trkpt lat="44.6655" lon="3.03332">
        <ele>1196.560811</ele>
        <time>2021-06-12T14:55:04.739Z</time>
      </trkpt>
      <trkpt lat="44.66509" lon="3.03398">
        <ele>1198.361058</ele>
        <time>2021-06-12T14:55:41.105Z</time>
      </trkpt>
      <trkpt lat="44.66489" lon="3.03414">
        <ele>1199.039934</ele>
        <time>2021-06-12T14:55:55.104Z</time>
      </trkpt>
      <trkpt lat="44.66469" lon="3.03417">
        <ele>1199.608697</ele>
        <time>2021-06-12T14:56:07.037Z</time>
      </trkpt>
      <trkpt lat="44.66448" lon="3.03463">
        <ele>1200.801066</ele>
        <time>2021-06-12T14:56:30.717Z</time>
      </trkpt>
      <trkpt lat="44.66437" lon="3.03489">
        <ele>1201.585568</ele>
        <time>2021-06-12T14:56:43.067Z</time>
      </trkpt>
      <trkpt lat="44.66428" lon="3.03504">
        <ele>1202.077411</ele>
        <time>2021-06-12T14:56:51.605Z</time>
      </trkpt>
      <trkpt lat="44.66376" lon="3.03481">
        <ele>1204.056422</ele>
        <time>2021-06-12T14:57:24.034Z</time>
      </trkpt>
      <trkpt lat="44.66313" lon="3.03416">
        <ele>1206.922274</ele>
        <time>2021-06-12T14:58:12.502Z</time>
      </trkpt>
      <trkpt lat="44.66279" lon="3.03395">
        <ele>1207.994083</ele>
        <time>2021-06-12T14:58:34.965Z</time>
      </trkpt>
      <trkpt lat="44.66217" lon="3.03376">
        <ele>1209.818649</ele>
        <time>2021-06-12T14:59:12.543Z</time>
      </trkpt>
      <trkpt lat="44.66124" lon="3.03373">
        <ele>1212.340613</ele>
        <time>2021-06-12T15:00:05.268Z</time>
      </trkpt>
      <trkpt lat="44.66018" lon="3.0333">
        <ele>1214.197333</ele>
        <time>2021-06-12T15:01:07.356Z</time>
      </trkpt>
      <trkpt lat="44.65981" lon="3.03336">
        <ele>1214.813857</ele>
        <time>2021-06-12T15:01:27.819Z</time>
      </trkpt>
      <trkpt lat="44.65951" lon="3.03323">
        <ele>1215.221554</ele>
        <time>2021-06-12T15:01:45.485Z</time>
      </trkpt>
      <trkpt lat="44.65876" lon="3.0326">
        <ele>1215.556577</ele>
        <time>2021-06-12T15:02:32.252Z</time>
      </trkpt>
      <trkpt lat="44.65841" lon="3.03262">
        <ele>1215.691967</ele>
        <time>2021-06-12T15:02:50.681Z</time>
      </trkpt>
      <trkpt lat="44.65819" lon="3.03263">
        <ele>1215.775976</ele>
        <time>2021-06-12T15:03:02.166Z</time>
      </trkpt>
      <trkpt lat="44.65816" lon="3.0322">
        <ele>1215.846799</ele>
        <time>2021-06-12T15:03:15.738Z</time>
      </trkpt>
      <trkpt lat="44.65822" lon="3.0309">
        <ele>1215.100282</ele>
        <time>2021-06-12T15:03:55.899Z</time>
      </trkpt>
      <trkpt lat="44.65802" lon="3.02963">
        <ele>1214.551744</ele>
        <time>2021-06-12T15:04:35.996Z</time>
      </trkpt>
      <trkpt lat="44.65795" lon="3.02944">
        <ele>1214.762082</ele>
        <time>2021-06-12T15:04:42.731Z</time>
      </trkpt>
      <trkpt lat="44.65719" lon="3.02819">
        <ele>1216.375898</ele>
        <time>2021-06-12T15:05:37.054Z</time>
      </trkpt>
      <trkpt lat="44.65692" lon="3.02647">
        <ele>1221.579731</ele>
        <time>2021-06-12T15:06:41.754Z</time>
      </trkpt>
      <trkpt lat="44.65667" lon="3.02614">
        <ele>1223.428276</ele>
        <time>2021-06-12T15:07:00.504Z</time>
      </trkpt>
      <trkpt lat="44.65653" lon="3.02586">
        <ele>1224.746533</ele>
        <time>2021-06-12T15:07:15.074Z</time>
      </trkpt>
      <trkpt lat="44.65649" lon="3.02565">
        <ele>1225.592156</ele>
        <time>2021-06-12T15:07:25.159Z</time>
      </trkpt>
      <trkpt lat="44.65621" lon="3.02514">
        <ele>1228.880855</ele>
        <time>2021-06-12T15:07:55.167Z</time>
      </trkpt>
      <trkpt lat="44.65608" lon="3.0241">
        <ele>1235.418987</ele>
        <time>2021-06-12T15:08:46.257Z</time>
      </trkpt>
      <trkpt lat="44.65607" lon="3.02392">
        <ele>1236.482946</ele>
        <time>2021-06-12T15:08:55.911Z</time>
      </trkpt>
      <trkpt lat="44.65583" lon="3.02354">
        <ele>1239.636489</ele>
        <time>2021-06-12T15:09:19.942Z</time>
      </trkpt>
      <trkpt lat="44.65575" lon="3.02329">
        <ele>1241.299122</ele>
        <time>2021-06-12T15:09:31.314Z</time>
      </trkpt>
      <trkpt lat="44.65576" lon="3.02281">
        <ele>1243.06559</ele>
        <time>2021-06-12T15:09:52.691Z</time>
      </trkpt>
      <trkpt lat="44.65567" lon="3.02201">
        <ele>1245.266282</ele>
        <time>2021-06-12T15:10:27.066Z</time>
      </trkpt>
      <trkpt lat="44.65557" lon="3.02152">
        <ele>1246.640261</ele>
        <time>2021-06-12T15:10:45.205Z</time>
      </trkpt>
      <trkpt lat="44.65562" lon="3.02118">
        <ele>1247.559968</ele>
        <time>2021-06-12T15:10:56.186Z</time>
      </trkpt>
      <trkpt lat="44.65575" lon="3.02093">
        <ele>1248.413158</ele>
        <time>2021-06-12T15:11:06.507Z</time>
      </trkpt>
      <trkpt lat="44.65589" lon="3.02041">
        <ele>1248.40021</ele>
        <time>2021-06-12T15:11:23.662Z</time>
      </trkpt>
      <trkpt lat="44.6559" lon="3.02027">
        <ele>1248.138914</ele>
        <time>2021-06-12T15:11:28.056Z</time>
      </trkpt>
      <trkpt lat="44.6559" lon="3.02018">
        <ele>1247.994769</ele>
        <time>2021-06-12T15:11:30.584Z</time>
      </trkpt>
      <trkpt lat="44.65561" lon="3.0192">
        <ele>1246.123666</ele>
        <time>2021-06-12T15:12:02.492Z</time>
      </trkpt>
      <trkpt lat="44.65543" lon="3.01834">
        <ele>1244.549115</ele>
        <time>2021-06-12T15:12:28.480Z</time>
      </trkpt>
      <trkpt lat="44.65535" lon="3.01775">
        <ele>1242.229581</ele>
        <time>2021-06-12T15:12:45.726Z</time>
      </trkpt>
      <trkpt lat="44.65531" lon="3.01655">
        <ele>1237.558246</ele>
        <time>2021-06-12T15:13:19.737Z</time>
      </trkpt>
      <trkpt lat="44.65502" lon="3.01604">
        <ele>1235.048947</ele>
        <time>2021-06-12T15:13:37.231Z</time>
      </trkpt>
      <trkpt lat="44.65489" lon="3.01584">
        <ele>1233.97136</ele>
        <time>2021-06-12T15:13:44.433Z</time>
      </trkpt>
      <trkpt lat="44.65474" lon="3.01556">
        <ele>1232.622038</ele>
        <time>2021-06-12T15:13:53.811Z</time>
      </trkpt>
      <trkpt lat="44.65463" lon="3.01511">
        <ele>1230.764073</ele>
        <time>2021-06-12T15:14:06.735Z</time>
      </trkpt>
      <trkpt lat="44.65455" lon="3.01473">
        <ele>1229.205392</ele>
        <time>2021-06-12T15:14:17.687Z</time>
      </trkpt>
      <trkpt lat="44.6546" lon="3.01443">
        <ele>1228.021088</ele>
        <time>2021-06-12T15:14:25.992Z</time>
      </trkpt>
      <trkpt lat="44.65472" lon="3.01413">
        <ele>1226.663696</ele>
        <time>2021-06-12T15:14:35.879Z</time>
      </trkpt>
      <trkpt lat="44.65478" lon="3.01405">
        <ele>1226.224427</ele>
        <time>2021-06-12T15:14:38.982Z</time>
      </trkpt>
      <trkpt lat="44.65481" lon="3.01395">
        <ele>1225.796235</ele>
        <time>2021-06-12T15:14:42.158Z</time>
      </trkpt>
      <trkpt lat="44.65481" lon="3.01383">
        <ele>1225.300296</ele>
        <time>2021-06-12T15:14:45.935Z</time>
      </trkpt>
      <trkpt lat="44.65431" lon="3.01209">
        <ele>1226.70052</ele>
        <time>2021-06-12T15:15:44.256Z</time>
      </trkpt>
      <trkpt lat="44.65387" lon="3.01129">
        <ele>1229.105744</ele>
        <time>2021-06-12T15:16:27.455Z</time>
      </trkpt>
      <trkpt lat="44.65374" lon="3.01064">
        <ele>1233.438808</ele>
        <time>2021-06-12T15:16:57.979Z</time>
      </trkpt>
      <trkpt lat="44.65375" lon="3.01053">
        <ele>1234.201764</ele>
        <time>2021-06-12T15:17:04.634Z</time>
      </trkpt>
      <trkpt lat="44.65375" lon="3.01053">
        <ele>1234.201764</ele>
        <time>2021-06-12T15:17:04.634Z</time>
      </trkpt>
      <trkpt lat="44.6538" lon="3.01">
        <ele>1237.612705</ele>
        <time>2021-06-12T15:17:35.130Z</time>
      </trkpt>
      <trkpt lat="44.65403" lon="3.00869">
        <ele>1246.441336</ele>
        <time>2021-06-12T15:18:58.855Z</time>
      </trkpt>
      <trkpt lat="44.65395" lon="3.00765">
        <ele>1253.421013</ele>
        <time>2021-06-12T15:20:01.307Z</time>
      </trkpt>
      <trkpt lat="44.65398" lon="3.00747">
        <ele>1254.601314</ele>
        <time>2021-06-12T15:20:11.158Z</time>
      </trkpt>
      <trkpt lat="44.65396" lon="3.00733">
        <ele>1255.57564</ele>
        <time>2021-06-12T15:20:19.190Z</time>
      </trkpt>
      <trkpt lat="44.65374" lon="3.00683">
        <ele>1259.434947</ele>
        <time>2021-06-12T15:20:50.433Z</time>
      </trkpt>
      <trkpt lat="44.65348" lon="3.00634">
        <ele>1262.588412</ele>
        <time>2021-06-12T15:21:22.394Z</time>
      </trkpt>
      <trkpt lat="44.65327" lon="3.00609">
        <ele>1264.349505</ele>
        <time>2021-06-12T15:21:42.074Z</time>
      </trkpt>
      <trkpt lat="44.65286" lon="3.00581">
        <ele>1267.232454</ele>
        <time>2021-06-12T15:22:12.979Z</time>
      </trkpt>
      <trkpt lat="44.65241" lon="3.0058">
        <ele>1270.087538</ele>
        <time>2021-06-12T15:22:43.012Z</time>
      </trkpt>
      <trkpt lat="44.6521" lon="3.00594">
        <ele>1272.136904</ele>
        <time>2021-06-12T15:23:04.369Z</time>
      </trkpt>
      <trkpt lat="44.65148" lon="3.00568">
        <ele>1274.973529</ele>
        <time>2021-06-12T15:23:45.610Z</time>
      </trkpt>
      <trkpt lat="44.65116" lon="3.0057">
        <ele>1276.340526</ele>
        <time>2021-06-12T15:24:05.249Z</time>
      </trkpt>
      <trkpt lat="44.6504" lon="3.00573">
        <ele>1279.651088</ele>
        <time>2021-06-12T15:24:51.797Z</time>
      </trkpt>
      <trkpt lat="44.65004" lon="3.00569">
        <ele>1280.670909</ele>
        <time>2021-06-12T15:25:13.562Z</time>
      </trkpt>
      <trkpt lat="44.64978" lon="3.00546">
        <ele>1281.464956</ele>
        <time>2021-06-12T15:25:32.416Z</time>
      </trkpt>
      <trkpt lat="44.64936" lon="3.00465">
        <ele>1283.254897</ele>
        <time>2021-06-12T15:26:13.572Z</time>
      </trkpt>
      <trkpt lat="44.64884" lon="3.00258">
        <ele>1285.089282</ele>
        <time>2021-06-12T15:27:39.021Z</time>
      </trkpt>
      <trkpt lat="44.64864" lon="3.00149">
        <ele>1285.538884</ele>
        <time>2021-06-12T15:28:20.762Z</time>
      </trkpt>
      <trkpt lat="44.64845" lon="3.00037">
        <ele>1285.780237</ele>
        <time>2021-06-12T15:29:03.557Z</time>
      </trkpt>
      <trkpt lat="44.64837" lon="2.99986">
        <ele>1285.889215</ele>
        <time>2021-06-12T15:29:23.138Z</time>
      </trkpt>
      <trkpt lat="44.64841" lon="2.99929">
        <ele>1286.009443</ele>
        <time>2021-06-12T15:29:45.182Z</time>
      </trkpt>
      <trkpt lat="44.64848" lon="2.99897">
        <ele>1286.338485</ele>
        <time>2021-06-12T15:29:58.102Z</time>
      </trkpt>
      <trkpt lat="44.64843" lon="2.99864">
        <ele>1286.882681</ele>
        <time>2021-06-12T15:30:11.424Z</time>
      </trkpt>
      <trkpt lat="44.64828" lon="2.99835">
        <ele>1287.478864</ele>
        <time>2021-06-12T15:30:26.201Z</time>
      </trkpt>
      <trkpt lat="44.64823" lon="2.99805">
        <ele>1287.972616</ele>
        <time>2021-06-12T15:30:38.654Z</time>
      </trkpt>
      <trkpt lat="44.64842" lon="2.99588">
        <ele>1291.610783</ele>
        <time>2021-06-12T15:32:09.838Z</time>
      </trkpt>
      <trkpt lat="44.6484" lon="2.99432">
        <ele>1294.325703</ele>
        <time>2021-06-12T15:33:13.828Z</time>
      </trkpt>
      <trkpt lat="44.6483" lon="2.9931">
        <ele>1295.70308</ele>
        <time>2021-06-12T15:34:02.569Z</time>
      </trkpt>
      <trkpt lat="44.64816" lon="2.99252">
        <ele>1296.350962</ele>
        <time>2021-06-12T15:34:26.489Z</time>
      </trkpt>
      <trkpt lat="44.64819" lon="2.99223">
        <ele>1296.668036</ele>
        <time>2021-06-12T15:34:38.139Z</time>
      </trkpt>
      <trkpt lat="44.64816" lon="2.99192">
        <ele>1296.997</ele>
        <time>2021-06-12T15:34:50.205Z</time>
      </trkpt>
      <trkpt lat="44.648" lon="2.99144">
        <ele>1297.474223</ele>
        <time>2021-06-12T15:35:10.882Z</time>
      </trkpt>
      <trkpt lat="44.6477" lon="2.99082">
        <ele>1298.063987</ele>
        <time>2021-06-12T15:35:39.675Z</time>
      </trkpt>
      <trkpt lat="44.6476" lon="2.99048">
        <ele>1298.357603</ele>
        <time>2021-06-12T15:35:54.060Z</time>
      </trkpt>
      <trkpt lat="44.64738" lon="2.99024">
        <ele>1298.669717</ele>
        <time>2021-06-12T15:36:09.308Z</time>
      </trkpt>
      <trkpt lat="44.64621" lon="2.98947">
        <ele>1300.816711</ele>
        <time>2021-06-12T15:37:20.278Z</time>
      </trkpt>
      <trkpt lat="44.64606" lon="2.98932">
        <ele>1301.194105</ele>
        <time>2021-06-12T15:37:30.995Z</time>
      </trkpt>
      <trkpt lat="44.64555" lon="2.98904">
        <ele>1302.273996</ele>
        <time>2021-06-12T15:38:02.032Z</time>
      </trkpt>
      <trkpt lat="44.64534" lon="2.98874">
        <ele>1302.927578</ele>
        <time>2021-06-12T15:38:20.120Z</time>
      </trkpt>
      <trkpt lat="44.64517" lon="2.98861">
        <ele>1303.488859</ele>
        <time>2021-06-12T15:38:31.208Z</time>
      </trkpt>
      <trkpt lat="44.64472" lon="2.98871">
        <ele>1304.867555</ele>
        <time>2021-06-12T15:38:58.638Z</time>
      </trkpt>
      <trkpt lat="44.64439" lon="2.98855">
        <ele>1305.908644</ele>
        <time>2021-06-12T15:39:19.467Z</time>
      </trkpt>
      <trkpt lat="44.64419" lon="2.98822">
        <ele>1306.834087</ele>
        <time>2021-06-12T15:39:37.995Z</time>
      </trkpt>
      <trkpt lat="44.64444" lon="2.98729">
        <ele>1308.362074</ele>
        <time>2021-06-12T15:40:19.260Z</time>
      </trkpt>
      <trkpt lat="44.64413" lon="2.9864">
        <ele>1308.827206</ele>
        <time>2021-06-12T15:40:57.708Z</time>
      </trkpt>
      <trkpt lat="44.64346" lon="2.98663">
        <ele>1309.280672</ele>
        <time>2021-06-12T15:41:33.108Z</time>
      </trkpt>
      <trkpt lat="44.6423" lon="2.98717">
        <ele>1309.737092</ele>
        <time>2021-06-12T15:42:36.356Z</time>
      </trkpt>
      <trkpt lat="44.64191" lon="2.98736">
        <ele>1309.873143</ele>
        <time>2021-06-12T15:42:58.495Z</time>
      </trkpt>
      <trkpt lat="44.64132" lon="2.98752">
        <ele>1311.396136</ele>
        <time>2021-06-12T15:43:31.920Z</time>
      </trkpt>
      <trkpt lat="44.64105" lon="2.98784">
        <ele>1313.197514</ele>
        <time>2021-06-12T15:43:53.400Z</time>
      </trkpt>
      <trkpt lat="44.64006" lon="2.98881">
        <ele>1319.497333</ele>
        <time>2021-06-12T15:45:15.872Z</time>
      </trkpt>
      <trkpt lat="44.63946" lon="2.98924">
        <ele>1324.964414</ele>
        <time>2021-06-12T15:46:05.965Z</time>
      </trkpt>
      <trkpt lat="44.63825" lon="2.99029">
        <ele>1336.425185</ele>
        <time>2021-06-12T15:47:55.592Z</time>
      </trkpt>
      <trkpt lat="44.6366" lon="2.99187">
        <ele>1351.429842</ele>
        <time>2021-06-12T15:50:23.254Z</time>
      </trkpt>
      <trkpt lat="44.63571" lon="2.99298">
        <ele>1358.679517</ele>
        <time>2021-06-12T15:51:42.338Z</time>
      </trkpt>
      <trkpt lat="44.63504" lon="2.99364">
        <ele>1360.53491</ele>
        <time>2021-06-12T15:52:31.879Z</time>
      </trkpt>
      <trkpt lat="44.63466" lon="2.99392">
        <ele>1361.364211</ele>
        <time>2021-06-12T15:52:55.258Z</time>
      </trkpt>
      <trkpt lat="44.63377" lon="2.99427">
        <ele>1361.956914</ele>
        <time>2021-06-12T15:53:43.412Z</time>
      </trkpt>
      <trkpt lat="44.63367" lon="2.99427">
        <ele>1361.754603</ele>
        <time>2021-06-12T15:53:48.596Z</time>
      </trkpt>
      <trkpt lat="44.63362" lon="2.99428">
        <ele>1361.652513</ele>
        <time>2021-06-12T15:53:50.849Z</time>
      </trkpt>
      <trkpt lat="44.63341" lon="2.99417">
        <ele>1361.196147</ele>
        <time>2021-06-12T15:54:02.253Z</time>
      </trkpt>
      <trkpt lat="44.63289" lon="2.99369">
        <ele>1359.925555</ele>
        <time>2021-06-12T15:54:32.944Z</time>
      </trkpt>
      <trkpt lat="44.63235" lon="2.99335">
        <ele>1358.614212</ele>
        <time>2021-06-12T15:55:01.554Z</time>
      </trkpt>
      <trkpt lat="44.63155" lon="2.99266">
        <ele>1355.6509</ele>
        <time>2021-06-12T15:55:47.058Z</time>
      </trkpt>
      <trkpt lat="44.63091" lon="2.99223">
        <ele>1353.389518</ele>
        <time>2021-06-12T15:56:21.803Z</time>
      </trkpt>
      <trkpt lat="44.6305" lon="2.99165">
        <ele>1351.347676</ele>
        <time>2021-06-12T15:56:50.132Z</time>
      </trkpt>
      <trkpt lat="44.63002" lon="2.99052">
        <ele>1348.032244</ele>
        <time>2021-06-12T15:57:35.431Z</time>
      </trkpt>
      <trkpt lat="44.62957" lon="2.98985">
        <ele>1344.867242</ele>
        <time>2021-06-12T15:58:06.992Z</time>
      </trkpt>
      <trkpt lat="44.6287" lon="2.9889">
        <ele>1338.192456</ele>
        <time>2021-06-12T15:58:56.821Z</time>
      </trkpt>
      <trkpt lat="44.62797" lon="2.98844">
        <ele>1331.582877</ele>
        <time>2021-06-12T15:59:32.041Z</time>
      </trkpt>
      <trkpt lat="44.6278" lon="2.98836">
        <ele>1329.824955</ele>
        <time>2021-06-12T15:59:39.757Z</time>
      </trkpt>
      <trkpt lat="44.62766" lon="2.9883">
        <ele>1328.389698</ele>
        <time>2021-06-12T15:59:45.668Z</time>
      </trkpt>
      <trkpt lat="44.6267" lon="2.98797">
        <ele>1318.52888</ele>
        <time>2021-06-12T16:00:26.279Z</time>
      </trkpt>
      <trkpt lat="44.62617" lon="2.98784">
        <ele>1314.28434</ele>
        <time>2021-06-12T16:00:48.847Z</time>
      </trkpt>
      <trkpt lat="44.62609" lon="2.98771">
        <ele>1313.385835</ele>
        <time>2021-06-12T16:00:53.883Z</time>
      </trkpt>
      <trkpt lat="44.62604" lon="2.98763">
        <ele>1312.772763</ele>
        <time>2021-06-12T16:00:57.409Z</time>
      </trkpt>
      <trkpt lat="44.62598" lon="2.98752">
        <ele>1312.024346</ele>
        <time>2021-06-12T16:01:01.986Z</time>
      </trkpt>
      <trkpt lat="44.6254" lon="2.98746">
        <ele>1307.680664</ele>
        <time>2021-06-12T16:01:27.862Z</time>
      </trkpt>
      <trkpt lat="44.6253" lon="2.98744">
        <ele>1306.954922</ele>
        <time>2021-06-12T16:01:32.219Z</time>
      </trkpt>
      <trkpt lat="44.62529" lon="2.98743">
        <ele>1306.832015</ele>
        <time>2021-06-12T16:01:33.005Z</time>
      </trkpt>
      <trkpt lat="44.62513" lon="2.98738">
        <ele>1305.643116</ele>
        <time>2021-06-12T16:01:40.408Z</time>
      </trkpt>
      <trkpt lat="44.62402" lon="2.98718">
        <ele>1303.063494</ele>
        <time>2021-06-12T16:02:34.527Z</time>
      </trkpt>
      <trkpt lat="44.62361" lon="2.98699">
        <ele>1302.461434</ele>
        <time>2021-06-12T16:02:57.848Z</time>
      </trkpt>
      <trkpt lat="44.6235" lon="2.987">
        <ele>1302.308601</ele>
        <time>2021-06-12T16:03:03.976Z</time>
      </trkpt>
      <trkpt lat="44.62326" lon="2.98721">
        <ele>1301.929861</ele>
        <time>2021-06-12T16:03:19.507Z</time>
      </trkpt>
      <trkpt lat="44.62313" lon="2.98743">
        <ele>1302.325059</ele>
        <time>2021-06-12T16:03:30.607Z</time>
      </trkpt>
      <trkpt lat="44.62309" lon="2.9875">
        <ele>1302.484278</ele>
        <time>2021-06-12T16:03:34.327Z</time>
      </trkpt>
      <trkpt lat="44.62297" lon="2.98736">
        <ele>1302.836669</ele>
        <time>2021-06-12T16:03:43.146Z</time>
      </trkpt>
      <trkpt lat="44.62261" lon="2.98694">
        <ele>1303.981078</ele>
        <time>2021-06-12T16:04:10.361Z</time>
      </trkpt>
      <trkpt lat="44.62257" lon="2.98688">
        <ele>1304.12048</ele>
        <time>2021-06-12T16:04:14.031Z</time>
      </trkpt>
      <trkpt lat="44.62245" lon="2.98689">
        <ele>1304.412094</ele>
        <time>2021-06-12T16:04:20.110Z</time>
      </trkpt>
      <trkpt lat="44.62233" lon="2.98687">
        <ele>1304.695531</ele>
        <time>2021-06-12T16:04:25.825Z</time>
      </trkpt>
      <trkpt lat="44.62216" lon="2.98676">
        <ele>1305.158421</ele>
        <time>2021-06-12T16:04:35.249Z</time>
      </trkpt>
      <trkpt lat="44.62212" lon="2.98671">
        <ele>1305.278614</ele>
        <time>2021-06-12T16:04:38.013Z</time>
      </trkpt>
      <trkpt lat="44.6219" lon="2.98636">
        <ele>1306.072224</ele>
        <time>2021-06-12T16:04:54.329Z</time>
      </trkpt>
      <trkpt lat="44.62184" lon="2.98625">
        <ele>1306.297817</ele>
        <time>2021-06-12T16:04:59.630Z</time>
      </trkpt>
      <trkpt lat="44.6218" lon="2.98615">
        <ele>1306.458347</ele>
        <time>2021-06-12T16:05:03.784Z</time>
      </trkpt>
      <trkpt lat="44.62145" lon="2.98441">
        <ele>1308.884782</ele>
        <time>2021-06-12T16:06:05.678Z</time>
      </trkpt>
      <trkpt lat="44.62127" lon="2.98398">
        <ele>1309.562064</ele>
        <time>2021-06-12T16:06:22.260Z</time>
      </trkpt>
      <trkpt lat="44.62112" lon="2.98377">
        <ele>1309.742956</ele>
        <time>2021-06-12T16:06:31.855Z</time>
      </trkpt>
      <trkpt lat="44.62105" lon="2.98366">
        <ele>1309.810296</ele>
        <time>2021-06-12T16:06:36.701Z</time>
      </trkpt>
      <trkpt lat="44.62094" lon="2.98346">
        <ele>1309.92756</ele>
        <time>2021-06-12T16:06:44.740Z</time>
      </trkpt>
      <trkpt lat="44.62073" lon="2.98269">
        <ele>1310.316756</ele>
        <time>2021-06-12T16:07:11.986Z</time>
      </trkpt>
      <trkpt lat="44.62057" lon="2.98242">
        <ele>1310.480045</ele>
        <time>2021-06-12T16:07:23.259Z</time>
      </trkpt>
      <trkpt lat="44.62003" lon="2.98182">
        <ele>1310.439232</ele>
        <time>2021-06-12T16:07:54.774Z</time>
      </trkpt>
      <trkpt lat="44.61985" lon="2.98149">
        <ele>1309.891752</ele>
        <time>2021-06-12T16:08:07.591Z</time>
      </trkpt>
      <trkpt lat="44.6196" lon="2.98053">
        <ele>1308.505444</ele>
        <time>2021-06-12T16:08:39.041Z</time>
      </trkpt>
      <trkpt lat="44.61929" lon="2.97932">
        <ele>1305.425096</ele>
        <time>2021-06-12T16:09:16.094Z</time>
      </trkpt>
      <trkpt lat="44.61926" lon="2.97914">
        <ele>1304.617415</ele>
        <time>2021-06-12T16:09:21.544Z</time>
      </trkpt>
      <trkpt lat="44.61924" lon="2.97898">
        <ele>1303.916601</ele>
        <time>2021-06-12T16:09:26.132Z</time>
      </trkpt>
      <trkpt lat="44.61917" lon="2.97879">
        <ele>1303.004697</ele>
        <time>2021-06-12T16:09:33.068Z</time>
      </trkpt>
      <trkpt lat="44.61843" lon="2.97629">
        <ele>1290.449589</ele>
        <time>2021-06-12T16:10:59.259Z</time>
      </trkpt>
      <trkpt lat="44.61804" lon="2.9753">
        <ele>1284.675983</ele>
        <time>2021-06-12T16:11:35.023Z</time>
      </trkpt>
      <trkpt lat="44.61796" lon="2.97517">
        <ele>1283.737021</ele>
        <time>2021-06-12T16:11:40.792Z</time>
      </trkpt>
      <trkpt lat="44.61783" lon="2.9751">
        <ele>1282.659533</ele>
        <time>2021-06-12T16:11:46.743Z</time>
      </trkpt>
      <trkpt lat="44.61779" lon="2.97498">
        <ele>1281.903839</ele>
        <time>2021-06-12T16:11:50.908Z</time>
      </trkpt>
      <trkpt lat="44.61778" lon="2.97469">
        <ele>1280.241627</ele>
        <time>2021-06-12T16:12:00.057Z</time>
      </trkpt>
      <trkpt lat="44.61783" lon="2.97439">
        <ele>1278.510752</ele>
        <time>2021-06-12T16:12:09.611Z</time>
      </trkpt>
      <trkpt lat="44.61842" lon="2.9728">
        <ele>1268.152489</ele>
        <time>2021-06-12T16:13:05.314Z</time>
      </trkpt>
      <trkpt lat="44.61855" lon="2.9726">
        <ele>1266.503068</ele>
        <time>2021-06-12T16:13:13.743Z</time>
      </trkpt>
      <trkpt lat="44.61855" lon="2.97243">
        <ele>1265.497472</ele>
        <time>2021-06-12T16:13:18.933Z</time>
      </trkpt>
      <trkpt lat="44.61829" lon="2.9716">
        <ele>1260.04002</ele>
        <time>2021-06-12T16:13:46.982Z</time>
      </trkpt>
      <trkpt lat="44.61818" lon="2.97084">
        <ele>1255.36045</ele>
        <time>2021-06-12T16:14:11.100Z</time>
      </trkpt>
      <trkpt lat="44.61798" lon="2.96967">
        <ele>1248.222783</ele>
        <time>2021-06-12T16:14:48.281Z</time>
      </trkpt>
      <trkpt lat="44.61783" lon="2.96932">
        <ele>1245.825206</ele>
        <time>2021-06-12T16:15:00.961Z</time>
      </trkpt>
      <trkpt lat="44.61777" lon="2.96904">
        <ele>1244.070243</ele>
        <time>2021-06-12T16:15:10.254Z</time>
      </trkpt>
      <trkpt lat="44.61781" lon="2.96879">
        <ele>1242.551632</ele>
        <time>2021-06-12T16:15:18.299Z</time>
      </trkpt>
      <trkpt lat="44.61767" lon="2.96856">
        <ele>1240.766974</ele>
        <time>2021-06-12T16:15:27.704Z</time>
      </trkpt>
      <trkpt lat="44.61656" lon="2.96761">
        <ele>1229.147356</ele>
        <time>2021-06-12T16:16:23.778Z</time>
      </trkpt>
      <trkpt lat="44.61567" lon="2.96676">
        <ele>1219.772738</ele>
        <time>2021-06-12T16:17:09.342Z</time>
      </trkpt>
      <trkpt lat="44.61493" lon="2.96626">
        <ele>1212.946314</ele>
        <time>2021-06-12T16:17:44.984Z</time>
      </trkpt>
      <trkpt lat="44.61412" lon="2.96541">
        <ele>1205.98765</ele>
        <time>2021-06-12T16:18:29.985Z</time>
      </trkpt>
      <trkpt lat="44.61051" lon="2.96426">
        <ele>1191.657407</ele>
        <time>2021-06-12T16:21:26.616Z</time>
      </trkpt>
      <trkpt lat="44.61033" lon="2.96414">
        <ele>1191.437503</ele>
        <time>2021-06-12T16:21:36.602Z</time>
      </trkpt>
      <trkpt lat="44.61027" lon="2.96389">
        <ele>1191.23159</ele>
        <time>2021-06-12T16:21:46.326Z</time>
      </trkpt>
      <trkpt lat="44.61028" lon="2.9637">
        <ele>1191.080011</ele>
        <time>2021-06-12T16:21:53.334Z</time>
      </trkpt>
      <trkpt lat="44.61013" lon="2.96287">
        <ele>1190.414283</ele>
        <time>2021-06-12T16:22:25.416Z</time>
      </trkpt>
      <trkpt lat="44.60969" lon="2.96126">
        <ele>1192.631759</ele>
        <time>2021-06-12T16:23:35.107Z</time>
      </trkpt>
      <trkpt lat="44.60952" lon="2.96104">
        <ele>1193.157626</ele>
        <time>2021-06-12T16:23:48.817Z</time>
      </trkpt>
      <trkpt lat="44.60921" lon="2.96088">
        <ele>1193.891401</ele>
        <time>2021-06-12T16:24:08.168Z</time>
      </trkpt>
      <trkpt lat="44.60885" lon="2.96082">
        <ele>1194.301669</ele>
        <time>2021-06-12T16:24:29.923Z</time>
      </trkpt>
      <trkpt lat="44.60854" lon="2.96047">
        <ele>1194.368808</ele>
        <time>2021-06-12T16:24:52.893Z</time>
      </trkpt>
      <trkpt lat="44.6084" lon="2.96014">
        <ele>1194.415339</ele>
        <time>2021-06-12T16:25:07.693Z</time>
      </trkpt>
      <trkpt lat="44.60843" lon="2.95947">
        <ele>1194.496499</ele>
        <time>2021-06-12T16:25:33.261Z</time>
      </trkpt>
      <trkpt lat="44.60829" lon="2.959">
        <ele>1194.558066</ele>
        <time>2021-06-12T16:25:51.124Z</time>
      </trkpt>
      <trkpt lat="44.6081" lon="2.95854">
        <ele>1192.209789</ele>
        <time>2021-06-12T16:26:09.207Z</time>
      </trkpt>
      <trkpt lat="44.60792" lon="2.95834">
        <ele>1190.363965</ele>
        <time>2021-06-12T16:26:18.037Z</time>
      </trkpt>
      <trkpt lat="44.60783" lon="2.95818">
        <ele>1189.180833</ele>
        <time>2021-06-12T16:26:23.602Z</time>
      </trkpt>
      <trkpt lat="44.60776" lon="2.95784">
        <ele>1187.092142</ele>
        <time>2021-06-12T16:26:33.239Z</time>
      </trkpt>
      <trkpt lat="44.60758" lon="2.9575">
        <ele>1184.65561</ele>
        <time>2021-06-12T16:26:44.161Z</time>
      </trkpt>
      <trkpt lat="44.60746" lon="2.9574">
        <ele>1183.536151</ele>
        <time>2021-06-12T16:26:49.913Z</time>
      </trkpt>
      <trkpt lat="44.60672" lon="2.95717">
        <ele>1175.636867</ele>
        <time>2021-06-12T16:27:21.307Z</time>
      </trkpt>
      <trkpt lat="44.60607" lon="2.95674">
        <ele>1166.030952</ele>
        <time>2021-06-12T16:27:50.707Z</time>
      </trkpt>
      <trkpt lat="44.60557" lon="2.95631">
        <ele>1158.216588</ele>
        <time>2021-06-12T16:28:14.639Z</time>
      </trkpt>
      <trkpt lat="44.60547" lon="2.956">
        <ele>1154.979399</ele>
        <time>2021-06-12T16:28:24.792Z</time>
      </trkpt>
      <trkpt lat="44.60556" lon="2.95575">
        <ele>1152.470153</ele>
        <time>2021-06-12T16:28:33.173Z</time>
      </trkpt>
      <trkpt lat="44.60552" lon="2.95536">
        <ele>1149.088021</ele>
        <time>2021-06-12T16:28:44.421Z</time>
      </trkpt>
      <trkpt lat="44.60535" lon="2.95525">
        <ele>1146.696156</ele>
        <time>2021-06-12T16:28:52.392Z</time>
      </trkpt>
      <trkpt lat="44.60495" lon="2.95516">
        <ele>1141.656117</ele>
        <time>2021-06-12T16:29:09.113Z</time>
      </trkpt>
      <trkpt lat="44.60458" lon="2.95491">
        <ele>1136.682102</ele>
        <time>2021-06-12T16:29:25.658Z</time>
      </trkpt>
      <trkpt lat="44.60451" lon="2.95463">
        <ele>1134.025007</ele>
        <time>2021-06-12T16:29:34.562Z</time>
      </trkpt>
      <trkpt lat="44.60441" lon="2.95458">
        <ele>1132.997516</ele>
        <time>2021-06-12T16:29:38.836Z</time>
      </trkpt>
      <trkpt lat="44.60411" lon="2.95474">
        <ele>1130.212655</ele>
        <time>2021-06-12T16:29:52.245Z</time>
      </trkpt>
      <trkpt lat="44.60395" lon="2.95496">
        <ele>1128.264342</ele>
        <time>2021-06-12T16:30:01.787Z</time>
      </trkpt>
      <trkpt lat="44.60421" lon="2.9556">
        <ele>1123.667884</ele>
        <time>2021-06-12T16:30:24.795Z</time>
      </trkpt>
      <trkpt lat="44.60414" lon="2.95571">
        <ele>1122.738149</ele>
        <time>2021-06-12T16:30:29.489Z</time>
      </trkpt>
      <trkpt lat="44.60359" lon="2.95548">
        <ele>1117.774381</ele>
        <time>2021-06-12T16:30:54.980Z</time>
      </trkpt>
      <trkpt lat="44.60336" lon="2.95521">
        <ele>1115.882899</ele>
        <time>2021-06-12T16:31:08.584Z</time>
      </trkpt>
      <trkpt lat="44.60319" lon="2.95491">
        <ele>1114.238788</ele>
        <time>2021-06-12T16:31:20.561Z</time>
      </trkpt>
      <trkpt lat="44.6031" lon="2.95448">
        <ele>1112.197279</ele>
        <time>2021-06-12T16:31:35.553Z</time>
      </trkpt>
      <trkpt lat="44.60284" lon="2.95402">
        <ele>1109.617269</ele>
        <time>2021-06-12T16:31:54.675Z</time>
      </trkpt>
      <trkpt lat="44.60289" lon="2.95383">
        <ele>1108.753182</ele>
        <time>2021-06-12T16:32:01.092Z</time>
      </trkpt>
      <trkpt lat="44.60273" lon="2.95286">
        <ele>1103.576987</ele>
        <time>2021-06-12T16:32:33.374Z</time>
      </trkpt>
      <trkpt lat="44.60262" lon="2.95271">
        <ele>1102.381871</ele>
        <time>2021-06-12T16:32:39.978Z</time>
      </trkpt>
      <trkpt lat="44.60256" lon="2.95252">
        <ele>1101.135852</ele>
        <time>2021-06-12T16:32:47.045Z</time>
      </trkpt>
      <trkpt lat="44.60243" lon="2.95246">
        <ele>1100.025836</ele>
        <time>2021-06-12T16:32:52.933Z</time>
      </trkpt>
      <trkpt lat="44.60231" lon="2.95231">
        <ele>1098.719971</ele>
        <time>2021-06-12T16:33:00.270Z</time>
      </trkpt>
      <trkpt lat="44.60233" lon="2.95216">
        <ele>1097.840696</ele>
        <time>2021-06-12T16:33:05.130Z</time>
      </trkpt>
      <trkpt lat="44.60257" lon="2.95185">
        <ele>1095.219319</ele>
        <time>2021-06-12T16:33:19.078Z</time>
      </trkpt>
      <trkpt lat="44.60257" lon="2.95174">
        <ele>1094.593151</ele>
        <time>2021-06-12T16:33:22.248Z</time>
      </trkpt>
      <trkpt lat="44.60257" lon="2.95174">
        <ele>1094.593151</ele>
        <time>2021-06-12T16:33:22.831Z</time>
      </trkpt>
      <trkpt lat="44.60257" lon="2.95174">
        <ele>1094.593151</ele>
        <time>2021-06-12T16:33:22.953Z</time>
      </trkpt>
      <trkpt lat="44.60247" lon="2.95175">
        <ele>1093.707317</ele>
        <time>2021-06-12T16:33:27.097Z</time>
      </trkpt>
      <trkpt lat="44.60237" lon="2.95178">
        <ele>1092.91359</ele>
        <time>2021-06-12T16:33:30.592Z</time>
      </trkpt>
      <trkpt lat="44.60198" lon="2.95226">
        <ele>1086.611853</ele>
        <time>2021-06-12T16:33:48.872Z</time>
      </trkpt>
      <trkpt lat="44.60172" lon="2.95247">
        <ele>1082.785767</ele>
        <time>2021-06-12T16:33:59.169Z</time>
      </trkpt>
      <trkpt lat="44.60166" lon="2.95251">
        <ele>1081.850218</ele>
        <time>2021-06-12T16:34:01.662Z</time>
      </trkpt>
      <trkpt lat="44.60165" lon="2.95242">
        <ele>1080.990272</ele>
        <time>2021-06-12T16:34:03.994Z</time>
      </trkpt>
      <trkpt lat="44.60164" lon="2.95236">
        <ele>1080.438072</ele>
        <time>2021-06-12T16:34:05.457Z</time>
      </trkpt>
      <trkpt lat="44.60165" lon="2.95229">
        <ele>1079.703757</ele>
        <time>2021-06-12T16:34:07.428Z</time>
      </trkpt>
      <trkpt lat="44.60166" lon="2.95222">
        <ele>1079.08345</ele>
        <time>2021-06-12T16:34:09.067Z</time>
      </trkpt>
      <trkpt lat="44.60171" lon="2.95197">
        <ele>1076.645215</ele>
        <time>2021-06-12T16:34:15.640Z</time>
      </trkpt>
      <trkpt lat="44.6016" lon="2.95189">
        <ele>1075.060631</ele>
        <time>2021-06-12T16:34:19.841Z</time>
      </trkpt>
      <trkpt lat="44.60148" lon="2.9518">
        <ele>1073.334918</ele>
        <time>2021-06-12T16:34:24.595Z</time>
      </trkpt>
      <trkpt lat="44.60135" lon="2.95182">
        <ele>1071.625295</ele>
        <time>2021-06-12T16:34:29.188Z</time>
      </trkpt>
      <trkpt lat="44.60132" lon="2.95175">
        <ele>1070.89748</ele>
        <time>2021-06-12T16:34:31.460Z</time>
      </trkpt>
      <trkpt lat="44.60135" lon="2.9513">
        <ele>1067.025356</ele>
        <time>2021-06-12T16:34:44.678Z</time>
      </trkpt>
      <trkpt lat="44.60103" lon="2.95035">
        <ele>1058.792006</ele>
        <time>2021-06-12T16:35:15.184Z</time>
      </trkpt>
      <trkpt lat="44.60103" lon="2.95034">
        <ele>1058.660022</ele>
        <time>2021-06-12T16:35:15.756Z</time>
      </trkpt>
      <trkpt lat="44.60083" lon="2.95011">
        <ele>1055.865005</ele>
        <time>2021-06-12T16:35:26.740Z</time>
      </trkpt>
      <trkpt lat="44.60041" lon="2.94982">
        <ele>1050.681115</ele>
        <time>2021-06-12T16:35:46.595Z</time>
      </trkpt>
      <trkpt lat="44.59981" lon="2.94923">
        <ele>1045.8968</ele>
        <time>2021-06-12T16:36:20.597Z</time>
      </trkpt>
      <trkpt lat="44.5998" lon="2.94917">
        <ele>1045.668385</ele>
        <time>2021-06-12T16:36:22.448Z</time>
      </trkpt>
      <trkpt lat="44.59982" lon="2.94914">
        <ele>1045.518846</ele>
        <time>2021-06-12T16:36:23.946Z</time>
      </trkpt>
      <trkpt lat="44.59987" lon="2.9491">
        <ele>1045.194196</ele>
        <time>2021-06-12T16:36:27.947Z</time>
      </trkpt>
      <trkpt lat="44.59994" lon="2.94878">
        <ele>1043.976545</ele>
        <time>2021-06-12T16:36:39.329Z</time>
      </trkpt>
      <trkpt lat="44.60005" lon="2.94863">
        <ele>1043.21302</ele>
        <time>2021-06-12T16:36:47.026Z</time>
      </trkpt>
      <trkpt lat="44.60015" lon="2.94859">
        <ele>1042.680134</ele>
        <time>2021-06-12T16:36:52.214Z</time>
      </trkpt>
      <trkpt lat="44.60023" lon="2.94841">
        <ele>1041.916066</ele>
        <time>2021-06-12T16:36:59.173Z</time>
      </trkpt>
      <trkpt lat="44.60035" lon="2.94841">
        <ele>1041.297337</ele>
        <time>2021-06-12T16:37:05.145Z</time>
      </trkpt>
      <trkpt lat="44.60062" lon="2.94828">
        <ele>1039.853206</ele>
        <time>2021-06-12T16:37:17.885Z</time>
      </trkpt>
      <trkpt lat="44.60115" lon="2.94817">
        <ele>1034.242442</ele>
        <time>2021-06-12T16:37:41.750Z</time>
      </trkpt>
      <trkpt lat="44.60157" lon="2.94802">
        <ele>1029.547787</ele>
        <time>2021-06-12T16:38:00.255Z</time>
      </trkpt>
      <trkpt lat="44.60155" lon="2.94791">
        <ele>1028.66352</ele>
        <time>2021-06-12T16:38:03.865Z</time>
      </trkpt>
      <trkpt lat="44.60155" lon="2.9478">
        <ele>1027.813373</ele>
        <time>2021-06-12T16:38:07.072Z</time>
      </trkpt>
      <trkpt lat="44.6016" lon="2.94763">
        <ele>1026.387083</ele>
        <time>2021-06-12T16:38:12.406Z</time>
      </trkpt>
      <trkpt lat="44.60159" lon="2.94757">
        <ele>1025.923022</ele>
        <time>2021-06-12T16:38:14.241Z</time>
      </trkpt>
      <trkpt lat="44.60116" lon="2.9473">
        <ele>1020.779108</ele>
        <time>2021-06-12T16:38:33.560Z</time>
      </trkpt>
      <trkpt lat="44.6008" lon="2.94667">
        <ele>1011.760913</ele>
        <time>2021-06-12T16:38:56.959Z</time>
      </trkpt>
      <trkpt lat="44.60031" lon="2.94615">
        <ele>1001.759543</ele>
        <time>2021-06-12T16:39:21.779Z</time>
      </trkpt>
      <trkpt lat="44.59965" lon="2.94516">
        <ele>987.13145</ele>
        <time>2021-06-12T16:40:01.587Z</time>
      </trkpt>
      <trkpt lat="44.59896" lon="2.94446">
        <ele>977.170722</ele>
        <time>2021-06-12T16:40:36.584Z</time>
      </trkpt>
      <trkpt lat="44.59856" lon="2.94388">
        <ele>970.493986</ele>
        <time>2021-06-12T16:41:00.881Z</time>
      </trkpt>
      <trkpt lat="44.59814" lon="2.94314">
        <ele>964.736435</ele>
        <time>2021-06-12T16:41:30.817Z</time>
      </trkpt>
      <trkpt lat="44.59801" lon="2.9426">
        <ele>961.520441</ele>
        <time>2021-06-12T16:41:48.855Z</time>
      </trkpt>
      <trkpt lat="44.598" lon="2.94229">
        <ele>959.744077</ele>
        <time>2021-06-12T16:41:58.856Z</time>
      </trkpt>
      <trkpt lat="44.5978" lon="2.94146">
        <ele>954.597043</ele>
        <time>2021-06-12T16:42:26.248Z</time>
      </trkpt>
      <trkpt lat="44.59763" lon="2.94103">
        <ele>950.171563</ele>
        <time>2021-06-12T16:42:41.090Z</time>
      </trkpt>
      <trkpt lat="44.59739" lon="2.94075">
        <ele>946.251381</ele>
        <time>2021-06-12T16:42:53.936Z</time>
      </trkpt>
      <trkpt lat="44.59729" lon="2.94045">
        <ele>943.248685</ele>
        <time>2021-06-12T16:43:03.736Z</time>
      </trkpt>
      <trkpt lat="44.5971" lon="2.94013">
        <ele>939.513303</ele>
        <time>2021-06-12T16:43:15.898Z</time>
      </trkpt>
      <trkpt lat="44.59696" lon="2.93999">
        <ele>937.398546</ele>
        <time>2021-06-12T16:43:22.761Z</time>
      </trkpt>
      <trkpt lat="44.59682" lon="2.93997">
        <ele>935.599239</ele>
        <time>2021-06-12T16:43:28.619Z</time>
      </trkpt>
      <trkpt lat="44.5962" lon="2.9392">
        <ele>923.174548</ele>
        <time>2021-06-12T16:44:02.259Z</time>
      </trkpt>
      <trkpt lat="44.59596" lon="2.93898">
        <ele>918.513539</ele>
        <time>2021-06-12T16:44:13.984Z</time>
      </trkpt>
      <trkpt lat="44.59583" lon="2.9383">
        <ele>910.425108</ele>
        <time>2021-06-12T16:44:34.428Z</time>
      </trkpt>
      <trkpt lat="44.59588" lon="2.93788">
        <ele>905.535546</ele>
        <time>2021-06-12T16:44:46.823Z</time>
      </trkpt>
      <trkpt lat="44.59581" lon="2.93775">
        <ele>903.688802</ele>
        <time>2021-06-12T16:44:51.489Z</time>
      </trkpt>
      <trkpt lat="44.59571" lon="2.93728">
        <ele>898.815267</ele>
        <time>2021-06-12T16:45:05.809Z</time>
      </trkpt>
      <trkpt lat="44.5956" lon="2.93715">
        <ele>896.847502</ele>
        <time>2021-06-12T16:45:11.663Z</time>
      </trkpt>
      <trkpt lat="44.59537" lon="2.93707">
        <ele>893.579043</ele>
        <time>2021-06-12T16:45:21.340Z</time>
      </trkpt>
      <trkpt lat="44.59528" lon="2.93694">
        <ele>891.802034</ele>
        <time>2021-06-12T16:45:26.643Z</time>
      </trkpt>
      <trkpt lat="44.5954" lon="2.93686">
        <ele>889.90289</ele>
        <time>2021-06-12T16:45:32.303Z</time>
      </trkpt>
      <trkpt lat="44.59528" lon="2.93672">
        <ele>887.726526</ele>
        <time>2021-06-12T16:45:38.738Z</time>
      </trkpt>
      <trkpt lat="44.59481" lon="2.93563">
        <ele>876.483531</ele>
        <time>2021-06-12T16:46:16.196Z</time>
      </trkpt>
      <trkpt lat="44.59477" lon="2.93537">
        <ele>874.898825</ele>
        <time>2021-06-12T16:46:23.932Z</time>
      </trkpt>
      <trkpt lat="44.59437" lon="2.935">
        <ele>870.812024</ele>
        <time>2021-06-12T16:46:44.304Z</time>
      </trkpt>
      <trkpt lat="44.59426" lon="2.93463">
        <ele>868.384328</ele>
        <time>2021-06-12T16:46:57.013Z</time>
      </trkpt>
      <trkpt lat="44.59426" lon="2.93433">
        <ele>866.561224</ele>
        <time>2021-06-12T16:47:06.562Z</time>
      </trkpt>
      <trkpt lat="44.59432" lon="2.93415">
        <ele>865.36612</ele>
        <time>2021-06-12T16:47:12.970Z</time>
      </trkpt>
      <trkpt lat="44.59414" lon="2.93392">
        <ele>863.274788</ele>
        <time>2021-06-12T16:47:24.035Z</time>
      </trkpt>
      <trkpt lat="44.59403" lon="2.93371">
        <ele>862.253064</ele>
        <time>2021-06-12T16:47:32.647Z</time>
      </trkpt>
      <trkpt lat="44.59399" lon="2.9335">
        <ele>861.402071</ele>
        <time>2021-06-12T16:47:39.847Z</time>
      </trkpt>
      <trkpt lat="44.5941" lon="2.93308">
        <ele>859.679561</ele>
        <time>2021-06-12T16:47:54.926Z</time>
      </trkpt>
      <trkpt lat="44.59408" lon="2.93271">
        <ele>858.259093</ele>
        <time>2021-06-12T16:48:07.004Z</time>
      </trkpt>
      <trkpt lat="44.59396" lon="2.93213">
        <ele>855.9429</ele>
        <time>2021-06-12T16:48:23.834Z</time>
      </trkpt>
      <trkpt lat="44.59365" lon="2.93113">
        <ele>851.449015</ele>
        <time>2021-06-12T16:48:54.772Z</time>
      </trkpt>
      <trkpt lat="44.59354" lon="2.93093">
        <ele>850.354468</ele>
        <time>2021-06-12T16:49:01.676Z</time>
      </trkpt>
      <trkpt lat="44.59352" lon="2.93088">
        <ele>850.079971</ele>
        <time>2021-06-12T16:49:03.271Z</time>
      </trkpt>
      <trkpt lat="44.59344" lon="2.93073">
        <ele>849.252887</ele>
        <time>2021-06-12T16:49:08.485Z</time>
      </trkpt>
      <trkpt lat="44.59329" lon="2.92944">
        <ele>843.47855</ele>
        <time>2021-06-12T16:49:43.852Z</time>
      </trkpt>
      <trkpt lat="44.59322" lon="2.92813">
        <ele>837.572844</ele>
        <time>2021-06-12T16:50:20.277Z</time>
      </trkpt>
      <trkpt lat="44.59297" lon="2.92765">
        <ele>834.904325</ele>
        <time>2021-06-12T16:50:36.888Z</time>
      </trkpt>
      <trkpt lat="44.59274" lon="2.92657">
        <ele>829.694099</ele>
        <time>2021-06-12T16:51:07.250Z</time>
      </trkpt>
      <trkpt lat="44.59269" lon="2.9263">
        <ele>828.232898</ele>
        <time>2021-06-12T16:51:14.977Z</time>
      </trkpt>
      <trkpt lat="44.59251" lon="2.92549">
        <ele>823.782918</ele>
        <time>2021-06-12T16:51:37.827Z</time>
      </trkpt>
      <trkpt lat="44.5925" lon="2.92543">
        <ele>823.482402</ele>
        <time>2021-06-12T16:51:39.414Z</time>
      </trkpt>
      <trkpt lat="44.59248" lon="2.92535">
        <ele>823.011992</ele>
        <time>2021-06-12T16:51:41.889Z</time>
      </trkpt>
      <trkpt lat="44.59245" lon="2.9252">
        <ele>822.194595</ele>
        <time>2021-06-12T16:51:45.775Z</time>
      </trkpt>
      <trkpt lat="44.59221" lon="2.92476">
        <ele>819.341825</ele>
        <time>2021-06-12T16:52:00.327Z</time>
      </trkpt>
      <trkpt lat="44.59161" lon="2.92404">
        <ele>815.12635</ele>
        <time>2021-06-12T16:52:31.371Z</time>
      </trkpt>
      <trkpt lat="44.59148" lon="2.92396">
        <ele>814.487503</ele>
        <time>2021-06-12T16:52:37.486Z</time>
      </trkpt>
      <trkpt lat="44.59137" lon="2.92394">
        <ele>813.997463</ele>
        <time>2021-06-12T16:52:41.292Z</time>
      </trkpt>
      <trkpt lat="44.59134" lon="2.92389">
        <ele>813.777878</ele>
        <time>2021-06-12T16:52:43.379Z</time>
      </trkpt>
      <trkpt lat="44.59117" lon="2.92351">
        <ele>812.345955</ele>
        <time>2021-06-12T16:52:56.608Z</time>
      </trkpt>
      <trkpt lat="44.59113" lon="2.92342">
        <ele>811.988812</ele>
        <time>2021-06-12T16:52:59.923Z</time>
      </trkpt>
      <trkpt lat="44.59111" lon="2.92315">
        <ele>811.140037</ele>
        <time>2021-06-12T16:53:07.810Z</time>
      </trkpt>
      <trkpt lat="44.5911" lon="2.92287">
        <ele>810.223441</ele>
        <time>2021-06-12T16:53:15.950Z</time>
      </trkpt>
      <trkpt lat="44.5911" lon="2.92279">
        <ele>809.982978</ele>
        <time>2021-06-12T16:53:18.265Z</time>
      </trkpt>
      <trkpt lat="44.59108" lon="2.92265">
        <ele>809.556617</ele>
        <time>2021-06-12T16:53:22.439Z</time>
      </trkpt>
      <trkpt lat="44.59106" lon="2.92249">
        <ele>809.337473</ele>
        <time>2021-06-12T16:53:26.886Z</time>
      </trkpt>
      <trkpt lat="44.59106" lon="2.92247">
        <ele>809.300215</ele>
        <time>2021-06-12T16:53:27.750Z</time>
      </trkpt>
      <trkpt lat="44.59105" lon="2.9224">
        <ele>809.206515</ele>
        <time>2021-06-12T16:53:29.898Z</time>
      </trkpt>
      <trkpt lat="44.59105" lon="2.9224">
        <ele>809.206515</ele>
        <time>2021-06-12T16:53:29.931Z</time>
      </trkpt>
      <trkpt lat="44.59105" lon="2.9224">
        <ele>809.206515</ele>
        <time>2021-06-12T16:53:29.946Z</time>
      </trkpt>
      <trkpt lat="44.59102" lon="2.92221">
        <ele>808.937451</ele>
        <time>2021-06-12T16:53:36.022Z</time>
      </trkpt>
      <trkpt lat="44.59094" lon="2.92176">
        <ele>808.311692</ele>
        <time>2021-06-12T16:53:49.471Z</time>
      </trkpt>
      <trkpt lat="44.59092" lon="2.92166">
        <ele>808.181976</ele>
        <time>2021-06-12T16:53:52.424Z</time>
      </trkpt>
      <trkpt lat="44.59063" lon="2.92169">
        <ele>807.63779</ele>
        <time>2021-06-12T16:54:04.199Z</time>
      </trkpt>
      <trkpt lat="44.59063" lon="2.92169">
        <ele>807.63779</ele>
        <time>2021-06-12T16:54:04.254Z</time>
      </trkpt>
      <trkpt lat="44.59063" lon="2.92169">
        <ele>807.63779</ele>
        <time>2021-06-12T16:54:04.546Z</time>
      </trkpt>
      <trkpt lat="44.59064" lon="2.92172">
        <ele>807.606486</ele>
        <time>2021-06-12T16:54:05.721Z</time>
      </trkpt>
      <trkpt lat="44.59054" lon="2.92179">
        <ele>807.39281</ele>
        <time>2021-06-12T16:54:10.594Z</time>
      </trkpt>
      <trkpt lat="44.59051" lon="2.9218">
        <ele>807.337725</ele>
        <time>2021-06-12T16:54:11.769Z</time>
      </trkpt>
      <trkpt lat="44.59037" lon="2.9215">
        <ele>806.845215</ele>
        <time>2021-06-12T16:54:22.891Z</time>
      </trkpt>
      <trkpt lat="44.59033" lon="2.92114">
        <ele>806.355338</ele>
        <time>2021-06-12T16:54:33.567Z</time>
      </trkpt>
      <trkpt lat="44.59032" lon="2.92109">
        <ele>806.287124</ele>
        <time>2021-06-12T16:54:35.211Z</time>
      </trkpt>
      <trkpt lat="44.5903" lon="2.92108">
        <ele>806.247079</ele>
        <time>2021-06-12T16:54:37.119Z</time>
      </trkpt>
      <trkpt lat="44.59015" lon="2.9211">
        <ele>806.951745</ele>
        <time>2021-06-12T16:54:43.937Z</time>
      </trkpt>
      <trkpt lat="44.5901" lon="2.92119">
        <ele>807.569338</ele>
        <time>2021-06-12T16:54:47.633Z</time>
      </trkpt>
      <trkpt lat="44.58987" lon="2.92139">
        <ele>809.606713</ele>
        <time>2021-06-12T16:55:01.721Z</time>
      </trkpt>
      <trkpt lat="44.58985" lon="2.92139">
        <ele>809.788599</ele>
        <time>2021-06-12T16:55:02.626Z</time>
      </trkpt>
      <trkpt lat="44.5898" lon="2.92138">
        <ele>810.175419</ele>
        <time>2021-06-12T16:55:04.914Z</time>
      </trkpt>
      <trkpt lat="44.58972" lon="2.92128">
        <ele>810.971149</ele>
        <time>2021-06-12T16:55:11.601Z</time>
      </trkpt>
      <trkpt lat="44.5897" lon="2.92128">
        <ele>811.08489</ele>
        <time>2021-06-12T16:55:12.233Z</time>
      </trkpt>
      <trkpt lat="44.58968" lon="2.92129">
        <ele>811.289343</ele>
        <time>2021-06-12T16:55:14.710Z</time>
      </trkpt>
      <trkpt lat="44.58959" lon="2.92147">
        <ele>812.493778</ele>
        <time>2021-06-12T16:55:22.207Z</time>
      </trkpt>
      <trkpt lat="44.58949" lon="2.92152">
        <ele>813.232796</ele>
        <time>2021-06-12T16:55:28.581Z</time>
      </trkpt>
      <trkpt lat="44.58913" lon="2.92145">
        <ele>816.021874</ele>
        <time>2021-06-12T16:55:52.748Z</time>
      </trkpt>
      <trkpt lat="44.58904" lon="2.92142">
        <ele>816.67889</ele>
        <time>2021-06-12T16:55:59.623Z</time>
      </trkpt>
      <trkpt lat="44.58899" lon="2.92143">
        <ele>817.077597</ele>
        <time>2021-06-12T16:56:05.187Z</time>
      </trkpt>
      <trkpt lat="44.58897" lon="2.92146">
        <ele>817.296201</ele>
        <time>2021-06-12T16:56:09.646Z</time>
      </trkpt>
      <trkpt lat="44.58887" lon="2.92158">
        <ele>818.268527</ele>
        <time>2021-06-12T16:56:17.346Z</time>
      </trkpt>
      <trkpt lat="44.58884" lon="2.92163">
        <ele>818.645246</ele>
        <time>2021-06-12T16:56:21.980Z</time>
      </trkpt>
      <trkpt lat="44.58883" lon="2.92172">
        <ele>819.109683</ele>
        <time>2021-06-12T16:56:26.374Z</time>
      </trkpt>
      <trkpt lat="44.58896" lon="2.92211">
        <ele>823.68452</ele>
        <time>2021-06-12T16:56:54.430Z</time>
      </trkpt>
      <trkpt lat="44.58894" lon="2.92221">
        <ele>825.087351</ele>
        <time>2021-06-12T16:57:00.524Z</time>
      </trkpt>
      <trkpt lat="44.58885" lon="2.92222">
        <ele>826.74163</ele>
        <time>2021-06-12T16:57:13.411Z</time>
      </trkpt>
      <trkpt lat="44.58861" lon="2.92191">
        <ele>832.570358</ele>
        <time>2021-06-12T16:57:41.152Z</time>
      </trkpt>
      <trkpt lat="44.58859" lon="2.92192">
        <ele>832.902767</ele>
        <time>2021-06-12T16:57:46.164Z</time>
      </trkpt>
      <trkpt lat="44.58858" lon="2.92193">
        <ele>833.175167</ele>
        <time>2021-06-12T16:57:48.636Z</time>
      </trkpt>
      <trkpt lat="44.58868" lon="2.92216">
        <ele>836.58461</ele>
        <time>2021-06-12T16:58:05.653Z</time>
      </trkpt>
      <trkpt lat="44.58873" lon="2.9223">
        <ele>838.585439</ele>
        <time>2021-06-12T16:58:18.492Z</time>
      </trkpt>
      <trkpt lat="44.58875" lon="2.92247">
        <ele>840.749411</ele>
        <time>2021-06-12T16:58:35.630Z</time>
      </trkpt>
      <trkpt lat="44.58876" lon="2.92279">
        <ele>844.900933</ele>
        <time>2021-06-12T16:58:57.515Z</time>
      </trkpt>
      <trkpt lat="44.58912" lon="2.92407">
        <ele>860.06414</ele>
        <time>2021-06-12T17:00:30.908Z</time>
      </trkpt>
      <trkpt lat="44.5891" lon="2.92418">
        <ele>861.219702</ele>
        <time>2021-06-12T17:00:39.834Z</time>
      </trkpt>
      <trkpt lat="44.58916" lon="2.92454">
        <ele>864.859324</ele>
        <time>2021-06-12T17:01:06.449Z</time>
      </trkpt>
      <trkpt lat="44.58951" lon="2.92649">
        <ele>880.295501</ele>
        <time>2021-06-12T17:03:09.488Z</time>
      </trkpt>
      <trkpt lat="44.58959" lon="2.92833">
        <ele>887.725663</ele>
        <time>2021-06-12T17:04:29.307Z</time>
      </trkpt>
      <trkpt lat="44.58982" lon="2.9287">
        <ele>888.813425</ele>
        <time>2021-06-12T17:04:49.689Z</time>
      </trkpt>
      <trkpt lat="44.58988" lon="2.92914">
        <ele>889.799792</ele>
        <time>2021-06-12T17:05:08.121Z</time>
      </trkpt>
      <trkpt lat="44.58991" lon="2.92951">
        <ele>890.610376</ele>
        <time>2021-06-12T17:05:23.349Z</time>
      </trkpt>
      <trkpt lat="44.58972" lon="2.93037">
        <ele>892.606243</ele>
        <time>2021-06-12T17:06:01.352Z</time>
      </trkpt>
      <trkpt lat="44.58983" lon="2.93128">
        <ele>895.776583</ele>
        <time>2021-06-12T17:06:41.311Z</time>
      </trkpt>
      <trkpt lat="44.58979" lon="2.93177">
        <ele>897.684546</ele>
        <time>2021-06-12T17:07:04.074Z</time>
      </trkpt>
      <trkpt lat="44.59004" lon="2.93232">
        <ele>900.190117</ele>
        <time>2021-06-12T17:07:34.872Z</time>
      </trkpt>
      <trkpt lat="44.59019" lon="2.9333">
        <ele>905.095577</ele>
        <time>2021-06-12T17:08:24.507Z</time>
      </trkpt>
      <trkpt lat="44.59019" lon="2.93445">
        <ele>913.319823</ele>
        <time>2021-06-12T17:09:29.324Z</time>
      </trkpt>
      <trkpt lat="44.59007" lon="2.93477">
        <ele>915.859478</ele>
        <time>2021-06-12T17:09:51.280Z</time>
      </trkpt>
      <trkpt lat="44.59007" lon="2.93499">
        <ele>917.42736</ele>
        <time>2021-06-12T17:10:05.395Z</time>
      </trkpt>
      <trkpt lat="44.59012" lon="2.93507">
        <ele>918.209865</ele>
        <time>2021-06-12T17:10:12.443Z</time>
      </trkpt>
      <trkpt lat="44.59023" lon="2.9351">
        <ele>919.367883</ele>
        <time>2021-06-12T17:10:22.891Z</time>
      </trkpt>
      <trkpt lat="44.59028" lon="2.93521">
        <ele>920.213751</ele>
        <time>2021-06-12T17:10:30.598Z</time>
      </trkpt>
      <trkpt lat="44.59042" lon="2.93739">
        <ele>944.269883</ele>
        <time>2021-06-12T17:13:10.883Z</time>
      </trkpt>
      <trkpt lat="44.59021" lon="2.94032">
        <ele>982.427572</ele>
        <time>2021-06-12T17:17:19.279Z</time>
      </trkpt>
      <trkpt lat="44.58991" lon="2.94076">
        <ele>989.790235</ele>
        <time>2021-06-12T17:18:10.783Z</time>
      </trkpt>
      <trkpt lat="44.58933" lon="2.94232">
        <ele>1010.822562</ele>
        <time>2021-06-12T17:20:27.663Z</time>
      </trkpt>
      <trkpt lat="44.58906" lon="2.94399">
        <ele>1025.180195</ele>
        <time>2021-06-12T17:22:22.027Z</time>
      </trkpt>
      <trkpt lat="44.58928" lon="2.94445">
        <ele>1029.656025</ele>
        <time>2021-06-12T17:22:53.062Z</time>
      </trkpt>
      <trkpt lat="44.58935" lon="2.94504">
        <ele>1034.196676</ele>
        <time>2021-06-12T17:23:22.854Z</time>
      </trkpt>
      <trkpt lat="44.58961" lon="2.94594">
        <ele>1040.43275</ele>
        <time>2021-06-12T17:24:16.710Z</time>
      </trkpt>
      <trkpt lat="44.58974" lon="2.94619">
        <ele>1042.348341</ele>
        <time>2021-06-12T17:24:32.089Z</time>
      </trkpt>
      <trkpt lat="44.58982" lon="2.94625">
        <ele>1043.186455</ele>
        <time>2021-06-12T17:24:40.639Z</time>
      </trkpt>
      <trkpt lat="44.5899" lon="2.94632">
        <ele>1044.096464</ele>
        <time>2021-06-12T17:24:47.681Z</time>
      </trkpt>
      <trkpt lat="44.59005" lon="2.94665">
        <ele>1046.558663</ele>
        <time>2021-06-12T17:25:06.210Z</time>
      </trkpt>
      <trkpt lat="44.59016" lon="2.94676">
        <ele>1047.79225</ele>
        <time>2021-06-12T17:25:15.816Z</time>
      </trkpt>
      <trkpt lat="44.59023" lon="2.9468">
        <ele>1048.424794</ele>
        <time>2021-06-12T17:25:19.605Z</time>
      </trkpt>
      <trkpt lat="44.59007" lon="2.9471">
        <ele>1051.284554</ele>
        <time>2021-06-12T17:25:44.307Z</time>
      </trkpt>
      <trkpt lat="44.58998" lon="2.9473">
        <ele>1053.198085</ele>
        <time>2021-06-12T17:25:57.834Z</time>
      </trkpt>
      <trkpt lat="44.58972" lon="2.94751">
        <ele>1056.555832</ele>
        <time>2021-06-12T17:26:23.763Z</time>
      </trkpt>
      <trkpt lat="44.58912" lon="2.94757">
        <ele>1063.448173</ele>
        <time>2021-06-12T17:27:21.136Z</time>
      </trkpt>
      <trkpt lat="44.58875" lon="2.94735">
        <ele>1067.988175</ele>
        <time>2021-06-12T17:27:59.048Z</time>
      </trkpt>
      <trkpt lat="44.58871" lon="2.94721">
        <ele>1069.212908</ele>
        <time>2021-06-12T17:28:07.698Z</time>
      </trkpt>
      <trkpt lat="44.58856" lon="2.94702">
        <ele>1071.082383</ele>
        <time>2021-06-12T17:28:24.587Z</time>
      </trkpt>
      <trkpt lat="44.58845" lon="2.947">
        <ele>1071.986676</ele>
        <time>2021-06-12T17:28:32.927Z</time>
      </trkpt>
      <trkpt lat="44.58816" lon="2.94728">
        <ele>1075.004732</ele>
        <time>2021-06-12T17:29:00.692Z</time>
      </trkpt>
      <trkpt lat="44.58806" lon="2.94752">
        <ele>1076.734365</ele>
        <time>2021-06-12T17:29:16.300Z</time>
      </trkpt>
      <trkpt lat="44.58805" lon="2.94761">
        <ele>1077.279075</ele>
        <time>2021-06-12T17:29:21.217Z</time>
      </trkpt>
      <trkpt lat="44.58814" lon="2.94779">
        <ele>1078.629402</ele>
        <time>2021-06-12T17:29:32.990Z</time>
      </trkpt>
      <trkpt lat="44.58823" lon="2.94829">
        <ele>1081.751874</ele>
        <time>2021-06-12T17:29:59.899Z</time>
      </trkpt>
      <trkpt lat="44.58798" lon="2.94863">
        <ele>1084.738149</ele>
        <time>2021-06-12T17:30:24.819Z</time>
      </trkpt>
      <trkpt lat="44.58781" lon="2.94874">
        <ele>1086.025023</ele>
        <time>2021-06-12T17:30:38.256Z</time>
      </trkpt>
      <trkpt lat="44.58767" lon="2.94866">
        <ele>1087.001085</ele>
        <time>2021-06-12T17:30:48.507Z</time>
      </trkpt>
      <trkpt lat="44.58739" lon="2.94863">
        <ele>1088.851086</ele>
        <time>2021-06-12T17:31:08.041Z</time>
      </trkpt>
      <trkpt lat="44.58696" lon="2.94879">
        <ele>1091.767247</ele>
        <time>2021-06-12T17:31:38.628Z</time>
      </trkpt>
      <trkpt lat="44.58679" lon="2.94899">
        <ele>1093.216592</ele>
        <time>2021-06-12T17:31:53.859Z</time>
      </trkpt>
      <trkpt lat="44.58666" lon="2.94936">
        <ele>1095.146247</ele>
        <time>2021-06-12T17:32:13.945Z</time>
      </trkpt>
      <trkpt lat="44.58655" lon="2.94947">
        <ele>1096.080924</ele>
        <time>2021-06-12T17:32:24.412Z</time>
      </trkpt>
      <trkpt lat="44.58621" lon="2.94958">
        <ele>1097.732722</ele>
        <time>2021-06-12T17:32:47.527Z</time>
      </trkpt>
      <trkpt lat="44.58571" lon="2.94992">
        <ele>1100.089945</ele>
        <time>2021-06-12T17:33:24.415Z</time>
      </trkpt>
      <trkpt lat="44.5855" lon="2.95031">
        <ele>1101.560366</ele>
        <time>2021-06-12T17:33:46.222Z</time>
      </trkpt>
      <trkpt lat="44.58542" lon="2.95045">
        <ele>1102.093707</ele>
        <time>2021-06-12T17:33:53.730Z</time>
      </trkpt>
      <trkpt lat="44.58534" lon="2.95046">
        <ele>1102.417267</ele>
        <time>2021-06-12T17:33:58.909Z</time>
      </trkpt>
      <trkpt lat="44.58497" lon="2.95082">
        <ele>1104.224129</ele>
        <time>2021-06-12T17:34:20.861Z</time>
      </trkpt>
      <trkpt lat="44.58513" lon="2.95104">
        <ele>1103.981976</ele>
        <time>2021-06-12T17:34:30.936Z</time>
      </trkpt>
      <trkpt lat="44.58517" lon="2.95113">
        <ele>1103.900865</ele>
        <time>2021-06-12T17:34:34.413Z</time>
      </trkpt>
      <trkpt lat="44.58516" lon="2.95121">
        <ele>1103.83397</ele>
        <time>2021-06-12T17:34:37.270Z</time>
      </trkpt>
      <trkpt lat="44.58516" lon="2.95123">
        <ele>1103.816084</ele>
        <time>2021-06-12T17:34:38.346Z</time>
      </trkpt>
      <trkpt lat="44.58511" lon="2.95124">
        <ele>1103.761042</ele>
        <time>2021-06-12T17:34:40.558Z</time>
      </trkpt>
      <trkpt lat="44.58484" lon="2.95106">
        <ele>1103.428722</ele>
        <time>2021-06-12T17:34:56.956Z</time>
      </trkpt>
      <trkpt lat="44.58437" lon="2.95104">
        <ele>1102.916303</ele>
        <time>2021-06-12T17:35:20.341Z</time>
      </trkpt>
      <trkpt lat="44.58398" lon="2.9509">
        <ele>1102.47759</ele>
        <time>2021-06-12T17:35:40.083Z</time>
      </trkpt>
      <trkpt lat="44.58324" lon="2.9501">
        <ele>1100.394634</ele>
        <time>2021-06-12T17:36:25.001Z</time>
      </trkpt>
      <trkpt lat="44.58176" lon="2.94807">
        <ele>1096.699995</ele>
        <time>2021-06-12T17:38:08.476Z</time>
      </trkpt>
      <trkpt lat="44.58158" lon="2.94775">
        <ele>1096.394609</ele>
        <time>2021-06-12T17:38:23.372Z</time>
      </trkpt>
      <trkpt lat="44.58096" lon="2.94686">
        <ele>1096.415267</ele>
        <time>2021-06-12T17:39:10.742Z</time>
      </trkpt>
      <trkpt lat="44.58064" lon="2.94641">
        <ele>1096.996035</ele>
        <time>2021-06-12T17:39:35.419Z</time>
      </trkpt>
      <trkpt lat="44.58066" lon="2.94668">
        <ele>1097.244474</ele>
        <time>2021-06-12T17:39:46.169Z</time>
      </trkpt>
      <trkpt lat="44.58067" lon="2.94689">
        <ele>1097.442789</ele>
        <time>2021-06-12T17:39:54.814Z</time>
      </trkpt>
      <trkpt lat="44.58074" lon="2.94749">
        <ele>1098.003515</ele>
        <time>2021-06-12T17:40:19.488Z</time>
      </trkpt>
      <trkpt lat="44.58118" lon="2.94945">
        <ele>1098.734045</ele>
        <time>2021-06-12T17:41:40.344Z</time>
      </trkpt>
      <trkpt lat="44.58123" lon="2.94998">
        <ele>1098.88743</ele>
        <time>2021-06-12T17:41:59.758Z</time>
      </trkpt>
      <trkpt lat="44.58119" lon="2.95007">
        <ele>1098.917595</ele>
        <time>2021-06-12T17:42:03.836Z</time>
      </trkpt>
      <trkpt lat="44.58116" lon="2.94999">
        <ele>1098.835287</ele>
        <time>2021-06-12T17:42:06.481Z</time>
      </trkpt>
      <trkpt lat="44.58094" lon="2.94962">
        <ele>1097.449571</ele>
        <time>2021-06-12T17:42:20.872Z</time>
      </trkpt>
      <trkpt lat="44.58064" lon="2.94927">
        <ele>1095.87087</ele>
        <time>2021-06-12T17:42:36.871Z</time>
      </trkpt>
      <trkpt lat="44.58045" lon="2.94912">
        <ele>1095.026021</ele>
        <time>2021-06-12T17:42:45.359Z</time>
      </trkpt>
      <trkpt lat="44.58024" lon="2.94908">
        <ele>1094.159362</ele>
        <time>2021-06-12T17:42:53.839Z</time>
      </trkpt>
      <trkpt lat="44.57901" lon="2.949">
        <ele>1088.054137</ele>
        <time>2021-06-12T17:43:41.872Z</time>
      </trkpt>
      <trkpt lat="44.57858" lon="2.9493">
        <ele>1085.175371</ele>
        <time>2021-06-12T17:44:00.978Z</time>
      </trkpt>
      <trkpt lat="44.57817" lon="2.94949">
        <ele>1082.674865</ele>
        <time>2021-06-12T17:44:17.493Z</time>
      </trkpt>
      <trkpt lat="44.57621" lon="2.94844">
        <ele>1069.432513</ele>
        <time>2021-06-12T17:45:38.113Z</time>
      </trkpt>
      <trkpt lat="44.57578" lon="2.94799">
        <ele>1066.540374</ele>
        <time>2021-06-12T17:45:58.894Z</time>
      </trkpt>
      <trkpt lat="44.57486" lon="2.94642">
        <ele>1058.94229</ele>
        <time>2021-06-12T17:46:56.234Z</time>
      </trkpt>
      <trkpt lat="44.57374" lon="2.94552">
        <ele>1053.297045</ele>
        <time>2021-06-12T17:47:48.125Z</time>
      </trkpt>
      <trkpt lat="44.57206" lon="2.94402">
        <ele>1044.674862</ele>
        <time>2021-06-12T17:49:08.687Z</time>
      </trkpt>
      <trkpt lat="44.57149" lon="2.94339">
        <ele>1040.315331</ele>
        <time>2021-06-12T17:49:37.135Z</time>
      </trkpt>
      <trkpt lat="44.57105" lon="2.94258">
        <ele>1035.679232</ele>
        <time>2021-06-12T17:50:05.397Z</time>
      </trkpt>
      <trkpt lat="44.57079" lon="2.94223">
        <ele>1033.451918</ele>
        <time>2021-06-12T17:50:18.513Z</time>
      </trkpt>
      <trkpt lat="44.57068" lon="2.94224">
        <ele>1032.717826</ele>
        <time>2021-06-12T17:50:22.649Z</time>
      </trkpt>
      <trkpt lat="44.57051" lon="2.942">
        <ele>1030.76243</ele>
        <time>2021-06-12T17:50:31.598Z</time>
      </trkpt>
      <trkpt lat="44.57022" lon="2.94164">
        <ele>1027.622637</ele>
        <time>2021-06-12T17:50:45.862Z</time>
      </trkpt>
      <trkpt lat="44.56966" lon="2.94182">
        <ele>1022.953808</ele>
        <time>2021-06-12T17:51:07.234Z</time>
      </trkpt>
      <trkpt lat="44.56956" lon="2.94192">
        <ele>1021.988405</ele>
        <time>2021-06-12T17:51:11.433Z</time>
      </trkpt>
      <trkpt lat="44.56928" lon="2.94167">
        <ele>1019.285442</ele>
        <time>2021-06-12T17:51:23.682Z</time>
      </trkpt>
      <trkpt lat="44.56918" lon="2.94189">
        <ele>1017.910569</ele>
        <time>2021-06-12T17:51:30.943Z</time>
      </trkpt>
      <trkpt lat="44.56908" lon="2.94201">
        <ele>1017.167603</ele>
        <time>2021-06-12T17:51:35.902Z</time>
      </trkpt>
      <trkpt lat="44.56912" lon="2.94232">
        <ele>1015.851666</ele>
        <time>2021-06-12T17:51:44.699Z</time>
      </trkpt>
      <trkpt lat="44.5692" lon="2.94302">
        <ele>1012.965153</ele>
        <time>2021-06-12T17:52:04.050Z</time>
      </trkpt>
      <trkpt lat="44.56923" lon="2.94346">
        <ele>1011.155155</ele>
        <time>2021-06-12T17:52:16.434Z</time>
      </trkpt>
      <trkpt lat="44.56927" lon="2.94399">
        <ele>1008.990259</ele>
        <time>2021-06-12T17:52:34.296Z</time>
      </trkpt>
      <trkpt lat="44.56898" lon="2.94557">
        <ele>1004.244521</ele>
        <time>2021-06-12T17:53:30.311Z</time>
      </trkpt>
      <trkpt lat="44.56802" lon="2.9468">
        <ele>999.008161</ele>
        <time>2021-06-12T17:54:32.963Z</time>
      </trkpt>
      <trkpt lat="44.56774" lon="2.94706">
        <ele>997.534521</ele>
        <time>2021-06-12T17:54:48.704Z</time>
      </trkpt>
      <trkpt lat="44.56747" lon="2.94717">
        <ele>996.292627</ele>
        <time>2021-06-12T17:55:01.893Z</time>
      </trkpt>
      <trkpt lat="44.56703" lon="2.94715">
        <ele>994.321559</ele>
        <time>2021-06-12T17:55:22.668Z</time>
      </trkpt>
      <trkpt lat="44.56657" lon="2.94686">
        <ele>991.591555</ele>
        <time>2021-06-12T17:55:45.779Z</time>
      </trkpt>
      <trkpt lat="44.56529" lon="2.94706">
        <ele>983.03693</ele>
        <time>2021-06-12T17:56:44.620Z</time>
      </trkpt>
      <trkpt lat="44.56508" lon="2.94724">
        <ele>981.429945</ele>
        <time>2021-06-12T17:56:55.509Z</time>
      </trkpt>
      <trkpt lat="44.56393" lon="2.94905">
        <ele>962.284728</ele>
        <time>2021-06-12T17:58:07.869Z</time>
      </trkpt>
      <trkpt lat="44.56358" lon="2.94943">
        <ele>953.477431</ele>
        <time>2021-06-12T17:58:25.858Z</time>
      </trkpt>
      <trkpt lat="44.56352" lon="2.94953">
        <ele>951.422212</ele>
        <time>2021-06-12T17:58:29.618Z</time>
      </trkpt>
      <trkpt lat="44.56351" lon="2.94982">
        <ele>946.773844</ele>
        <time>2021-06-12T17:58:38.156Z</time>
      </trkpt>
      <trkpt lat="44.56268" lon="2.95026">
        <ele>927.19993</ele>
        <time>2021-06-12T17:59:14.430Z</time>
      </trkpt>
      <trkpt lat="44.56249" lon="2.95051">
        <ele>921.39045</ele>
        <time>2021-06-12T17:59:25.707Z</time>
      </trkpt>
      <trkpt lat="44.56248" lon="2.95063">
        <ele>918.994483</ele>
        <time>2021-06-12T17:59:29.506Z</time>
      </trkpt>
      <trkpt lat="44.56255" lon="2.95075">
        <ele>915.862885</ele>
        <time>2021-06-12T17:59:34.453Z</time>
      </trkpt>
      <trkpt lat="44.56253" lon="2.95084">
        <ele>914.143677</ele>
        <time>2021-06-12T17:59:37.175Z</time>
      </trkpt>
      <trkpt lat="44.56246" lon="2.95092">
        <ele>911.751296</ele>
        <time>2021-06-12T17:59:41.061Z</time>
      </trkpt>
      <trkpt lat="44.56227" lon="2.95098">
        <ele>906.312582</ele>
        <time>2021-06-12T17:59:49.695Z</time>
      </trkpt>
      <trkpt lat="44.56221" lon="2.95135">
        <ele>898.854599</ele>
        <time>2021-06-12T18:00:01.667Z</time>
      </trkpt>
      <trkpt lat="44.56206" lon="2.95128">
        <ele>894.269589</ele>
        <time>2021-06-12T18:00:08.879Z</time>
      </trkpt>
      <trkpt lat="44.56196" lon="2.95153">
        <ele>888.695343</ele>
        <time>2021-06-12T18:00:17.693Z</time>
      </trkpt>
      <trkpt lat="44.56192" lon="2.95154">
        <ele>887.51301</ele>
        <time>2021-06-12T18:00:19.494Z</time>
      </trkpt>
      <trkpt lat="44.56166" lon="2.95145">
        <ele>880.237673</ele>
        <time>2021-06-12T18:00:30.772Z</time>
      </trkpt>
      <trkpt lat="44.56134" lon="2.9515">
        <ele>871.526207</ele>
        <time>2021-06-12T18:00:44.252Z</time>
      </trkpt>
      <trkpt lat="44.56125" lon="2.95175">
        <ele>868.589161</ele>
        <time>2021-06-12T18:00:52.246Z</time>
      </trkpt>
      <trkpt lat="44.56125" lon="2.95191">
        <ele>866.871304</ele>
        <time>2021-06-12T18:00:56.884Z</time>
      </trkpt>
      <trkpt lat="44.56135" lon="2.95216">
        <ele>863.869225</ele>
        <time>2021-06-12T18:01:04.983Z</time>
      </trkpt>
      <trkpt lat="44.56129" lon="2.95259">
        <ele>859.201572</ele>
        <time>2021-06-12T18:01:17.673Z</time>
      </trkpt>
      <trkpt lat="44.56131" lon="2.95321">
        <ele>852.545298</ele>
        <time>2021-06-12T18:01:35.935Z</time>
      </trkpt>
      <trkpt lat="44.56106" lon="2.95375">
        <ele>845.705546</ele>
        <time>2021-06-12T18:01:55.942Z</time>
      </trkpt>
      <trkpt lat="44.56101" lon="2.95397">
        <ele>844.998762</ele>
        <time>2021-06-12T18:02:03.606Z</time>
      </trkpt>
      <trkpt lat="44.56101" lon="2.95437">
        <ele>845.394057</ele>
        <time>2021-06-12T18:02:17.929Z</time>
      </trkpt>
      <trkpt lat="44.5609" lon="2.9547">
        <ele>845.742688</ele>
        <time>2021-06-12T18:02:31.192Z</time>
      </trkpt>
      <trkpt lat="44.56089" lon="2.95498">
        <ele>846.0186</ele>
        <time>2021-06-12T18:02:42.455Z</time>
      </trkpt>
      <trkpt lat="44.56074" lon="2.95523">
        <ele>846.328673</ele>
        <time>2021-06-12T18:02:55.581Z</time>
      </trkpt>
      <trkpt lat="44.56069" lon="2.95557">
        <ele>846.66901</ele>
        <time>2021-06-12T18:03:10.939Z</time>
      </trkpt>
      <trkpt lat="44.56065" lon="2.95698">
        <ele>852.335626</ele>
        <time>2021-06-12T18:04:21.161Z</time>
      </trkpt>
      <trkpt lat="44.56068" lon="2.95788">
        <ele>858.319054</ele>
        <time>2021-06-12T18:05:12.068Z</time>
      </trkpt>
      <trkpt lat="44.56081" lon="2.95823">
        <ele>860.959233</ele>
        <time>2021-06-12T18:05:36.833Z</time>
      </trkpt>
      <trkpt lat="44.56099" lon="2.95855">
        <ele>863.678864</ele>
        <time>2021-06-12T18:06:03.346Z</time>
      </trkpt>
      <trkpt lat="44.56119" lon="2.95944">
        <ele>872.346888</ele>
        <time>2021-06-12T18:07:07.070Z</time>
      </trkpt>
      <trkpt lat="44.56127" lon="2.95959">
        <ele>874.018135</ele>
        <time>2021-06-12T18:07:19.478Z</time>
      </trkpt>
      <trkpt lat="44.56137" lon="2.95927">
        <ele>877.335049</ele>
        <time>2021-06-12T18:07:43.895Z</time>
      </trkpt>
      <trkpt lat="44.56136" lon="2.95833">
        <ele>886.207017</ele>
        <time>2021-06-12T18:08:49.517Z</time>
      </trkpt>
      <trkpt lat="44.56143" lon="2.95825">
        <ele>887.471907</ele>
        <time>2021-06-12T18:08:58.720Z</time>
      </trkpt>
      <trkpt lat="44.56159" lon="2.95825">
        <ele>889.055901</ele>
        <time>2021-06-12T18:09:13.900Z</time>
      </trkpt>
      <trkpt lat="44.56202" lon="2.95863">
        <ele>893.58299</ele>
        <time>2021-06-12T18:10:01.261Z</time>
      </trkpt>
      <trkpt lat="44.56204" lon="2.95942">
        <ele>898.622169</ele>
        <time>2021-06-12T18:10:47.494Z</time>
      </trkpt>
      <trkpt lat="44.56184" lon="2.96046">
        <ele>904.082267</ele>
        <time>2021-06-12T18:11:39.081Z</time>
      </trkpt>
      <trkpt lat="44.56049" lon="2.96407">
        <ele>897.656443</ele>
        <time>2021-06-12T18:14:05.058Z</time>
      </trkpt>
      <trkpt lat="44.56038" lon="2.96421">
        <ele>896.969756</ele>
        <time>2021-06-12T18:14:11.151Z</time>
      </trkpt>
      <trkpt lat="44.55978" lon="2.96466">
        <ele>892.605436</ele>
        <time>2021-06-12T18:14:39.646Z</time>
      </trkpt>
      <trkpt lat="44.55923" lon="2.96491">
        <ele>887.511904</ele>
        <time>2021-06-12T18:15:04.668Z</time>
      </trkpt>
      <trkpt lat="44.55913" lon="2.96505">
        <ele>886.262588</ele>
        <time>2021-06-12T18:15:10.461Z</time>
      </trkpt>
      <trkpt lat="44.55907" lon="2.96513">
        <ele>885.51461</ele>
        <time>2021-06-12T18:15:14.262Z</time>
      </trkpt>
      <trkpt lat="44.559" lon="2.96552">
        <ele>883.009441</ele>
        <time>2021-06-12T18:15:26.268Z</time>
      </trkpt>
      <trkpt lat="44.55905" lon="2.96587">
        <ele>880.745633</ele>
        <time>2021-06-12T18:15:37.924Z</time>
      </trkpt>
      <trkpt lat="44.55953" lon="2.96712">
        <ele>877.85575</ele>
        <time>2021-06-12T18:16:24.785Z</time>
      </trkpt>
      <trkpt lat="44.55966" lon="2.96732">
        <ele>877.522815</ele>
        <time>2021-06-12T18:16:35.259Z</time>
      </trkpt>
      <trkpt lat="44.55984" lon="2.96776">
        <ele>876.886605</ele>
        <time>2021-06-12T18:16:55.582Z</time>
      </trkpt>
      <trkpt lat="44.56001" lon="2.96795">
        <ele>876.522993</ele>
        <time>2021-06-12T18:17:07.411Z</time>
      </trkpt>
      <trkpt lat="44.56018" lon="2.96828">
        <ele>876.627055</ele>
        <time>2021-06-12T18:17:24.157Z</time>
      </trkpt>
      <trkpt lat="44.56037" lon="2.96888">
        <ele>878.419111</ele>
        <time>2021-06-12T18:17:52.179Z</time>
      </trkpt>
      <trkpt lat="44.56056" lon="2.97002">
        <ele>881.568694</ele>
        <time>2021-06-12T18:18:43.635Z</time>
      </trkpt>
      <trkpt lat="44.56079" lon="2.97092">
        <ele>884.370436</ele>
        <time>2021-06-12T18:19:27.176Z</time>
      </trkpt>
      <trkpt lat="44.56136" lon="2.97141">
        <ele>887.334931</ele>
        <time>2021-06-12T18:20:09.150Z</time>
      </trkpt>
      <trkpt lat="44.56155" lon="2.97175">
        <ele>888.698693</ele>
        <time>2021-06-12T18:20:28.307Z</time>
      </trkpt>
      <trkpt lat="44.56338" lon="2.97364">
        <ele>898.796272</ele>
        <time>2021-06-12T18:22:49.753Z</time>
      </trkpt>
      <trkpt lat="44.56362" lon="2.97394">
        <ele>900.591593</ele>
        <time>2021-06-12T18:23:10.487Z</time>
      </trkpt>
      <trkpt lat="44.56393" lon="2.9746">
        <ele>903.893442</ele>
        <time>2021-06-12T18:23:48.006Z</time>
      </trkpt>
      <trkpt lat="44.56404" lon="2.97473">
        <ele>904.736696</ele>
        <time>2021-06-12T18:23:57.695Z</time>
      </trkpt>
      <trkpt lat="44.56511" lon="2.97535">
        <ele>911.52913</ele>
        <time>2021-06-12T18:25:16.981Z</time>
      </trkpt>
      <trkpt lat="44.56549" lon="2.97539">
        <ele>913.795314</ele>
        <time>2021-06-12T18:25:43.083Z</time>
      </trkpt>
      <trkpt lat="44.56575" lon="2.97561">
        <ele>915.61238</ele>
        <time>2021-06-12T18:26:03.866Z</time>
      </trkpt>
      <trkpt lat="44.56601" lon="2.9757">
        <ele>917.176347</ele>
        <time>2021-06-12T18:26:21.499Z</time>
      </trkpt>
      <trkpt lat="44.56647" lon="2.97612">
        <ele>920.408364</ele>
        <time>2021-06-12T18:26:57.587Z</time>
      </trkpt>
      <trkpt lat="44.56659" lon="2.97632">
        <ele>921.426696</ele>
        <time>2021-06-12T18:27:09.859Z</time>
      </trkpt>
      <trkpt lat="44.56699" lon="2.97676">
        <ele>924.128696</ele>
        <time>2021-06-12T18:27:42.213Z</time>
      </trkpt>
      <trkpt lat="44.56735" lon="2.97691">
        <ele>926.180025</ele>
        <time>2021-06-12T18:28:06.718Z</time>
      </trkpt>
      <trkpt lat="44.56744" lon="2.97709">
        <ele>927.005239</ele>
        <time>2021-06-12T18:28:16.645Z</time>
      </trkpt>
      <trkpt lat="44.56785" lon="2.97759">
        <ele>929.895963</ele>
        <time>2021-06-12T18:28:52.221Z</time>
      </trkpt>
      <trkpt lat="44.56797" lon="2.9779">
        <ele>931.773056</ele>
        <time>2021-06-12T18:29:09.235Z</time>
      </trkpt>
      <trkpt lat="44.56815" lon="2.97865">
        <ele>936.028991</ele>
        <time>2021-06-12T18:29:48.769Z</time>
      </trkpt>
      <trkpt lat="44.56912" lon="2.97954">
        <ele>945.165565</ele>
        <time>2021-06-12T18:31:15.804Z</time>
      </trkpt>
      <trkpt lat="44.56985" lon="2.9806">
        <ele>955.756749</ele>
        <time>2021-06-12T18:32:45.593Z</time>
      </trkpt>
      <trkpt lat="44.57008" lon="2.98087">
        <ele>958.816125</ele>
        <time>2021-06-12T18:33:11.684Z</time>
      </trkpt>
      <trkpt lat="44.57024" lon="2.98122">
        <ele>961.738131</ele>
        <time>2021-06-12T18:33:36.623Z</time>
      </trkpt>
      <trkpt lat="44.57036" lon="2.98142">
        <ele>963.71817</ele>
        <time>2021-06-12T18:33:52.616Z</time>
      </trkpt>
      <trkpt lat="44.57081" lon="2.98177">
        <ele>969.017263</ele>
        <time>2021-06-12T18:34:37.169Z</time>
      </trkpt>
      <trkpt lat="44.57117" lon="2.98192">
        <ele>972.891605</ele>
        <time>2021-06-12T18:35:09.665Z</time>
      </trkpt>
      <trkpt lat="44.5718" lon="2.98233">
        <ele>980.01961</ele>
        <time>2021-06-12T18:36:05.893Z</time>
      </trkpt>
      <trkpt lat="44.57218" lon="2.98274">
        <ele>985.803713</ele>
        <time>2021-06-12T18:36:46.489Z</time>
      </trkpt>
      <trkpt lat="44.57239" lon="2.98323">
        <ele>990.603635</ele>
        <time>2021-06-12T18:37:22.465Z</time>
      </trkpt>
      <trkpt lat="44.57304" lon="2.98414">
        <ele>1001.693492</ele>
        <time>2021-06-12T18:38:49.799Z</time>
      </trkpt>
      <trkpt lat="44.57324" lon="2.98455">
        <ele>1006.957798</ele>
        <time>2021-06-12T18:39:25.317Z</time>
      </trkpt>
      <trkpt lat="44.57344" lon="2.98547">
        <ele>1017.124754</ele>
        <time>2021-06-12T18:40:36.506Z</time>
      </trkpt>
      <trkpt lat="44.57354" lon="2.98566">
        <ele>1019.696585</ele>
        <time>2021-06-12T18:40:54.137Z</time>
      </trkpt>
      <trkpt lat="44.57356" lon="2.98569">
        <ele>1020.007261</ele>
        <time>2021-06-12T18:40:57.064Z</time>
      </trkpt>
      <trkpt lat="44.57358" lon="2.98593">
        <ele>1022.57633</ele>
        <time>2021-06-12T18:41:14.972Z</time>
      </trkpt>
      <trkpt lat="44.57369" lon="2.98613">
        <ele>1025.329235</ele>
        <time>2021-06-12T18:41:33.984Z</time>
      </trkpt>
      <trkpt lat="44.57392" lon="2.98617">
        <ele>1028.55521</ele>
        <time>2021-06-12T18:41:56.515Z</time>
      </trkpt>
      <trkpt lat="44.57395" lon="2.98629">
        <ele>1029.63241</ele>
        <time>2021-06-12T18:42:05.782Z</time>
      </trkpt>
      <trkpt lat="44.57393" lon="2.98657">
        <ele>1031.871346</ele>
        <time>2021-06-12T18:42:25.597Z</time>
      </trkpt>
      <trkpt lat="44.57449" lon="2.98702">
        <ele>1039.248152</ele>
        <time>2021-06-12T18:43:26.239Z</time>
      </trkpt>
      <trkpt lat="44.57462" lon="2.9878">
        <ele>1045.769116</ele>
        <time>2021-06-12T18:44:14.592Z</time>
      </trkpt>
      <trkpt lat="44.57485" lon="2.98844">
        <ele>1049.82351</ele>
        <time>2021-06-12T18:44:52.663Z</time>
      </trkpt>
      <trkpt lat="44.57494" lon="2.98909">
        <ele>1051.801032</ele>
        <time>2021-06-12T18:45:23.786Z</time>
      </trkpt>
      <trkpt lat="44.57509" lon="2.98948">
        <ele>1053.142479</ele>
        <time>2021-06-12T18:45:43.158Z</time>
      </trkpt>
      <trkpt lat="44.57512" lon="2.99012">
        <ele>1055.059611</ele>
        <time>2021-06-12T18:46:09.248Z</time>
      </trkpt>
      <trkpt lat="44.57498" lon="2.99053">
        <ele>1056.39515</ele>
        <time>2021-06-12T18:46:27.289Z</time>
      </trkpt>
      <trkpt lat="44.57482" lon="2.99068">
        <ele>1056.779152</ele>
        <time>2021-06-12T18:46:38.236Z</time>
      </trkpt>
      <trkpt lat="44.57488" lon="2.99073">
        <ele>1056.924307</ele>
        <time>2021-06-12T18:46:41.627Z</time>
      </trkpt>
      <trkpt lat="44.57496" lon="2.99082">
        <ele>1057.125873</ele>
        <time>2021-06-12T18:46:47.021Z</time>
      </trkpt>
      <trkpt lat="44.57536" lon="2.99075">
        <ele>1057.939982</ele>
        <time>2021-06-12T18:47:08.785Z</time>
      </trkpt>
      <trkpt lat="44.57551" lon="2.99072">
        <ele>1058.257057</ele>
        <time>2021-06-12T18:47:17.712Z</time>
      </trkpt>
      <trkpt lat="44.57571" lon="2.99082">
        <ele>1058.681834</ele>
        <time>2021-06-12T18:47:28.978Z</time>
      </trkpt>
      <trkpt lat="44.57586" lon="2.99082">
        <ele>1058.992466</ele>
        <time>2021-06-12T18:47:37.953Z</time>
      </trkpt>
      <trkpt lat="44.57635" lon="2.99148">
        <ele>1061.238449</ele>
        <time>2021-06-12T18:48:16.633Z</time>
      </trkpt>
      <trkpt lat="44.57639" lon="2.9916">
        <ele>1061.893965</ele>
        <time>2021-06-12T18:48:22.454Z</time>
      </trkpt>
      <trkpt lat="44.57639" lon="2.99161">
        <ele>1061.987835</ele>
        <time>2021-06-12T18:48:23.384Z</time>
      </trkpt>
      <trkpt lat="44.5764" lon="2.99214">
        <ele>1064.585831</ele>
        <time>2021-06-12T18:48:51.869Z</time>
      </trkpt>
      <trkpt lat="44.57634" lon="2.99222">
        <ele>1065.182815</ele>
        <time>2021-06-12T18:48:57.364Z</time>
      </trkpt>
      <trkpt lat="44.57604" lon="2.99226">
        <ele>1067.240475</ele>
        <time>2021-06-12T18:49:21.213Z</time>
      </trkpt>
      <trkpt lat="44.57591" lon="2.99234">
        <ele>1068.234502</ele>
        <time>2021-06-12T18:49:30.253Z</time>
      </trkpt>
      <trkpt lat="44.57577" lon="2.99278">
        <ele>1070.599125</ele>
        <time>2021-06-12T18:49:56.333Z</time>
      </trkpt>
      <trkpt lat="44.57574" lon="2.99287">
        <ele>1071.116134</ele>
        <time>2021-06-12T18:50:01.681Z</time>
      </trkpt>
      <trkpt lat="44.57554" lon="2.99295">
        <ele>1072.576534</ele>
        <time>2021-06-12T18:50:19.704Z</time>
      </trkpt>
      <trkpt lat="44.57548" lon="2.99285">
        <ele>1073.307381</ele>
        <time>2021-06-12T18:50:25.404Z</time>
      </trkpt>
      <trkpt lat="44.57544" lon="2.99295">
        <ele>1073.967852</ele>
        <time>2021-06-12T18:50:31.301Z</time>
      </trkpt>
      <trkpt lat="44.57549" lon="2.99304">
        <ele>1074.629028</ele>
        <time>2021-06-12T18:50:41.172Z</time>
      </trkpt>
      <trkpt lat="44.57558" lon="2.99326">
        <ele>1076.071844</ele>
        <time>2021-06-12T18:50:52.132Z</time>
      </trkpt>
      <trkpt lat="44.57589" lon="2.99359">
        <ele>1079.18534</ele>
        <time>2021-06-12T18:51:20.492Z</time>
      </trkpt>
      <trkpt lat="44.57619" lon="2.99362">
        <ele>1081.59591</ele>
        <time>2021-06-12T18:51:43.050Z</time>
      </trkpt>
      <trkpt lat="44.57681" lon="2.99389">
        <ele>1086.816622</ele>
        <time>2021-06-12T18:52:32.710Z</time>
      </trkpt>
      <trkpt lat="44.57711" lon="2.99392">
        <ele>1090.454805</ele>
        <time>2021-06-12T18:52:53.247Z</time>
      </trkpt>
      <trkpt lat="44.57719" lon="2.99405">
        <ele>1091.893015</ele>
        <time>2021-06-12T18:53:01.593Z</time>
      </trkpt>
      <trkpt lat="44.57733" lon="2.99472">
        <ele>1097.970326</ele>
        <time>2021-06-12T18:53:44.348Z</time>
      </trkpt>
      <trkpt lat="44.57748" lon="2.99489">
        <ele>1100.249728</ele>
        <time>2021-06-12T18:54:01.581Z</time>
      </trkpt>
      <trkpt lat="44.57744" lon="2.99495">
        <ele>1100.959124</ele>
        <time>2021-06-12T18:54:07.354Z</time>
      </trkpt>
      <trkpt lat="44.57752" lon="2.9952">
        <ele>1103.235309</ele>
        <time>2021-06-12T18:54:26.280Z</time>
      </trkpt>
      <trkpt lat="44.57744" lon="2.99532">
        <ele>1104.669453</ele>
        <time>2021-06-12T18:54:37.916Z</time>
      </trkpt>
      <trkpt lat="44.57745" lon="2.99553">
        <ele>1106.470779</ele>
        <time>2021-06-12T18:54:54.808Z</time>
      </trkpt>
      <trkpt lat="44.57758" lon="2.99576">
        <ele>1109.158938</ele>
        <time>2021-06-12T18:55:16.522Z</time>
      </trkpt>
      <trkpt lat="44.57761" lon="2.99599">
        <ele>1112.302302</ele>
        <time>2021-06-12T18:55:37.370Z</time>
      </trkpt>
      <trkpt lat="44.57767" lon="2.99609">
        <ele>1113.930492</ele>
        <time>2021-06-12T18:55:46.771Z</time>
      </trkpt>
      <trkpt lat="44.57767" lon="2.99636">
        <ele>1117.518079</ele>
        <time>2021-06-12T18:56:09.603Z</time>
      </trkpt>
      <trkpt lat="44.57755" lon="2.99648">
        <ele>1120.266667</ele>
        <time>2021-06-12T18:56:27.685Z</time>
      </trkpt>
      <trkpt lat="44.57764" lon="2.99713">
        <ele>1129.105232</ele>
        <time>2021-06-12T18:57:24.686Z</time>
      </trkpt>
      <trkpt lat="44.57752" lon="2.99733">
        <ele>1132.64048</ele>
        <time>2021-06-12T18:57:49.945Z</time>
      </trkpt>
      <trkpt lat="44.57767" lon="2.99733">
        <ele>1135.476041</ele>
        <time>2021-06-12T18:58:08.668Z</time>
      </trkpt>
      <trkpt lat="44.57764" lon="2.99758">
        <ele>1138.907046</ele>
        <time>2021-06-12T18:58:33.815Z</time>
      </trkpt>
      <trkpt lat="44.57753" lon="2.99755">
        <ele>1140.932313</ele>
        <time>2021-06-12T18:58:44.810Z</time>
      </trkpt>
      <trkpt lat="44.57741" lon="2.99761">
        <ele>1142.872316</ele>
        <time>2021-06-12T18:59:03.640Z</time>
      </trkpt>
      <trkpt lat="44.57731" lon="2.99777">
        <ele>1144.605922</ele>
        <time>2021-06-12T18:59:19.108Z</time>
      </trkpt>
      <trkpt lat="44.57752" lon="2.99836">
        <ele>1149.890825</ele>
        <time>2021-06-12T19:00:05.097Z</time>
      </trkpt>
      <trkpt lat="44.57742" lon="2.99845">
        <ele>1151.260136</ele>
        <time>2021-06-12T19:00:19.374Z</time>
      </trkpt>
      <trkpt lat="44.57758" lon="2.99867">
        <ele>1153.823539</ele>
        <time>2021-06-12T19:00:35.501Z</time>
      </trkpt>
      <trkpt lat="44.57764" lon="2.99877">
        <ele>1154.821495</ele>
        <time>2021-06-12T19:00:46.514Z</time>
      </trkpt>
      <trkpt lat="44.57776" lon="2.99884">
        <ele>1156.370726</ele>
        <time>2021-06-12T19:00:55.395Z</time>
      </trkpt>
      <trkpt lat="44.57818" lon="2.99898">
        <ele>1161.116234</ele>
        <time>2021-06-12T19:01:24.232Z</time>
      </trkpt>
      <trkpt lat="44.57914" lon="2.99957">
        <ele>1164.367267</ele>
        <time>2021-06-12T19:02:27.426Z</time>
      </trkpt>
      <trkpt lat="44.57924" lon="2.99959">
        <ele>1164.597653</ele>
        <time>2021-06-12T19:02:32.841Z</time>
      </trkpt>
      <trkpt lat="44.57939" lon="2.99923">
        <ele>1165.254163</ele>
        <time>2021-06-12T19:02:48.121Z</time>
      </trkpt>
      <trkpt lat="44.57956" lon="2.99926">
        <ele>1165.645615</ele>
        <time>2021-06-12T19:02:57.272Z</time>
      </trkpt>
      <trkpt lat="44.57961" lon="2.99939">
        <ele>1165.885418</ele>
        <time>2021-06-12T19:03:02.993Z</time>
      </trkpt>
      <trkpt lat="44.57965" lon="3.00029">
        <ele>1166.765946</ele>
        <time>2021-06-12T19:03:37.858Z</time>
      </trkpt>
      <trkpt lat="44.57973" lon="3.0006">
        <ele>1167.014007</ele>
        <time>2021-06-12T19:03:51.106Z</time>
      </trkpt>
      <trkpt lat="44.58003" lon="3.00109">
        <ele>1167.51309</ele>
        <time>2021-06-12T19:04:16.608Z</time>
      </trkpt>
      <trkpt lat="44.58038" lon="3.00127">
        <ele>1167.915267</ele>
        <time>2021-06-12T19:04:36.992Z</time>
      </trkpt>
      <trkpt lat="44.58056" lon="3.00148">
        <ele>1168.166797</ele>
        <time>2021-06-12T19:04:49.869Z</time>
      </trkpt>
      <trkpt lat="44.58072" lon="3.00155">
        <ele>1168.354205</ele>
        <time>2021-06-12T19:04:58.868Z</time>
      </trkpt>
      <trkpt lat="44.58087" lon="3.00154">
        <ele>1168.517484</ele>
        <time>2021-06-12T19:05:07.163Z</time>
      </trkpt>
      <trkpt lat="44.58103" lon="3.00143">
        <ele>1168.70566</ele>
        <time>2021-06-12T19:05:16.155Z</time>
      </trkpt>
      <trkpt lat="44.58111" lon="3.00126">
        <ele>1168.866555</ele>
        <time>2021-06-12T19:05:24.167Z</time>
      </trkpt>
      <trkpt lat="44.58122" lon="3.00117">
        <ele>1169.002304</ele>
        <time>2021-06-12T19:05:30.690Z</time>
      </trkpt>
      <trkpt lat="44.58184" lon="3.00125">
        <ele>1169.681823</ele>
        <time>2021-06-12T19:06:05.559Z</time>
      </trkpt>
      <trkpt lat="44.58213" lon="3.0011">
        <ele>1170.014918</ele>
        <time>2021-06-12T19:06:22.269Z</time>
      </trkpt>
      <trkpt lat="44.58226" lon="3.00116">
        <ele>1170.144517</ele>
        <time>2021-06-12T19:06:29.577Z</time>
      </trkpt>
      <trkpt lat="44.58236" lon="3.00133">
        <ele>1170.100239</ele>
        <time>2021-06-12T19:06:37.972Z</time>
      </trkpt>
      <trkpt lat="44.5823" lon="3.00171">
        <ele>1170.021728</ele>
        <time>2021-06-12T19:06:53.320Z</time>
      </trkpt>
      <trkpt lat="44.58233" lon="3.00183">
        <ele>1169.997145</ele>
        <time>2021-06-12T19:06:57.953Z</time>
      </trkpt>
      <trkpt lat="44.58248" lon="3.00206">
        <ele>1169.932959</ele>
        <time>2021-06-12T19:07:10.629Z</time>
      </trkpt>
      <trkpt lat="44.5826" lon="3.00228">
        <ele>1169.877661</ele>
        <time>2021-06-12T19:07:21.045Z</time>
      </trkpt>
      <trkpt lat="44.58268" lon="3.00251">
        <ele>1169.825312</ele>
        <time>2021-06-12T19:07:30.993Z</time>
      </trkpt>
      <trkpt lat="44.58257" lon="3.00304">
        <ele>1169.71575</ele>
        <time>2021-06-12T19:07:50.732Z</time>
      </trkpt>
      <trkpt lat="44.5826" lon="3.00346">
        <ele>1169.493182</ele>
        <time>2021-06-12T19:08:05.742Z</time>
      </trkpt>
      <trkpt lat="44.58276" lon="3.00402">
        <ele>1167.724609</ele>
        <time>2021-06-12T19:08:26.529Z</time>
      </trkpt>
      <trkpt lat="44.58301" lon="3.00456">
        <ele>1165.814084</ele>
        <time>2021-06-12T19:08:47.838Z</time>
      </trkpt>
      <trkpt lat="44.58304" lon="3.00462">
        <ele>1165.61029</ele>
        <time>2021-06-12T19:08:49.876Z</time>
      </trkpt>
      <trkpt lat="44.58302" lon="3.0051">
        <ele>1164.201731</ele>
        <time>2021-06-12T19:09:05.749Z</time>
      </trkpt>
      <trkpt lat="44.58326" lon="3.00549">
        <ele>1162.68405</ele>
        <time>2021-06-12T19:09:23.114Z</time>
      </trkpt>
      <trkpt lat="44.58341" lon="3.00563">
        <ele>1162.410245</ele>
        <time>2021-06-12T19:09:31.836Z</time>
      </trkpt>
      <trkpt lat="44.58394" lon="3.00584">
        <ele>1164.16901</ele>
        <time>2021-06-12T19:09:59.593Z</time>
      </trkpt>
      <trkpt lat="44.58405" lon="3.00583">
        <ele>1164.522155</ele>
        <time>2021-06-12T19:10:04.639Z</time>
      </trkpt>
      <trkpt lat="44.58406" lon="3.00589">
        <ele>1164.658726</ele>
        <time>2021-06-12T19:10:10.735Z</time>
      </trkpt>
      <trkpt lat="44.58399" lon="3.00602">
        <ele>1165.02968</ele>
        <time>2021-06-12T19:10:17.694Z</time>
      </trkpt>
      <trkpt lat="44.58357" lon="3.00637">
        <ele>1166.559922</ele>
        <time>2021-06-12T19:10:48.042Z</time>
      </trkpt>
      <trkpt lat="44.58328" lon="3.00676">
        <ele>1167.842295</ele>
        <time>2021-06-12T19:11:17.399Z</time>
      </trkpt>
      <trkpt lat="44.58329" lon="3.00738">
        <ele>1173.309374</ele>
        <time>2021-06-12T19:11:59.159Z</time>
      </trkpt>
      <trkpt lat="44.58301" lon="3.00791">
        <ele>1179.216893</ele>
        <time>2021-06-12T19:12:43.149Z</time>
      </trkpt>
      <trkpt lat="44.583" lon="3.00813">
        <ele>1181.210082</ele>
        <time>2021-06-12T19:12:58.016Z</time>
      </trkpt>
      <trkpt lat="44.58306" lon="3.00872">
        <ele>1186.602111</ele>
        <time>2021-06-12T19:13:40.587Z</time>
      </trkpt>
      <trkpt lat="44.58301" lon="3.0089">
        <ele>1188.362901</ele>
        <time>2021-06-12T19:13:55.142Z</time>
      </trkpt>
      <trkpt lat="44.58286" lon="3.00901">
        <ele>1190.556174</ele>
        <time>2021-06-12T19:14:12.291Z</time>
      </trkpt>
      <trkpt lat="44.58284" lon="3.00913">
        <ele>1191.612245</ele>
        <time>2021-06-12T19:14:21.433Z</time>
      </trkpt>
      <trkpt lat="44.58242" lon="3.00987">
        <ele>1199.172341</ele>
        <time>2021-06-12T19:15:24.678Z</time>
      </trkpt>
      <trkpt lat="44.58231" lon="3.0104">
        <ele>1203.606027</ele>
        <time>2021-06-12T19:15:59.580Z</time>
      </trkpt>
      <trkpt lat="44.58225" lon="3.01063">
        <ele>1205.578634</ele>
        <time>2021-06-12T19:16:14.473Z</time>
      </trkpt>
      <trkpt lat="44.58219" lon="3.01118">
        <ele>1210.05282</ele>
        <time>2021-06-12T19:16:45.730Z</time>
      </trkpt>
      <trkpt lat="44.58226" lon="3.01157">
        <ele>1212.466786</ele>
        <time>2021-06-12T19:17:07.475Z</time>
      </trkpt>
      <trkpt lat="44.58222" lon="3.01228">
        <ele>1216.060364</ele>
        <time>2021-06-12T19:17:45.551Z</time>
      </trkpt>
      <trkpt lat="44.58229" lon="3.0135">
        <ele>1222.186497</ele>
        <time>2021-06-12T19:18:43.391Z</time>
      </trkpt>
      <trkpt lat="44.58247" lon="3.01417">
        <ele>1225.839942</ele>
        <time>2021-06-12T19:19:19.217Z</time>
      </trkpt>
      <trkpt lat="44.58247" lon="3.01418">
        <ele>1225.857656</ele>
        <time>2021-06-12T19:19:19.749Z</time>
      </trkpt>
      <trkpt lat="44.58263" lon="3.01431">
        <ele>1227.178937</ele>
        <time>2021-06-12T19:19:32.231Z</time>
      </trkpt>
      <trkpt lat="44.58285" lon="3.01477">
        <ele>1230.02988</ele>
        <time>2021-06-12T19:20:00.857Z</time>
      </trkpt>
      <trkpt lat="44.58289" lon="3.01498">
        <ele>1231.103356</ele>
        <time>2021-06-12T19:20:12.426Z</time>
      </trkpt>
      <trkpt lat="44.58325" lon="3.01591">
        <ele>1236.582524</ele>
        <time>2021-06-12T19:21:08.276Z</time>
      </trkpt>
      <trkpt lat="44.58328" lon="3.01605">
        <ele>1237.1972</ele>
        <time>2021-06-12T19:21:15.162Z</time>
      </trkpt>
      <trkpt lat="44.58321" lon="3.01686">
        <ele>1240.400075</ele>
        <time>2021-06-12T19:21:55.693Z</time>
      </trkpt>
      <trkpt lat="44.58328" lon="3.01692">
        <ele>1240.838878</ele>
        <time>2021-06-12T19:22:00.915Z</time>
      </trkpt>
      <trkpt lat="44.5837" lon="3.01667">
        <ele>1243.348158</ele>
        <time>2021-06-12T19:22:30.129Z</time>
      </trkpt>
      <trkpt lat="44.58394" lon="3.01661">
        <ele>1244.672041</ele>
        <time>2021-06-12T19:22:45.746Z</time>
      </trkpt>
      <trkpt lat="44.58404" lon="3.01657">
        <ele>1245.244529</ele>
        <time>2021-06-12T19:22:51.841Z</time>
      </trkpt>
      <trkpt lat="44.58411" lon="3.01691">
        <ele>1246.636098</ele>
        <time>2021-06-12T19:23:05.530Z</time>
      </trkpt>
      <trkpt lat="44.58423" lon="3.017">
        <ele>1247.115747</ele>
        <time>2021-06-12T19:23:12.405Z</time>
      </trkpt>
      <trkpt lat="44.58439" lon="3.01697">
        <ele>1247.674457</ele>
        <time>2021-06-12T19:23:20.951Z</time>
      </trkpt>
      <trkpt lat="44.58493" lon="3.01541">
        <ele>1251.955461</ele>
        <time>2021-06-12T19:24:24.625Z</time>
      </trkpt>
      <trkpt lat="44.585" lon="3.01534">
        <ele>1252.261013</ele>
        <time>2021-06-12T19:24:29.210Z</time>
      </trkpt>
      <trkpt lat="44.58585" lon="3.01585">
        <ele>1253.733615</ele>
        <time>2021-06-12T19:25:12.726Z</time>
      </trkpt>
      <trkpt lat="44.58597" lon="3.0159">
        <ele>1253.880522</ele>
        <time>2021-06-12T19:25:19.504Z</time>
      </trkpt>
      <trkpt lat="44.58573" lon="3.01659">
        <ele>1254.50101</ele>
        <time>2021-06-12T19:25:47.961Z</time>
      </trkpt>
      <trkpt lat="44.58556" lon="3.01693">
        <ele>1254.842999</ele>
        <time>2021-06-12T19:26:04.117Z</time>
      </trkpt>
      <trkpt lat="44.58441" lon="3.01708">
        <ele>1255.604482</ele>
        <time>2021-06-12T19:27:04.388Z</time>
      </trkpt>
      <trkpt lat="44.58401" lon="3.01775">
        <ele>1255.994072</ele>
        <time>2021-06-12T19:27:38.396Z</time>
      </trkpt>
      <trkpt lat="44.58391" lon="3.01779">
        <ele>1256.057136</ele>
        <time>2021-06-12T19:27:42.887Z</time>
      </trkpt>
      <trkpt lat="44.58396" lon="3.01794">
        <ele>1256.416026</ele>
        <time>2021-06-12T19:27:48.530Z</time>
      </trkpt>
      <trkpt lat="44.58392" lon="3.01813">
        <ele>1256.833389</ele>
        <time>2021-06-12T19:27:57.019Z</time>
      </trkpt>
      <trkpt lat="44.58382" lon="3.01801">
        <ele>1257.224698</ele>
        <time>2021-06-12T19:28:03.853Z</time>
      </trkpt>
      <trkpt lat="44.58361" lon="3.01778">
        <ele>1258.047951</ele>
        <time>2021-06-12T19:28:20.216Z</time>
      </trkpt>
      <trkpt lat="44.5834" lon="3.01732">
        <ele>1259.233672</ele>
        <time>2021-06-12T19:28:43.503Z</time>
      </trkpt>
      <trkpt lat="44.58337" lon="3.01716">
        <ele>1259.591798</ele>
        <time>2021-06-12T19:28:49.892Z</time>
      </trkpt>
      <trkpt lat="44.58316" lon="3.01707">
        <ele>1260.268749</ele>
        <time>2021-06-12T19:29:04.418Z</time>
      </trkpt>
      <trkpt lat="44.58271" lon="3.01684">
        <ele>1261.834459</ele>
        <time>2021-06-12T19:29:32.934Z</time>
      </trkpt>
      <trkpt lat="44.5825" lon="3.01692">
        <ele>1262.849059</ele>
        <time>2021-06-12T19:29:46.930Z</time>
      </trkpt>
      <trkpt lat="44.58241" lon="3.01686">
        <ele>1263.280884</ele>
        <time>2021-06-12T19:29:52.398Z</time>
      </trkpt>
      <trkpt lat="44.58219" lon="3.01656">
        <ele>1264.722757</ele>
        <time>2021-06-12T19:30:12.210Z</time>
      </trkpt>
      <trkpt lat="44.58209" lon="3.01653">
        <ele>1265.189236</ele>
        <time>2021-06-12T19:30:18.091Z</time>
      </trkpt>
      <trkpt lat="44.582" lon="3.01638">
        <ele>1265.843983</ele>
        <time>2021-06-12T19:30:27.518Z</time>
      </trkpt>
      <trkpt lat="44.58164" lon="3.01604">
        <ele>1267.863162</ele>
        <time>2021-06-12T19:30:55.614Z</time>
      </trkpt>
      <trkpt lat="44.5815" lon="3.01575">
        <ele>1269.024534</ele>
        <time>2021-06-12T19:31:11.542Z</time>
      </trkpt>
      <trkpt lat="44.58124" lon="3.01554">
        <ele>1270.477451</ele>
        <time>2021-06-12T19:31:31.143Z</time>
      </trkpt>
      <trkpt lat="44.58122" lon="3.01542">
        <ele>1270.880743</ele>
        <time>2021-06-12T19:31:36.391Z</time>
      </trkpt>
      <trkpt lat="44.58101" lon="3.01528">
        <ele>1271.988322</ele>
        <time>2021-06-12T19:31:50.987Z</time>
      </trkpt>
      <trkpt lat="44.58088" lon="3.01509">
        <ele>1272.908563</ele>
        <time>2021-06-12T19:32:02.943Z</time>
      </trkpt>
      <trkpt lat="44.58062" lon="3.01458">
        <ele>1275.055498</ele>
        <time>2021-06-12T19:32:30.941Z</time>
      </trkpt>
      <trkpt lat="44.58033" lon="3.01415">
        <ele>1277.136024</ele>
        <time>2021-06-12T19:32:58.113Z</time>
      </trkpt>
      <trkpt lat="44.58023" lon="3.01391">
        <ele>1278.108315</ele>
        <time>2021-06-12T19:33:10.824Z</time>
      </trkpt>
      <trkpt lat="44.58" lon="3.01282">
        <ele>1283.337472</ele>
        <time>2021-06-12T19:34:03.707Z</time>
      </trkpt>
      <trkpt lat="44.57964" lon="3.01197">
        <ele>1288.037758</ele>
        <time>2021-06-12T19:34:51.139Z</time>
      </trkpt>
      <trkpt lat="44.57957" lon="3.0115">
        <ele>1290.332206</ele>
        <time>2021-06-12T19:35:16.035Z</time>
      </trkpt>
      <trkpt lat="44.57884" lon="3.01065">
        <ele>1301.235146</ele>
        <time>2021-06-12T19:36:42.436Z</time>
      </trkpt>
      <trkpt lat="44.57871" lon="3.01043">
        <ele>1303.589853</ele>
        <time>2021-06-12T19:36:58.689Z</time>
      </trkpt>
      <trkpt lat="44.57856" lon="3.01022">
        <ele>1306.160318</ele>
        <time>2021-06-12T19:37:21.562Z</time>
      </trkpt>
      <trkpt lat="44.57855" lon="3.00997">
        <ele>1308.234894</ele>
        <time>2021-06-12T19:37:33.489Z</time>
      </trkpt>
      <trkpt lat="44.57857" lon="3.00986">
        <ele>1309.182876</ele>
        <time>2021-06-12T19:37:39.138Z</time>
      </trkpt>
      <trkpt lat="44.57852" lon="3.00986">
        <ele>1309.682972</ele>
        <time>2021-06-12T19:37:48.133Z</time>
      </trkpt>
      <trkpt lat="44.57817" lon="3.00983">
        <ele>1313.906825</ele>
        <time>2021-06-12T19:38:20.965Z</time>
      </trkpt>
      <trkpt lat="44.57776" lon="3.01">
        <ele>1319.226147</ele>
        <time>2021-06-12T19:39:02.936Z</time>
      </trkpt>
      <trkpt lat="44.57766" lon="3.00986">
        <ele>1320.936991</ele>
        <time>2021-06-12T19:39:14.096Z</time>
      </trkpt>
      <trkpt lat="44.57517" lon="3.01188">
        <ele>1354.419345</ele>
        <time>2021-06-12T19:43:36.708Z</time>
      </trkpt>
      <trkpt lat="44.57467" lon="3.01228">
        <ele>1356.301488</ele>
        <time>2021-06-12T19:44:18.036Z</time>
      </trkpt>
      <trkpt lat="44.57454" lon="3.01239">
        <ele>1356.795033</ele>
        <time>2021-06-12T19:44:28.429Z</time>
      </trkpt>
      <trkpt lat="44.57454" lon="3.0124">
        <ele>1356.82529</ele>
        <time>2021-06-12T19:44:29.061Z</time>
      </trkpt>
      <trkpt lat="44.575" lon="3.01322">
        <ele>1359.217752</ele>
        <time>2021-06-12T19:45:11.921Z</time>
      </trkpt>
      <trkpt lat="44.57526" lon="3.01354">
        <ele>1360.090184</ele>
        <time>2021-06-12T19:45:29.816Z</time>
      </trkpt>
      <trkpt lat="44.57582" lon="3.01373">
        <ele>1356.26233</ele>
        <time>2021-06-12T19:45:55.522Z</time>
      </trkpt>
      <trkpt lat="44.57611" lon="3.01436">
        <ele>1352.662347</ele>
        <time>2021-06-12T19:46:19.017Z</time>
      </trkpt>
      <trkpt lat="44.57617" lon="3.01472">
        <ele>1350.946064</ele>
        <time>2021-06-12T19:46:30.275Z</time>
      </trkpt>
      <trkpt lat="44.57676" lon="3.01546">
        <ele>1345.616628</ele>
        <time>2021-06-12T19:47:05.410Z</time>
      </trkpt>
      <trkpt lat="44.57737" lon="3.0166">
        <ele>1338.819178</ele>
        <time>2021-06-12T19:47:51.167Z</time>
      </trkpt>
      <trkpt lat="44.57804" lon="3.0177">
        <ele>1331.879665</ele>
        <time>2021-06-12T19:48:38.267Z</time>
      </trkpt>
      <trkpt lat="44.57885" lon="3.0193">
        <ele>1322.56457</ele>
        <time>2021-06-12T19:49:40.937Z</time>
      </trkpt>
      <trkpt lat="44.57924" lon="3.01961">
        <ele>1319.600509</ele>
        <time>2021-06-12T19:50:00.895Z</time>
      </trkpt>
      <trkpt lat="44.57965" lon="3.02029">
        <ele>1315.428773</ele>
        <time>2021-06-12T19:50:29.316Z</time>
      </trkpt>
      <trkpt lat="44.57987" lon="3.02036">
        <ele>1313.894206</ele>
        <time>2021-06-12T19:50:39.718Z</time>
      </trkpt>
      <trkpt lat="44.57971" lon="3.02082">
        <ele>1311.864908</ele>
        <time>2021-06-12T19:50:56.540Z</time>
      </trkpt>
      <trkpt lat="44.57979" lon="3.02142">
        <ele>1310.390091</ele>
        <time>2021-06-12T19:51:16.970Z</time>
      </trkpt>
      <trkpt lat="44.57993" lon="3.02175">
        <ele>1309.468038</ele>
        <time>2021-06-12T19:51:29.931Z</time>
      </trkpt>
      <trkpt lat="44.58003" lon="3.02188">
        <ele>1309.016786</ele>
        <time>2021-06-12T19:51:36.438Z</time>
      </trkpt>
      <trkpt lat="44.58012" lon="3.02184">
        <ele>1308.711942</ele>
        <time>2021-06-12T19:51:40.600Z</time>
      </trkpt>
      <trkpt lat="44.58021" lon="3.0219">
        <ele>1308.359879</ele>
        <time>2021-06-12T19:51:45.788Z</time>
      </trkpt>
      <trkpt lat="44.58033" lon="3.02201">
        <ele>1307.878329</ele>
        <time>2021-06-12T19:51:52.942Z</time>
      </trkpt>
      <trkpt lat="44.58052" lon="3.02207">
        <ele>1307.219977</ele>
        <time>2021-06-12T19:52:02.488Z</time>
      </trkpt>
      <trkpt lat="44.58072" lon="3.02219">
        <ele>1306.488115</ele>
        <time>2021-06-12T19:52:13.445Z</time>
      </trkpt>
      <trkpt lat="44.58097" lon="3.02276">
        <ele>1306.363153</ele>
        <time>2021-06-12T19:52:37.966Z</time>
      </trkpt>
      <trkpt lat="44.58156" lon="3.02355">
        <ele>1306.737173</ele>
        <time>2021-06-12T19:53:21.319Z</time>
      </trkpt>
      <trkpt lat="44.58186" lon="3.02386">
        <ele>1306.91153</ele>
        <time>2021-06-12T19:53:42.011Z</time>
      </trkpt>
      <trkpt lat="44.58304" lon="3.02467">
        <ele>1309.603403</ele>
        <time>2021-06-12T19:54:56.073Z</time>
      </trkpt>
      <trkpt lat="44.58356" lon="3.02516">
        <ele>1311.081714</ele>
        <time>2021-06-12T19:55:32.510Z</time>
      </trkpt>
      <trkpt lat="44.58398" lon="3.02521">
        <ele>1312.999249</ele>
        <time>2021-06-12T19:55:57.627Z</time>
      </trkpt>
      <trkpt lat="44.58474" lon="3.02548">
        <ele>1317.050445</ele>
        <time>2021-06-12T19:56:47.635Z</time>
      </trkpt>
      <trkpt lat="44.58497" lon="3.02564">
        <ele>1318.397324</ele>
        <time>2021-06-12T19:57:05.104Z</time>
      </trkpt>
      <trkpt lat="44.58521" lon="3.02562">
        <ele>1319.631169</ele>
        <time>2021-06-12T19:57:21.630Z</time>
      </trkpt>
      <trkpt lat="44.58552" lon="3.02541">
        <ele>1321.783357</ele>
        <time>2021-06-12T19:57:45.927Z</time>
      </trkpt>
      <trkpt lat="44.5859" lon="3.02542">
        <ele>1324.561104</ele>
        <time>2021-06-12T19:58:12.977Z</time>
      </trkpt>
      <trkpt lat="44.58657" lon="3.02526">
        <ele>1329.617094</ele>
        <time>2021-06-12T19:59:03.409Z</time>
      </trkpt>
      <trkpt lat="44.58664" lon="3.02518">
        <ele>1330.34298</ele>
        <time>2021-06-12T19:59:10.730Z</time>
      </trkpt>
      <trkpt lat="44.58731" lon="3.02524">
        <ele>1334.887941</ele>
        <time>2021-06-12T19:59:58.845Z</time>
      </trkpt>
      <trkpt lat="44.5878" lon="3.02501">
        <ele>1337.666842</ele>
        <time>2021-06-12T20:00:35.044Z</time>
      </trkpt>
      <trkpt lat="44.58815" lon="3.025">
        <ele>1339.565445</ele>
        <time>2021-06-12T20:00:58.511Z</time>
      </trkpt>
      <trkpt lat="44.58926" lon="3.02526">
        <ele>1344.295883</ele>
        <time>2021-06-12T20:02:06.435Z</time>
      </trkpt>
      <trkpt lat="44.58932" lon="3.02537">
        <ele>1344.500176</ele>
        <time>2021-06-12T20:02:12.011Z</time>
      </trkpt>
      <trkpt lat="44.5902" lon="3.02585">
        <ele>1346.443194</ele>
        <time>2021-06-12T20:03:04.609Z</time>
      </trkpt>
      <trkpt lat="44.59059" lon="3.02592">
        <ele>1347.221995</ele>
        <time>2021-06-12T20:03:26.280Z</time>
      </trkpt>
      <trkpt lat="44.59084" lon="3.0258">
        <ele>1347.268899</ele>
        <time>2021-06-12T20:03:40.510Z</time>
      </trkpt>
      <trkpt lat="44.59103" lon="3.02516">
        <ele>1347.357084</ele>
        <time>2021-06-12T20:04:07.250Z</time>
      </trkpt>
      <trkpt lat="44.59097" lon="3.0248">
        <ele>1347.403699</ele>
        <time>2021-06-12T20:04:21.468Z</time>
      </trkpt>
      <trkpt lat="44.59084" lon="3.02438">
        <ele>1347.461615</ele>
        <time>2021-06-12T20:04:38.421Z</time>
      </trkpt>
      <trkpt lat="44.59091" lon="3.02407">
        <ele>1347.503129</ele>
        <time>2021-06-12T20:04:50.584Z</time>
      </trkpt>
      <trkpt lat="44.59077" lon="3.02369">
        <ele>1347.340824</ele>
        <time>2021-06-12T20:05:06.342Z</time>
      </trkpt>
      <trkpt lat="44.5908" lon="3.02348">
        <ele>1347.075625</ele>
        <time>2021-06-12T20:05:13.996Z</time>
      </trkpt>
      <trkpt lat="44.59105" lon="3.02304">
        <ele>1346.37554</ele>
        <time>2021-06-12T20:05:34.202Z</time>
      </trkpt>
      <trkpt lat="44.59106" lon="3.02279">
        <ele>1346.053092</ele>
        <time>2021-06-12T20:05:43.526Z</time>
      </trkpt>
      <trkpt lat="44.59097" lon="3.02269">
        <ele>1345.851557</ele>
        <time>2021-06-12T20:05:49.182Z</time>
      </trkpt>
      <trkpt lat="44.59103" lon="3.02257">
        <ele>1345.666417</ele>
        <time>2021-06-12T20:05:54.373Z</time>
      </trkpt>
      <trkpt lat="44.59112" lon="3.02224">
        <ele>1345.224028</ele>
        <time>2021-06-12T20:06:07.017Z</time>
      </trkpt>
      <trkpt lat="44.59147" lon="3.02206">
        <ele>1344.582785</ele>
        <time>2021-06-12T20:06:25.175Z</time>
      </trkpt>
      <trkpt lat="44.59182" lon="3.02169">
        <ele>1344.099648</ele>
        <time>2021-06-12T20:06:47.066Z</time>
      </trkpt>
      <trkpt lat="44.59209" lon="3.02144">
        <ele>1343.819571</ele>
        <time>2021-06-12T20:07:03.152Z</time>
      </trkpt>
      <trkpt lat="44.59283" lon="3.0219">
        <ele>1343.117885</ele>
        <time>2021-06-12T20:07:44.605Z</time>
      </trkpt>
      <trkpt lat="44.59464" lon="3.02333">
        <ele>1343.807498</ele>
        <time>2021-06-12T20:09:36.149Z</time>
      </trkpt>
      <trkpt lat="44.59536" lon="3.02359">
        <ele>1344.002324</ele>
        <time>2021-06-12T20:10:15.819Z</time>
      </trkpt>
      <trkpt lat="44.59679" lon="3.0244">
        <ele>1343.926183</ele>
        <time>2021-06-12T20:11:36.568Z</time>
      </trkpt>
      <trkpt lat="44.59699" lon="3.0246">
        <ele>1343.725606</ele>
        <time>2021-06-12T20:11:49.407Z</time>
      </trkpt>
      <trkpt lat="44.5972" lon="3.02494">
        <ele>1343.465915</ele>
        <time>2021-06-12T20:12:05.979Z</time>
      </trkpt>
      <trkpt lat="44.59803" lon="3.02705">
        <ele>1341.9543</ele>
        <time>2021-06-12T20:13:32.833Z</time>
      </trkpt>
      <trkpt lat="44.59831" lon="3.0279">
        <ele>1341.316014</ele>
        <time>2021-06-12T20:14:07.236Z</time>
      </trkpt>
      <trkpt lat="44.59834" lon="3.02845">
        <ele>1341.159365</ele>
        <time>2021-06-12T20:14:27.785Z</time>
      </trkpt>
      <trkpt lat="44.59821" lon="3.02941">
        <ele>1341.372469</ele>
        <time>2021-06-12T20:15:04.513Z</time>
      </trkpt>
      <trkpt lat="44.59825" lon="3.02957">
        <ele>1341.409851</ele>
        <time>2021-06-12T20:15:11.134Z</time>
      </trkpt>
      <trkpt lat="44.59814" lon="3.03017">
        <ele>1341.546403</ele>
        <time>2021-06-12T20:15:35.358Z</time>
      </trkpt>
      <trkpt lat="44.59813" lon="3.03064">
        <ele>1341.650034</ele>
        <time>2021-06-12T20:15:53.397Z</time>
      </trkpt>
      <trkpt lat="44.59807" lon="3.03083">
        <ele>1341.394122</ele>
        <time>2021-06-12T20:16:01.186Z</time>
      </trkpt>
      <trkpt lat="44.59794" lon="3.03125">
        <ele>1340.673178</ele>
        <time>2021-06-12T20:16:18.016Z</time>
      </trkpt>
      <trkpt lat="44.59766" lon="3.03196">
        <ele>1339.3857</ele>
        <time>2021-06-12T20:16:47.768Z</time>
      </trkpt>
      <trkpt lat="44.59766" lon="3.03196">
        <ele>1339.3857</ele>
        <time>2021-06-12T20:16:47.848Z</time>
      </trkpt>
      <trkpt lat="44.59781" lon="3.03185">
        <ele>1339.017198</ele>
        <time>2021-06-12T20:16:54.771Z</time>
      </trkpt>
      <trkpt lat="44.59913" lon="3.03159">
        <ele>1333.743487</ele>
        <time>2021-06-12T20:17:47.536Z</time>
      </trkpt>
      <trkpt lat="44.59948" lon="3.03153">
        <ele>1331.835178</ele>
        <time>2021-06-12T20:18:01.034Z</time>
      </trkpt>
      <trkpt lat="44.60021" lon="3.03137">
        <ele>1327.822461</ele>
        <time>2021-06-12T20:18:29.873Z</time>
      </trkpt>
      <trkpt lat="44.60042" lon="3.03127">
        <ele>1326.981797</ele>
        <time>2021-06-12T20:18:38.659Z</time>
      </trkpt>
      <trkpt lat="44.60128" lon="3.03037">
        <ele>1322.97257</ele>
        <time>2021-06-12T20:19:22.124Z</time>
      </trkpt>
      <trkpt lat="44.60164" lon="3.03014">
        <ele>1321.507644</ele>
        <time>2021-06-12T20:19:38.700Z</time>
      </trkpt>
      <trkpt lat="44.60178" lon="3.03012">
        <ele>1321.108932</ele>
        <time>2021-06-12T20:19:44.675Z</time>
      </trkpt>
      <trkpt lat="44.60203" lon="3.03009">
        <ele>1320.875942</ele>
        <time>2021-06-12T20:19:55.460Z</time>
      </trkpt>
      <trkpt lat="44.60246" lon="3.03015">
        <ele>1320.480192</ele>
        <time>2021-06-12T20:20:13.966Z</time>
      </trkpt>
      <trkpt lat="44.60265" lon="3.03016">
        <ele>1320.303187</ele>
        <time>2021-06-12T20:20:22.280Z</time>
      </trkpt>
      <trkpt lat="44.60259" lon="3.03042">
        <ele>1320.126682</ele>
        <time>2021-06-12T20:20:30.710Z</time>
      </trkpt>
      <trkpt lat="44.60255" lon="3.03071">
        <ele>1319.933648</ele>
        <time>2021-06-12T20:20:39.925Z</time>
      </trkpt>
      <trkpt lat="44.60254" lon="3.03134">
        <ele>1319.516811</ele>
        <time>2021-06-12T20:21:00.096Z</time>
      </trkpt>
      <trkpt lat="44.60252" lon="3.03165">
        <ele>1319.680244</ele>
        <time>2021-06-12T20:21:09.844Z</time>
      </trkpt>
      <trkpt lat="44.60244" lon="3.03234">
        <ele>1320.158637</ele>
        <time>2021-06-12T20:21:32.749Z</time>
      </trkpt>
      <trkpt lat="44.60249" lon="3.03269">
        <ele>1320.396506</ele>
        <time>2021-06-12T20:21:44.362Z</time>
      </trkpt>
      <trkpt lat="44.60259" lon="3.03292">
        <ele>1320.577977</ele>
        <time>2021-06-12T20:21:53.289Z</time>
      </trkpt>
      <trkpt lat="44.60381" lon="3.03448">
        <ele>1321.930624</ele>
        <time>2021-06-12T20:23:11.206Z</time>
      </trkpt>
      <trkpt lat="44.60404" lon="3.0347">
        <ele>1322.133272</ele>
        <time>2021-06-12T20:23:23.794Z</time>
      </trkpt>
      <trkpt lat="44.60433" lon="3.0349">
        <ele>1322.368062</ele>
        <time>2021-06-12T20:23:38.151Z</time>
      </trkpt>
      <trkpt lat="44.60469" lon="3.03515">
        <ele>1322.220176</ele>
        <time>2021-06-12T20:23:55.826Z</time>
      </trkpt>
      <trkpt lat="44.60497" lon="3.03538">
        <ele>1321.732386</ele>
        <time>2021-06-12T20:24:09.690Z</time>
      </trkpt>
      <trkpt lat="44.60522" lon="3.03568">
        <ele>1321.231747</ele>
        <time>2021-06-12T20:24:23.739Z</time>
      </trkpt>
      <trkpt lat="44.60589" lon="3.03664">
        <ele>1319.769569</ele>
        <time>2021-06-12T20:25:04.242Z</time>
      </trkpt>
      <trkpt lat="44.60633" lon="3.03702">
        <ele>1318.757654</ele>
        <time>2021-06-12T20:25:26.291Z</time>
      </trkpt>
      <trkpt lat="44.60675" lon="3.03754">
        <ele>1317.657738</ele>
        <time>2021-06-12T20:25:50.208Z</time>
      </trkpt>
      <trkpt lat="44.60737" lon="3.03803">
        <ele>1316.260235</ele>
        <time>2021-06-12T20:26:20.512Z</time>
      </trkpt>
      <trkpt lat="44.60752" lon="3.03818">
        <ele>1315.736961</ele>
        <time>2021-06-12T20:26:28.166Z</time>
      </trkpt>
      <trkpt lat="44.60771" lon="3.03844">
        <ele>1314.969915</ele>
        <time>2021-06-12T20:26:39.306Z</time>
      </trkpt>
      <trkpt lat="44.60808" lon="3.0392">
        <ele>1313.040588</ele>
        <time>2021-06-12T20:27:06.758Z</time>
      </trkpt>
      <trkpt lat="44.60825" lon="3.03966">
        <ele>1311.978184</ele>
        <time>2021-06-12T20:27:21.746Z</time>
      </trkpt>
      <trkpt lat="44.60842" lon="3.04009">
        <ele>1310.950163</ele>
        <time>2021-06-12T20:27:36.194Z</time>
      </trkpt>
      <trkpt lat="44.60865" lon="3.04076">
        <ele>1309.322388</ele>
        <time>2021-06-12T20:27:58.107Z</time>
      </trkpt>
      <trkpt lat="44.60872" lon="3.04096">
        <ele>1308.837259</ele>
        <time>2021-06-12T20:28:04.680Z</time>
      </trkpt>
      <trkpt lat="44.60871" lon="3.04107">
        <ele>1308.585809</ele>
        <time>2021-06-12T20:28:08.580Z</time>
      </trkpt>
      <trkpt lat="44.60869" lon="3.04184">
        <ele>1306.91279</ele>
        <time>2021-06-12T20:28:35.222Z</time>
      </trkpt>
      <trkpt lat="44.60865" lon="3.04217">
        <ele>1306.17807</ele>
        <time>2021-06-12T20:28:46.879Z</time>
      </trkpt>
      <trkpt lat="44.60856" lon="3.04243">
        <ele>1305.550546</ele>
        <time>2021-06-12T20:28:56.961Z</time>
      </trkpt>
      <trkpt lat="44.60854" lon="3.04255">
        <ele>1305.376083</ele>
        <time>2021-06-12T20:29:01.022Z</time>
      </trkpt>
      <trkpt lat="44.6088" lon="3.04325">
        <ele>1304.345164</ele>
        <time>2021-06-12T20:29:29.223Z</time>
      </trkpt>
      <trkpt lat="44.60886" lon="3.04352">
        <ele>1303.984728</ele>
        <time>2021-06-12T20:29:39.105Z</time>
      </trkpt>
      <trkpt lat="44.60889" lon="3.04447">
        <ele>1302.74188</ele>
        <time>2021-06-12T20:30:13.420Z</time>
      </trkpt>
      <trkpt lat="44.60886" lon="3.04505">
        <ele>1301.995255</ele>
        <time>2021-06-12T20:30:34.475Z</time>
      </trkpt>
      <trkpt lat="44.60888" lon="3.04542">
        <ele>1301.518739</ele>
        <time>2021-06-12T20:30:48.259Z</time>
      </trkpt>
      <trkpt lat="44.60898" lon="3.04594">
        <ele>1300.841724</ele>
        <time>2021-06-12T20:31:07.771Z</time>
      </trkpt>
      <trkpt lat="44.609" lon="3.04687">
        <ele>1299.672899</ele>
        <time>2021-06-12T20:31:41.098Z</time>
      </trkpt>
      <trkpt lat="44.6094" lon="3.04774">
        <ele>1297.569599</ele>
        <time>2021-06-12T20:32:17.324Z</time>
      </trkpt>
      <trkpt lat="44.61004" lon="3.04865">
        <ele>1293.958315</ele>
        <time>2021-06-12T20:33:01.137Z</time>
      </trkpt>
      <trkpt lat="44.61055" lon="3.04926">
        <ele>1291.092095</ele>
        <time>2021-06-12T20:33:31.980Z</time>
      </trkpt>
      <trkpt lat="44.61064" lon="3.04944">
        <ele>1290.197401</ele>
        <time>2021-06-12T20:33:39.379Z</time>
      </trkpt>
      <trkpt lat="44.61086" lon="3.05024">
        <ele>1286.810527</ele>
        <time>2021-06-12T20:34:07.362Z</time>
      </trkpt>
      <trkpt lat="44.61102" lon="3.05045">
        <ele>1285.593687</ele>
        <time>2021-06-12T20:34:17.374Z</time>
      </trkpt>
      <trkpt lat="44.61119" lon="3.05051">
        <ele>1284.629236</ele>
        <time>2021-06-12T20:34:25.306Z</time>
      </trkpt>
      <trkpt lat="44.61174" lon="3.05044">
        <ele>1281.6022</ele>
        <time>2021-06-12T20:34:50.689Z</time>
      </trkpt>
      <trkpt lat="44.61199" lon="3.0505">
        <ele>1280.325892</ele>
        <time>2021-06-12T20:35:02.489Z</time>
      </trkpt>
      <trkpt lat="44.61247" lon="3.05077">
        <ele>1277.750527</ele>
        <time>2021-06-12T20:35:26.471Z</time>
      </trkpt>
      <trkpt lat="44.61302" lon="3.05126">
        <ele>1274.53425</ele>
        <time>2021-06-12T20:35:57.246Z</time>
      </trkpt>
      <trkpt lat="44.61307" lon="3.05133">
        <ele>1274.172528</ele>
        <time>2021-06-12T20:36:00.599Z</time>
      </trkpt>
      <trkpt lat="44.61347" lon="3.05144">
        <ele>1272.351833</ele>
        <time>2021-06-12T20:36:19.495Z</time>
      </trkpt>
      <trkpt lat="44.61381" lon="3.05152">
        <ele>1270.989124</ele>
        <time>2021-06-12T20:36:35.874Z</time>
      </trkpt>
      <trkpt lat="44.61454" lon="3.05207">
        <ele>1267.746787</ele>
        <time>2021-06-12T20:37:15.478Z</time>
      </trkpt>
      <trkpt lat="44.6146" lon="3.05208">
        <ele>1267.520463</ele>
        <time>2021-06-12T20:37:18.228Z</time>
      </trkpt>
      <trkpt lat="44.61475" lon="3.0521">
        <ele>1266.913491</ele>
        <time>2021-06-12T20:37:25.548Z</time>
      </trkpt>
      <trkpt lat="44.6155" lon="3.05243">
        <ele>1264.274971</ele>
        <time>2021-06-12T20:38:03.625Z</time>
      </trkpt>
      <trkpt lat="44.61569" lon="3.05245">
        <ele>1263.68096</ele>
        <time>2021-06-12T20:38:12.864Z</time>
      </trkpt>
      <trkpt lat="44.61589" lon="3.0524">
        <ele>1263.044698</ele>
        <time>2021-06-12T20:38:22.801Z</time>
      </trkpt>
      <trkpt lat="44.61615" lon="3.0522">
        <ele>1262.121248</ele>
        <time>2021-06-12T20:38:37.079Z</time>
      </trkpt>
      <trkpt lat="44.61622" lon="3.05196">
        <ele>1261.550719</ele>
        <time>2021-06-12T20:38:46.258Z</time>
      </trkpt>
      <trkpt lat="44.61615" lon="3.05108">
        <ele>1259.472081</ele>
        <time>2021-06-12T20:39:16.851Z</time>
      </trkpt>
      <trkpt lat="44.6163" lon="3.0507">
        <ele>1258.384595</ele>
        <time>2021-06-12T20:39:31.711Z</time>
      </trkpt>
      <trkpt lat="44.61672" lon="3.05014">
        <ele>1256.331044</ele>
        <time>2021-06-12T20:39:59.524Z</time>
      </trkpt>
      <trkpt lat="44.61685" lon="3.05001">
        <ele>1255.796507</ele>
        <time>2021-06-12T20:40:06.562Z</time>
      </trkpt>
      <trkpt lat="44.61696" lon="3.04996">
        <ele>1255.385988</ele>
        <time>2021-06-12T20:40:12.033Z</time>
      </trkpt>
      <trkpt lat="44.61708" lon="3.04993">
        <ele>1254.938326</ele>
        <time>2021-06-12T20:40:18.549Z</time>
      </trkpt>
      <trkpt lat="44.61746" lon="3.05004">
        <ele>1253.827846</ele>
        <time>2021-06-12T20:40:37.449Z</time>
      </trkpt>
      <trkpt lat="44.61804" lon="3.05028">
        <ele>1253.009325</ele>
        <time>2021-06-12T20:41:06.964Z</time>
      </trkpt>
      <trkpt lat="44.61822" lon="3.05034">
        <ele>1252.766382</ele>
        <time>2021-06-12T20:41:15.970Z</time>
      </trkpt>
      <trkpt lat="44.61825" lon="3.05035">
        <ele>1252.726268</ele>
        <time>2021-06-12T20:41:17.394Z</time>
      </trkpt>
      <trkpt lat="44.61828" lon="3.05036">
        <ele>1252.68067</ele>
        <time>2021-06-12T20:41:19.015Z</time>
      </trkpt>
      <trkpt lat="44.61842" lon="3.0504">
        <ele>1252.492793</ele>
        <time>2021-06-12T20:41:25.859Z</time>
      </trkpt>
      <trkpt lat="44.61844" lon="3.05041">
        <ele>1252.463404</ele>
        <time>2021-06-12T20:41:28.000Z</time>
      </trkpt>
      <trkpt lat="44.61856" lon="3.05046">
        <ele>1252.294091</ele>
        <time>2021-06-12T20:41:34.268Z</time>
      </trkpt>
      <trkpt lat="44.62185" lon="3.05171">
        <ele>1254.694074</ele>
        <time>2021-06-12T20:44:39.981Z</time>
      </trkpt>
      <trkpt lat="44.62193" lon="3.05178">
        <ele>1254.811889</ele>
        <time>2021-06-12T20:44:45.830Z</time>
      </trkpt>
      <trkpt lat="44.62193" lon="3.05178">
        <ele>1254.811889</ele>
        <time>2021-06-12T20:44:45.861Z</time>
      </trkpt>
      <trkpt lat="44.62193" lon="3.05178">
        <ele>1254.811889</ele>
        <time>2021-06-12T20:44:46.008Z</time>
      </trkpt>
      <trkpt lat="44.62214" lon="3.05206">
        <ele>1255.150281</ele>
        <time>2021-06-12T20:44:59.551Z</time>
      </trkpt>
      <trkpt lat="44.62235" lon="3.05245">
        <ele>1255.5499</ele>
        <time>2021-06-12T20:45:15.887Z</time>
      </trkpt>
      <trkpt lat="44.62286" lon="3.05361">
        <ele>1255.053548</ele>
        <time>2021-06-12T20:45:59.763Z</time>
      </trkpt>
      <trkpt lat="44.62301" lon="3.05381">
        <ele>1254.947654</ele>
        <time>2021-06-12T20:46:08.681Z</time>
      </trkpt>
      <trkpt lat="44.6231" lon="3.05402">
        <ele>1254.857836</ele>
        <time>2021-06-12T20:46:16.306Z</time>
      </trkpt>
      <trkpt lat="44.62354" lon="3.05456">
        <ele>1254.202651</ele>
        <time>2021-06-12T20:46:41.022Z</time>
      </trkpt>
      <trkpt lat="44.62419" lon="3.05533">
        <ele>1251.639525</ele>
        <time>2021-06-12T20:47:16.186Z</time>
      </trkpt>
      <trkpt lat="44.62455" lon="3.05557">
        <ele>1250.442908</ele>
        <time>2021-06-12T20:47:32.299Z</time>
      </trkpt>
      <trkpt lat="44.62547" lon="3.05597">
        <ele>1247.832593</ele>
        <time>2021-06-12T20:48:12.050Z</time>
      </trkpt>
      <trkpt lat="44.62637" lon="3.05636">
        <ele>1245.52034</ele>
        <time>2021-06-12T20:48:51.608Z</time>
      </trkpt>
      <trkpt lat="44.62826" lon="3.05738">
        <ele>1241.93261</ele>
        <time>2021-06-12T20:50:18.459Z</time>
      </trkpt>
      <trkpt lat="44.62922" lon="3.05797">
        <ele>1238.837322</ele>
        <time>2021-06-12T20:51:02.307Z</time>
      </trkpt>
      <trkpt lat="44.62953" lon="3.0581">
        <ele>1237.869655</ele>
        <time>2021-06-12T20:51:15.407Z</time>
      </trkpt>
      <trkpt lat="44.6302" lon="3.0582">
        <ele>1235.754753</ele>
        <time>2021-06-12T20:51:43.117Z</time>
      </trkpt>
      <trkpt lat="44.63028" lon="3.05824">
        <ele>1235.485596</ele>
        <time>2021-06-12T20:51:46.122Z</time>
      </trkpt>
      <trkpt lat="44.63059" lon="3.05825">
        <ele>1234.441837</ele>
        <time>2021-06-12T20:51:58.960Z</time>
      </trkpt>
      <trkpt lat="44.63116" lon="3.05835">
        <ele>1232.51184</ele>
        <time>2021-06-12T20:52:22.394Z</time>
      </trkpt>
      <trkpt lat="44.63148" lon="3.05855">
        <ele>1231.33078</ele>
        <time>2021-06-12T20:52:36.743Z</time>
      </trkpt>
      <trkpt lat="44.63168" lon="3.05869">
        <ele>1230.587489</ele>
        <time>2021-06-12T20:52:45.676Z</time>
      </trkpt>
      <trkpt lat="44.63236" lon="3.05917">
        <ele>1229.032775</ele>
        <time>2021-06-12T20:53:18.332Z</time>
      </trkpt>
      <trkpt lat="44.63253" lon="3.0593">
        <ele>1228.675772</ele>
        <time>2021-06-12T20:53:26.526Z</time>
      </trkpt>
      <trkpt lat="44.635" lon="3.06109">
        <ele>1224.15182</ele>
        <time>2021-06-12T20:55:25.862Z</time>
      </trkpt>
      <trkpt lat="44.6355" lon="3.06144">
        <ele>1223.030948</ele>
        <time>2021-06-12T20:55:49.416Z</time>
      </trkpt>
      <trkpt lat="44.63591" lon="3.06172">
        <ele>1222.114233</ele>
        <time>2021-06-12T20:56:08.513Z</time>
      </trkpt>
      <trkpt lat="44.63793" lon="3.06272">
        <ele>1218.480159</ele>
        <time>2021-06-12T20:57:39.424Z</time>
      </trkpt>
      <trkpt lat="44.63811" lon="3.06285">
        <ele>1218.182298</ele>
        <time>2021-06-12T20:57:47.848Z</time>
      </trkpt>
      <trkpt lat="44.63823" lon="3.06301">
        <ele>1217.93009</ele>
        <time>2021-06-12T20:57:55.394Z</time>
      </trkpt>
      <trkpt lat="44.63847" lon="3.06347">
        <ele>1218.095106</ele>
        <time>2021-06-12T20:58:13.783Z</time>
      </trkpt>
      <trkpt lat="44.6386" lon="3.06358">
        <ele>1218.177752</ele>
        <time>2021-06-12T20:58:20.383Z</time>
      </trkpt>
      <trkpt lat="44.63977" lon="3.06418">
        <ele>1218.871825</ele>
        <time>2021-06-12T20:59:18.269Z</time>
      </trkpt>
      <trkpt lat="44.64038" lon="3.06465">
        <ele>1218.484714</ele>
        <time>2021-06-12T20:59:49.407Z</time>
      </trkpt>
      <trkpt lat="44.64046" lon="3.06471">
        <ele>1218.428497</ele>
        <time>2021-06-12T20:59:53.749Z</time>
      </trkpt>
      <trkpt lat="44.64057" lon="3.06476">
        <ele>1218.359897</ele>
        <time>2021-06-12T20:59:58.709Z</time>
      </trkpt>
      <trkpt lat="44.64079" lon="3.06482">
        <ele>1218.232391</ele>
        <time>2021-06-12T21:00:08.256Z</time>
      </trkpt>
      <trkpt lat="44.64154" lon="3.06485">
        <ele>1217.737086</ele>
        <time>2021-06-12T21:00:40.469Z</time>
      </trkpt>
      <trkpt lat="44.64226" lon="3.06464">
        <ele>1216.621254</ele>
        <time>2021-06-12T21:01:11.602Z</time>
      </trkpt>
      <trkpt lat="44.64235" lon="3.06462">
        <ele>1216.482047</ele>
        <time>2021-06-12T21:01:15.384Z</time>
      </trkpt>
      <trkpt lat="44.64259" lon="3.06458">
        <ele>1216.118381</ele>
        <time>2021-06-12T21:01:25.788Z</time>
      </trkpt>
      <trkpt lat="44.6428" lon="3.06451">
        <ele>1215.787632</ele>
        <time>2021-06-12T21:01:35.148Z</time>
      </trkpt>
      <trkpt lat="44.6432" lon="3.06438">
        <ele>1215.163212</ele>
        <time>2021-06-12T21:01:53.070Z</time>
      </trkpt>
      <trkpt lat="44.64333" lon="3.06436">
        <ele>1215.101239</ele>
        <time>2021-06-12T21:01:58.583Z</time>
      </trkpt>
      <trkpt lat="44.64349" lon="3.06435">
        <ele>1215.106214</ele>
        <time>2021-06-12T21:02:05.388Z</time>
      </trkpt>
      <trkpt lat="44.6437" lon="3.06435">
        <ele>1215.113055</ele>
        <time>2021-06-12T21:02:14.932Z</time>
      </trkpt>
      <trkpt lat="44.64465" lon="3.06449">
        <ele>1215.143291</ele>
        <time>2021-06-12T21:02:57.705Z</time>
      </trkpt>
      <trkpt lat="44.64547" lon="3.06448">
        <ele>1215.342159</ele>
        <time>2021-06-12T21:03:34.802Z</time>
      </trkpt>
      <trkpt lat="44.64569" lon="3.06455">
        <ele>1215.440782</ele>
        <time>2021-06-12T21:03:45.137Z</time>
      </trkpt>
      <trkpt lat="44.64704" lon="3.06515">
        <ele>1215.779636</ele>
        <time>2021-06-12T21:04:49.243Z</time>
      </trkpt>
      <trkpt lat="44.64739" lon="3.06532">
        <ele>1215.572741</ele>
        <time>2021-06-12T21:05:05.444Z</time>
      </trkpt>
      <trkpt lat="44.64757" lon="3.06538">
        <ele>1215.465372</ele>
        <time>2021-06-12T21:05:13.857Z</time>
      </trkpt>
      <trkpt lat="44.64763" lon="3.06546">
        <ele>1215.420725</ele>
        <time>2021-06-12T21:05:17.932Z</time>
      </trkpt>
      <trkpt lat="44.64785" lon="3.06554">
        <ele>1215.291162</ele>
        <time>2021-06-12T21:05:29.809Z</time>
      </trkpt>
      <trkpt lat="44.64774" lon="3.06577">
        <ele>1215.176986</ele>
        <time>2021-06-12T21:05:40.164Z</time>
      </trkpt>
      <trkpt lat="44.64748" lon="3.06614">
        <ele>1214.970731</ele>
        <time>2021-06-12T21:05:58.884Z</time>
      </trkpt>
      <trkpt lat="44.64658" lon="3.06828">
        <ele>1209.696531</ele>
        <time>2021-06-12T21:07:26.132Z</time>
      </trkpt>
      <trkpt lat="44.64639" lon="3.06891">
        <ele>1206.591631</ele>
        <time>2021-06-12T21:07:48.202Z</time>
      </trkpt>
      <trkpt lat="44.6462" lon="3.0693">
        <ele>1204.074323</ele>
        <time>2021-06-12T21:08:03.028Z</time>
      </trkpt>
      <trkpt lat="44.64618" lon="3.06943">
        <ele>1203.371873</ele>
        <time>2021-06-12T21:08:07.146Z</time>
      </trkpt>
      <trkpt lat="44.64622" lon="3.06954">
        <ele>1202.711397</ele>
        <time>2021-06-12T21:08:10.920Z</time>
      </trkpt>
      <trkpt lat="44.6464" lon="3.06983">
        <ele>1200.653328</ele>
        <time>2021-06-12T21:08:22.789Z</time>
      </trkpt>
      <trkpt lat="44.64647" lon="3.07003">
        <ele>1199.487771</ele>
        <time>2021-06-12T21:08:29.634Z</time>
      </trkpt>
      <trkpt lat="44.64646" lon="3.07028">
        <ele>1198.159038</ele>
        <time>2021-06-12T21:08:37.416Z</time>
      </trkpt>
      <trkpt lat="44.64642" lon="3.07036">
        <ele>1197.657316</ele>
        <time>2021-06-12T21:08:40.479Z</time>
      </trkpt>
      <trkpt lat="44.64631" lon="3.07058">
        <ele>1196.208182</ele>
        <time>2021-06-12T21:08:48.904Z</time>
      </trkpt>
      <trkpt lat="44.64631" lon="3.07058">
        <ele>1196.208182</ele>
        <time>2021-06-12T21:08:48.904Z</time>
      </trkpt>
      <trkpt lat="44.6463" lon="3.07061">
        <ele>1196.039497</ele>
        <time>2021-06-12T21:08:49.817Z</time>
      </trkpt>
      <trkpt lat="44.64641" lon="3.07071">
        <ele>1195.517656</ele>
        <time>2021-06-12T21:09:00.520Z</time>
      </trkpt>
      <trkpt lat="44.64651" lon="3.07091">
        <ele>1194.975421</ele>
        <time>2021-06-12T21:09:12.960Z</time>
      </trkpt>
      <trkpt lat="44.64652" lon="3.07096">
        <ele>1194.860353</ele>
        <time>2021-06-12T21:09:15.505Z</time>
      </trkpt>
      <trkpt lat="44.64652" lon="3.07097">
        <ele>1194.816582</ele>
        <time>2021-06-12T21:09:16.455Z</time>
      </trkpt>
      <trkpt lat="44.64647" lon="3.07116">
        <ele>1194.362435</ele>
        <time>2021-06-12T21:09:27.586Z</time>
      </trkpt>
      <trkpt lat="44.64641" lon="3.07118">
        <ele>1194.164373</ele>
        <time>2021-06-12T21:09:31.950Z</time>
      </trkpt>
      <trkpt lat="44.64636" lon="3.07126">
        <ele>1193.924133</ele>
        <time>2021-06-12T21:09:36.229Z</time>
      </trkpt>
      <trkpt lat="44.6463" lon="3.07133">
        <ele>1193.669868</ele>
        <time>2021-06-12T21:09:40.153Z</time>
      </trkpt>
      <trkpt lat="44.64625" lon="3.07132">
        <ele>1193.530257</ele>
        <time>2021-06-12T21:09:44.352Z</time>
      </trkpt>
      <trkpt lat="44.6461" lon="3.07122">
        <ele>1192.978887</ele>
        <time>2021-06-12T21:09:58.314Z</time>
      </trkpt>
      <trkpt lat="44.64606" lon="3.07121">
        <ele>1192.870092</ele>
        <time>2021-06-12T21:10:01.406Z</time>
      </trkpt>
      <trkpt lat="44.64606" lon="3.07129">
        <ele>1192.685247</ele>
        <time>2021-06-12T21:10:04.107Z</time>
      </trkpt>
      <trkpt lat="44.646" lon="3.0712">
        <ele>1192.405112</ele>
        <time>2021-06-12T21:10:08.076Z</time>
      </trkpt>
      <trkpt lat="44.64599" lon="3.07113">
        <ele>1192.248408</ele>
        <time>2021-06-12T21:10:10.952Z</time>
      </trkpt>
      <trkpt lat="44.64599" lon="3.07092">
        <ele>1191.772008</ele>
        <time>2021-06-12T21:10:18.409Z</time>
      </trkpt>
      <trkpt lat="44.64602" lon="3.07087">
        <ele>1191.625199</ele>
        <time>2021-06-12T21:10:21.130Z</time>
      </trkpt>
      <trkpt lat="44.64599" lon="3.07092">
        <ele>1191.478389</ele>
        <time>2021-06-12T21:10:23.343Z</time>
      </trkpt>
      <trkpt lat="44.64599" lon="3.07113">
        <ele>1191.001989</ele>
        <time>2021-06-12T21:10:31.751Z</time>
      </trkpt>
      <trkpt lat="44.646" lon="3.0712">
        <ele>1190.845286</ele>
        <time>2021-06-12T21:10:34.142Z</time>
      </trkpt>
      <trkpt lat="44.64606" lon="3.07129">
        <ele>1190.565151</ele>
        <time>2021-06-12T21:10:40.053Z</time>
      </trkpt>
      <trkpt lat="44.64606" lon="3.07121">
        <ele>1190.380305</ele>
        <time>2021-06-12T21:10:43.625Z</time>
      </trkpt>
      <trkpt lat="44.6461" lon="3.07122">
        <ele>1190.27151</ele>
        <time>2021-06-12T21:10:46.441Z</time>
      </trkpt>
      <trkpt lat="44.64625" lon="3.07132">
        <ele>1190.545886</ele>
        <time>2021-06-12T21:11:02.878Z</time>
      </trkpt>
      <trkpt lat="44.6463" lon="3.07133">
        <ele>1190.684974</ele>
        <time>2021-06-12T21:11:06.609Z</time>
      </trkpt>
      <trkpt lat="44.64636" lon="3.07126">
        <ele>1190.938286</ele>
        <time>2021-06-12T21:11:14.202Z</time>
      </trkpt>
      <trkpt lat="44.64641" lon="3.07118">
        <ele>1191.177626</ele>
        <time>2021-06-12T21:11:19.023Z</time>
      </trkpt>
      <trkpt lat="44.64647" lon="3.07116">
        <ele>1191.374945</ele>
        <time>2021-06-12T21:11:26.526Z</time>
      </trkpt>
      <trkpt lat="44.64652" lon="3.07097">
        <ele>1191.827391</ele>
        <time>2021-06-12T21:11:39.709Z</time>
      </trkpt>
      <trkpt lat="44.64652" lon="3.07096">
        <ele>1191.870999</ele>
        <time>2021-06-12T21:11:42.589Z</time>
      </trkpt>
      <trkpt lat="44.64651" lon="3.07091">
        <ele>1191.985635</ele>
        <time>2021-06-12T21:11:47.991Z</time>
      </trkpt>
      <trkpt lat="44.64641" lon="3.07071">
        <ele>1192.525839</ele>
        <time>2021-06-12T21:12:06.401Z</time>
      </trkpt>
      <trkpt lat="44.6463" lon="3.07061">
        <ele>1192.963697</ele>
        <time>2021-06-12T21:12:18.957Z</time>
      </trkpt>
      <trkpt lat="44.64631" lon="3.07058">
        <ele>1193.035848</ele>
        <time>2021-06-12T21:12:21.188Z</time>
      </trkpt>
      <trkpt lat="44.64631" lon="3.07058">
        <ele>1193.035848</ele>
        <time>2021-06-12T21:12:21.188Z</time>
      </trkpt>
      <trkpt lat="44.64642" lon="3.07036">
        <ele>1193.655673</ele>
        <time>2021-06-12T21:12:33.651Z</time>
      </trkpt>
      <trkpt lat="44.64646" lon="3.07028">
        <ele>1193.870271</ele>
        <time>2021-06-12T21:12:37.155Z</time>
      </trkpt>
      <trkpt lat="44.64647" lon="3.07003">
        <ele>1194.438598</ele>
        <time>2021-06-12T21:12:48.532Z</time>
      </trkpt>
      <trkpt lat="44.64654" lon="3.07017">
        <ele>1194.832646</ele>
        <time>2021-06-12T21:12:55.657Z</time>
      </trkpt>
      <trkpt lat="44.64662" lon="3.07034">
        <ele>1195.299064</ele>
        <time>2021-06-12T21:13:04.154Z</time>
      </trkpt>
      <trkpt lat="44.64693" lon="3.0706">
        <ele>1195.440212</ele>
        <time>2021-06-12T21:13:26.120Z</time>
      </trkpt>
      <trkpt lat="44.64747" lon="3.07077">
        <ele>1194.087457</ele>
        <time>2021-06-12T21:13:55.885Z</time>
      </trkpt>
      <trkpt lat="44.6484" lon="3.07126">
        <ele>1191.69409</ele>
        <time>2021-06-12T21:14:41.836Z</time>
      </trkpt>
      <trkpt lat="44.64858" lon="3.07128">
        <ele>1190.717821</ele>
        <time>2021-06-12T21:14:50.361Z</time>
      </trkpt>
      <trkpt lat="44.6486" lon="3.07129">
        <ele>1190.561866</ele>
        <time>2021-06-12T21:14:51.229Z</time>
      </trkpt>
      <trkpt lat="44.64872" lon="3.07134">
        <ele>1189.641619</ele>
        <time>2021-06-12T21:14:56.975Z</time>
      </trkpt>
      <trkpt lat="44.6489" lon="3.07148">
        <ele>1188.125524</ele>
        <time>2021-06-12T21:15:06.209Z</time>
      </trkpt>
      <trkpt lat="44.64883" lon="3.07166">
        <ele>1187.055034</ele>
        <time>2021-06-12T21:15:12.557Z</time>
      </trkpt>
      <trkpt lat="44.64853" lon="3.07206">
        <ele>1183.963638</ele>
        <time>2021-06-12T21:15:31.046Z</time>
      </trkpt>
      <trkpt lat="44.64828" lon="3.07225">
        <ele>1181.906693</ele>
        <time>2021-06-12T21:15:43.216Z</time>
      </trkpt>
      <trkpt lat="44.64803" lon="3.07238">
        <ele>1179.901788</ele>
        <time>2021-06-12T21:15:54.956Z</time>
      </trkpt>
      <trkpt lat="44.64793" lon="3.0725">
        <ele>1178.944148</ele>
        <time>2021-06-12T21:16:00.727Z</time>
      </trkpt>
      <trkpt lat="44.64792" lon="3.0726">
        <ele>1178.452753</ele>
        <time>2021-06-12T21:16:03.516Z</time>
      </trkpt>
      <trkpt lat="44.64792" lon="3.07279">
        <ele>1177.551695</ele>
        <time>2021-06-12T21:16:09.752Z</time>
      </trkpt>
      <trkpt lat="44.64796" lon="3.07291">
        <ele>1176.966089</ele>
        <time>2021-06-12T21:16:13.779Z</time>
      </trkpt>
      <trkpt lat="44.64907" lon="3.07516">
        <ele>1165.440522</ele>
        <time>2021-06-12T21:17:29.467Z</time>
      </trkpt>
      <trkpt lat="44.64937" lon="3.07628">
        <ele>1162.111102</ele>
        <time>2021-06-12T21:18:04.105Z</time>
      </trkpt>
      <trkpt lat="44.64954" lon="3.07664">
        <ele>1160.899469</ele>
        <time>2021-06-12T21:18:16.924Z</time>
      </trkpt>
      <trkpt lat="44.64964" lon="3.07703">
        <ele>1159.776164</ele>
        <time>2021-06-12T21:18:29.358Z</time>
      </trkpt>
      <trkpt lat="44.64991" lon="3.07836">
        <ele>1158.205887</ele>
        <time>2021-06-12T21:19:11.340Z</time>
      </trkpt>
      <trkpt lat="44.64993" lon="3.07859">
        <ele>1157.943635</ele>
        <time>2021-06-12T21:19:18.413Z</time>
      </trkpt>
      <trkpt lat="44.65001" lon="3.0793">
        <ele>1157.124425</ele>
        <time>2021-06-12T21:19:40.677Z</time>
      </trkpt>
      <trkpt lat="44.65013" lon="3.07988">
        <ele>1156.668108</ele>
        <time>2021-06-12T21:19:59.209Z</time>
      </trkpt>
      <trkpt lat="44.65031" lon="3.08043">
        <ele>1156.300864</ele>
        <time>2021-06-12T21:20:17.943Z</time>
      </trkpt>
      <trkpt lat="44.65032" lon="3.08058">
        <ele>1156.209085</ele>
        <time>2021-06-12T21:20:22.627Z</time>
      </trkpt>
      <trkpt lat="44.65" lon="3.08149">
        <ele>1155.595443</ele>
        <time>2021-06-12T21:20:54.051Z</time>
      </trkpt>
      <trkpt lat="44.65002" lon="3.08163">
        <ele>1155.507062</ele>
        <time>2021-06-12T21:20:58.630Z</time>
      </trkpt>
      <trkpt lat="44.65018" lon="3.08183">
        <ele>1155.360087</ele>
        <time>2021-06-12T21:21:08.010Z</time>
      </trkpt>
      <trkpt lat="44.65068" lon="3.08264">
        <ele>1155.064257</ele>
        <time>2021-06-12T21:21:41.534Z</time>
      </trkpt>
      <trkpt lat="44.65099" lon="3.08437">
        <ele>1154.605251</ele>
        <time>2021-06-12T21:22:37.696Z</time>
      </trkpt>
      <trkpt lat="44.65118" lon="3.08486">
        <ele>1154.494044</ele>
        <time>2021-06-12T21:22:55.280Z</time>
      </trkpt>
      <trkpt lat="44.65284" lon="3.08669">
        <ele>1153.676797</ele>
        <time>2021-06-12T21:24:28.445Z</time>
      </trkpt>
      <trkpt lat="44.65357" lon="3.08706">
        <ele>1153.291357</ele>
        <time>2021-06-12T21:25:02.009Z</time>
      </trkpt>
      <trkpt lat="44.65379" lon="3.08727">
        <ele>1153.575898</ele>
        <time>2021-06-12T21:25:13.606Z</time>
      </trkpt>
      <trkpt lat="44.65451" lon="3.08837">
        <ele>1154.77761</ele>
        <time>2021-06-12T21:26:02.452Z</time>
      </trkpt>
      <trkpt lat="44.65477" lon="3.08863">
        <ele>1155.1368</ele>
        <time>2021-06-12T21:26:17.981Z</time>
      </trkpt>
      <trkpt lat="44.65491" lon="3.08867">
        <ele>1155.295748</ele>
        <time>2021-06-12T21:26:25.570Z</time>
      </trkpt>
      <trkpt lat="44.65478" lon="3.08841">
        <ele>1156.25574</ele>
        <time>2021-06-12T21:26:36.470Z</time>
      </trkpt>
      <trkpt lat="44.65482" lon="3.08836">
        <ele>1156.487212</ele>
        <time>2021-06-12T21:26:40.427Z</time>
      </trkpt>
      <trkpt lat="44.655" lon="3.08802">
        <ele>1157.873094</ele>
        <time>2021-06-12T21:26:58.474Z</time>
      </trkpt>
      <trkpt lat="44.65518" lon="3.08787">
        <ele>1158.831816</ele>
        <time>2021-06-12T21:27:12.116Z</time>
      </trkpt>
      <trkpt lat="44.65521" lon="3.08753">
        <ele>1159.922077</ele>
        <time>2021-06-12T21:27:27.369Z</time>
      </trkpt>
      <trkpt lat="44.65528" lon="3.08732">
        <ele>1160.708884</ele>
        <time>2021-06-12T21:27:38.587Z</time>
      </trkpt>
      <trkpt lat="44.65577" lon="3.086">
        <ele>1165.261227</ele>
        <time>2021-06-12T21:28:47.869Z</time>
      </trkpt>
      <trkpt lat="44.65594" lon="3.08525">
        <ele>1167.501243</ele>
        <time>2021-06-12T21:29:23.154Z</time>
      </trkpt>
      <trkpt lat="44.65644" lon="3.0819">
        <ele>1175.053449</ele>
        <time>2021-06-12T21:31:45.557Z</time>
      </trkpt>
      <trkpt lat="44.6565" lon="3.0812">
        <ele>1176.243235</ele>
        <time>2021-06-12T21:32:13.873Z</time>
      </trkpt>
      <trkpt lat="44.65675" lon="3.08018">
        <ele>1177.95253</ele>
        <time>2021-06-12T21:32:57.377Z</time>
      </trkpt>
      <trkpt lat="44.6567" lon="3.07928">
        <ele>1179.370665</ele>
        <time>2021-06-12T21:33:34.108Z</time>
      </trkpt>
      <trkpt lat="44.65657" lon="3.07896">
        <ele>1180.287965</ele>
        <time>2021-06-12T21:33:49.442Z</time>
      </trkpt>
      <trkpt lat="44.6565" lon="3.07878">
        <ele>1180.824783</ele>
        <time>2021-06-12T21:33:57.768Z</time>
      </trkpt>
      <trkpt lat="44.65652" lon="3.07846">
        <ele>1181.683334</ele>
        <time>2021-06-12T21:34:09.193Z</time>
      </trkpt>
      <trkpt lat="44.65654" lon="3.07813">
        <ele>1182.566256</ele>
        <time>2021-06-12T21:34:21.196Z</time>
      </trkpt>
      <trkpt lat="44.65654" lon="3.07724">
        <ele>1184.962144</ele>
        <time>2021-06-12T21:34:54.253Z</time>
      </trkpt>
      <trkpt lat="44.65681" lon="3.07624">
        <ele>1188.992121</ele>
        <time>2021-06-12T21:35:36.160Z</time>
      </trkpt>
      <trkpt lat="44.65711" lon="3.07556">
        <ele>1192.673452</ele>
        <time>2021-06-12T21:36:09.380Z</time>
      </trkpt>
      <trkpt lat="44.65729" lon="3.07528">
        <ele>1194.446595</ele>
        <time>2021-06-12T21:36:25.076Z</time>
      </trkpt>
      <trkpt lat="44.6575" lon="3.07471">
        <ele>1197.458332</ele>
        <time>2021-06-12T21:36:53.796Z</time>
      </trkpt>
      <trkpt lat="44.65758" lon="3.07428">
        <ele>1200.050574</ele>
        <time>2021-06-12T21:37:13.282Z</time>
      </trkpt>
      <trkpt lat="44.65759" lon="3.07424">
        <ele>1200.264604</ele>
        <time>2021-06-12T21:37:15.442Z</time>
      </trkpt>
      <trkpt lat="44.65762" lon="3.07382">
        <ele>1202.912611</ele>
        <time>2021-06-12T21:37:34.195Z</time>
      </trkpt>
      <trkpt lat="44.65762" lon="3.07382">
        <ele>1202.912611</ele>
        <time>2021-06-12T21:37:34.423Z</time>
      </trkpt>
      <trkpt lat="44.65764" lon="3.07371">
        <ele>1203.648355</ele>
        <time>2021-06-12T21:37:40.645Z</time>
      </trkpt>
      <trkpt lat="44.65765" lon="3.07366">
        <ele>1203.958141</ele>
        <time>2021-06-12T21:37:43.112Z</time>
      </trkpt>
      <trkpt lat="44.65767" lon="3.07352">
        <ele>1204.867142</ele>
        <time>2021-06-12T21:37:50.210Z</time>
      </trkpt>
      <trkpt lat="44.65775" lon="3.07332">
        <ele>1206.31226</ele>
        <time>2021-06-12T21:38:00.169Z</time>
      </trkpt>
      <trkpt lat="44.65782" lon="3.07323">
        <ele>1207.193293</ele>
        <time>2021-06-12T21:38:07.763Z</time>
      </trkpt>
      <trkpt lat="44.65786" lon="3.07314">
        <ele>1207.860877</ele>
        <time>2021-06-12T21:38:13.234Z</time>
      </trkpt>
      <trkpt lat="44.65788" lon="3.07289">
        <ele>1209.424854</ele>
        <time>2021-06-12T21:38:24.217Z</time>
      </trkpt>
      <trkpt lat="44.65788" lon="3.07262">
        <ele>1211.134038</ele>
        <time>2021-06-12T21:38:38.862Z</time>
      </trkpt>
      <trkpt lat="44.65783" lon="3.07249">
        <ele>1212.019975</ele>
        <time>2021-06-12T21:38:44.777Z</time>
      </trkpt>
      <trkpt lat="44.65761" lon="3.07259">
        <ele>1214.062291</ele>
        <time>2021-06-12T21:39:05.087Z</time>
      </trkpt>
      <trkpt lat="44.65723" lon="3.07272">
        <ele>1216.992978</ele>
        <time>2021-06-12T21:39:35.384Z</time>
      </trkpt>
      <trkpt lat="44.65698" lon="3.07259">
        <ele>1218.973427</ele>
        <time>2021-06-12T21:39:55.224Z</time>
      </trkpt>
      <trkpt lat="44.65656" lon="3.07253">
        <ele>1222.151324</ele>
        <time>2021-06-12T21:40:27.273Z</time>
      </trkpt>
      <trkpt lat="44.6564" lon="3.07243">
        <ele>1223.449136</ele>
        <time>2021-06-12T21:40:39.461Z</time>
      </trkpt>
      <trkpt lat="44.65627" lon="3.072">
        <ele>1225.927397</ele>
        <time>2021-06-12T21:41:02.779Z</time>
      </trkpt>
      <trkpt lat="44.65619" lon="3.07195">
        <ele>1226.589537</ele>
        <time>2021-06-12T21:41:08.531Z</time>
      </trkpt>
      <trkpt lat="44.65607" lon="3.0717">
        <ele>1227.509577</ele>
        <time>2021-06-12T21:41:22.404Z</time>
      </trkpt>
      <trkpt lat="44.65577" lon="3.0717">
        <ele>1227.837308</ele>
        <time>2021-06-12T21:41:41.095Z</time>
      </trkpt>
      <trkpt lat="44.65548" lon="3.07155">
        <ele>1228.176009</ele>
        <time>2021-06-12T21:41:59.486Z</time>
      </trkpt>
      <trkpt lat="44.65431" lon="3.0706">
        <ele>1227.956053</ele>
        <time>2021-06-12T21:43:08.900Z</time>
      </trkpt>
      <trkpt lat="44.6544" lon="3.07018">
        <ele>1226.367749</ele>
        <time>2021-06-12T21:43:23.681Z</time>
      </trkpt>
      <trkpt lat="44.65394" lon="3.06976">
        <ele>1223.591442</ele>
        <time>2021-06-12T21:43:48.405Z</time>
      </trkpt>
      <trkpt lat="44.65381" lon="3.0693">
        <ele>1221.823035</ele>
        <time>2021-06-12T21:44:03.959Z</time>
      </trkpt>
      <trkpt lat="44.65381" lon="3.06894">
        <ele>1220.534526</ele>
        <time>2021-06-12T21:44:15.566Z</time>
      </trkpt>
      <trkpt lat="44.65365" lon="3.06856">
        <ele>1219.762928</ele>
        <time>2021-06-12T21:44:30.294Z</time>
      </trkpt>
      <trkpt lat="44.65359" lon="3.06857">
        <ele>1219.638131</ele>
        <time>2021-06-12T21:44:32.597Z</time>
      </trkpt>
      <trkpt lat="44.65335" lon="3.06852">
        <ele>1219.177393</ele>
        <time>2021-06-12T21:44:42.813Z</time>
      </trkpt>
      <trkpt lat="44.65325" lon="3.06839">
        <ele>1218.92038</ele>
        <time>2021-06-12T21:44:48.006Z</time>
      </trkpt>
      <trkpt lat="44.65316" lon="3.06824">
        <ele>1218.651889</ele>
        <time>2021-06-12T21:44:54.419Z</time>
      </trkpt>
      <trkpt lat="44.65301" lon="3.06797">
        <ele>1218.187312</ele>
        <time>2021-06-12T21:45:04.440Z</time>
      </trkpt>
      <trkpt lat="44.65292" lon="3.06753">
        <ele>1217.571967</ele>
        <time>2021-06-12T21:45:18.654Z</time>
      </trkpt>
      <trkpt lat="44.6529" lon="3.06723">
        <ele>1217.152468</ele>
        <time>2021-06-12T21:45:29.174Z</time>
      </trkpt>
      <trkpt lat="44.65292" lon="3.06713">
        <ele>1217.022775</ele>
        <time>2021-06-12T21:45:32.457Z</time>
      </trkpt>
      <trkpt lat="44.65283" lon="3.0671">
        <ele>1216.848032</ele>
        <time>2021-06-12T21:45:36.155Z</time>
      </trkpt>
      <trkpt lat="44.65282" lon="3.0669">
        <ele>1217.334789</ele>
        <time>2021-06-12T21:45:45.758Z</time>
      </trkpt>
      <trkpt lat="44.65281" lon="3.06585">
        <ele>1220.108113</ele>
        <time>2021-06-12T21:46:32.529Z</time>
      </trkpt>
      <trkpt lat="44.65266" lon="3.06492">
        <ele>1222.61514</ele>
        <time>2021-06-12T21:47:16.790Z</time>
      </trkpt>
      <trkpt lat="44.65252" lon="3.06463">
        <ele>1223.50588</ele>
        <time>2021-06-12T21:47:31.826Z</time>
      </trkpt>
      <trkpt lat="44.65247" lon="3.0643">
        <ele>1223.56396</ele>
        <time>2021-06-12T21:47:44.867Z</time>
      </trkpt>
      <trkpt lat="44.65224" lon="3.06373">
        <ele>1223.67856</ele>
        <time>2021-06-12T21:48:10.351Z</time>
      </trkpt>
      <trkpt lat="44.65187" lon="3.06329">
        <ele>1223.799617</ele>
        <time>2021-06-12T21:48:35.813Z</time>
      </trkpt>
      <trkpt lat="44.65164" lon="3.06311">
        <ele>1223.862362</ele>
        <time>2021-06-12T21:48:48.933Z</time>
      </trkpt>
      <trkpt lat="44.65154" lon="3.06293">
        <ele>1223.903307</ele>
        <time>2021-06-12T21:48:57.203Z</time>
      </trkpt>
      <trkpt lat="44.6516" lon="3.06277">
        <ele>1223.934978</ele>
        <time>2021-06-12T21:49:02.808Z</time>
      </trkpt>
      <trkpt lat="44.65185" lon="3.06256">
        <ele>1223.478155</ele>
        <time>2021-06-12T21:49:15.139Z</time>
      </trkpt>
      <trkpt lat="44.65205" lon="3.06254">
        <ele>1223.107756</ele>
        <time>2021-06-12T21:49:23.581Z</time>
      </trkpt>
      <trkpt lat="44.65215" lon="3.06255">
        <ele>1222.918266</ele>
        <time>2021-06-12T21:49:27.760Z</time>
      </trkpt>
      <trkpt lat="44.6519" lon="3.06228">
        <ele>1222.336589</ele>
        <time>2021-06-12T21:49:43.241Z</time>
      </trkpt>
      <trkpt lat="44.65203" lon="3.06172">
        <ele>1221.554164</ele>
        <time>2021-06-12T21:50:03.884Z</time>
      </trkpt>
      <trkpt lat="44.65241" lon="3.06123">
        <ele>1220.583253</ele>
        <time>2021-06-12T21:50:30.129Z</time>
      </trkpt>
      <trkpt lat="44.65239" lon="3.06083">
        <ele>1220.347205</ele>
        <time>2021-06-12T21:50:44.642Z</time>
      </trkpt>
      <trkpt lat="44.65235" lon="3.06063">
        <ele>1220.229501</ele>
        <time>2021-06-12T21:50:52.054Z</time>
      </trkpt>
      <trkpt lat="44.65223" lon="3.06048">
        <ele>1220.098742</ele>
        <time>2021-06-12T21:51:00.179Z</time>
      </trkpt>
      <trkpt lat="44.65211" lon="3.06012">
        <ele>1219.871487</ele>
        <time>2021-06-12T21:51:14.500Z</time>
      </trkpt>
      <trkpt lat="44.65144" lon="3.05904">
        <ele>1219.110967</ele>
        <time>2021-06-12T21:52:07.496Z</time>
      </trkpt>
      <trkpt lat="44.65125" lon="3.05876">
        <ele>1219.091455</ele>
        <time>2021-06-12T21:52:21.682Z</time>
      </trkpt>
      <trkpt lat="44.65096" lon="3.05882">
        <ele>1219.070135</ele>
        <time>2021-06-12T21:52:37.420Z</time>
      </trkpt>
      <trkpt lat="44.65066" lon="3.05885">
        <ele>1219.04886</ele>
        <time>2021-06-12T21:52:53.204Z</time>
      </trkpt>
      <trkpt lat="44.65012" lon="3.05906">
        <ele>1219.009025</ele>
        <time>2021-06-12T21:53:22.168Z</time>
      </trkpt>
      <trkpt lat="44.6498" lon="3.05923">
        <ele>1218.970328</ele>
        <time>2021-06-12T21:53:40.491Z</time>
      </trkpt>
      <trkpt lat="44.64947" lon="3.05998">
        <ele>1218.799052</ele>
        <time>2021-06-12T21:54:12.850Z</time>
      </trkpt>
      <trkpt lat="44.64943" lon="3.06002">
        <ele>1218.787081</ele>
        <time>2021-06-12T21:54:15.287Z</time>
      </trkpt>
      <trkpt lat="44.64941" lon="3.05997">
        <ele>1218.775219</ele>
        <time>2021-06-12T21:54:17.241Z</time>
      </trkpt>
      <trkpt lat="44.64925" lon="3.05973">
        <ele>1218.710999</ele>
        <time>2021-06-12T21:54:29.318Z</time>
      </trkpt>
      <trkpt lat="44.64922" lon="3.05959">
        <ele>1218.683456</ele>
        <time>2021-06-12T21:54:34.745Z</time>
      </trkpt>
      <trkpt lat="44.64922" lon="3.05957">
        <ele>1218.678372</ele>
        <time>2021-06-12T21:54:35.558Z</time>
      </trkpt>
      <trkpt lat="44.64921" lon="3.05906">
        <ele>1218.578431</ele>
        <time>2021-06-12T21:54:54.383Z</time>
      </trkpt>
      <trkpt lat="44.64915" lon="3.05861">
        <ele>1218.52209</ele>
        <time>2021-06-12T21:55:12.019Z</time>
      </trkpt>
      <trkpt lat="44.64909" lon="3.05838">
        <ele>1218.745052</ele>
        <time>2021-06-12T21:55:20.673Z</time>
      </trkpt>
      <trkpt lat="44.64909" lon="3.05838">
        <ele>1218.745052</ele>
        <time>2021-06-12T21:55:20.673Z</time>
      </trkpt>
      <trkpt lat="44.64879" lon="3.05802">
        <ele>1219.259535</ele>
        <time>2021-06-12T21:55:42.272Z</time>
      </trkpt>
      <trkpt lat="44.64869" lon="3.05799">
        <ele>1219.394742</ele>
        <time>2021-06-12T21:55:48.781Z</time>
      </trkpt>
      <trkpt lat="44.64805" lon="3.05768">
        <ele>1220.277962</ele>
        <time>2021-06-12T21:56:26.135Z</time>
      </trkpt>
      <trkpt lat="44.64761" lon="3.0575">
        <ele>1220.861135</ele>
        <time>2021-06-12T21:56:52.327Z</time>
      </trkpt>
      <trkpt lat="44.64761" lon="3.0575">
        <ele>1220.861135</ele>
        <time>2021-06-12T21:56:52.327Z</time>
      </trkpt>
      <trkpt lat="44.64745" lon="3.05747">
        <ele>1220.97097</ele>
        <time>2021-06-12T21:57:01.008Z</time>
      </trkpt>
      <trkpt lat="44.64618" lon="3.05805">
        <ele>1221.895818</ele>
        <time>2021-06-12T21:58:13.534Z</time>
      </trkpt>
      <trkpt lat="44.64565" lon="3.05857">
        <ele>1222.142554</ele>
        <time>2021-06-12T21:58:46.223Z</time>
      </trkpt>
      <trkpt lat="44.64453" lon="3.05847">
        <ele>1222.300345</ele>
        <time>2021-06-12T21:59:44.697Z</time>
      </trkpt>
      <trkpt lat="44.6443" lon="3.05849">
        <ele>1222.332051</ele>
        <time>2021-06-12T21:59:57.327Z</time>
      </trkpt>
      <trkpt lat="44.64421" lon="3.05859">
        <ele>1222.562905</ele>
        <time>2021-06-12T22:00:03.493Z</time>
      </trkpt>
      <trkpt lat="44.64367" lon="3.05858">
        <ele>1225.959422</ele>
        <time>2021-06-12T22:00:34.955Z</time>
      </trkpt>
      <trkpt lat="44.64363" lon="3.05857">
        <ele>1226.204687</ele>
        <time>2021-06-12T22:00:37.872Z</time>
      </trkpt>
      <trkpt lat="44.64308" lon="3.05836">
        <ele>1229.747824</ele>
        <time>2021-06-12T22:01:14.598Z</time>
      </trkpt>
      <trkpt lat="44.64261" lon="3.05771">
        <ele>1234.26516</ele>
        <time>2021-06-12T22:02:10.422Z</time>
      </trkpt>
      <trkpt lat="44.64266" lon="3.05753">
        <ele>1236.076086</ele>
        <time>2021-06-12T22:02:22.822Z</time>
      </trkpt>
      <trkpt lat="44.64303" lon="3.05743">
        <ele>1241.175174</ele>
        <time>2021-06-12T22:03:00.467Z</time>
      </trkpt>
      <trkpt lat="44.6435" lon="3.05739">
        <ele>1247.467612</ele>
        <time>2021-06-12T22:03:49.257Z</time>
      </trkpt>
      <trkpt lat="44.6435" lon="3.05739">
        <ele>1247.467612</ele>
        <time>2021-06-12T22:03:49.257Z</time>
      </trkpt>
      <trkpt lat="44.64408" lon="3.05698">
        <ele>1256.10103</ele>
        <time>2021-06-12T22:04:53.277Z</time>
      </trkpt>
      <trkpt lat="44.64462" lon="3.05665">
        <ele>1259.926797</ele>
        <time>2021-06-12T22:05:47.740Z</time>
      </trkpt>
      <trkpt lat="44.64462" lon="3.05665">
        <ele>1259.926797</ele>
        <time>2021-06-12T22:05:47.740Z</time>
      </trkpt>
      <trkpt lat="44.64488" lon="3.05642">
        <ele>1261.424019</ele>
        <time>2021-06-12T22:06:11.161Z</time>
      </trkpt>
      <trkpt lat="44.64523" lon="3.05601">
        <ele>1263.611494</ele>
        <time>2021-06-12T22:06:39.477Z</time>
      </trkpt>
      <trkpt lat="44.64573" lon="3.05595">
        <ele>1266.048234</ele>
        <time>2021-06-12T22:07:05.148Z</time>
      </trkpt>
      <trkpt lat="44.64603" lon="3.05591">
        <ele>1264.005854</ele>
        <time>2021-06-12T22:07:19.088Z</time>
      </trkpt>
      <trkpt lat="44.64631" lon="3.05605">
        <ele>1261.246958</ele>
        <time>2021-06-12T22:07:32.162Z</time>
      </trkpt>
      <trkpt lat="44.64679" lon="3.05611">
        <ele>1256.867897</ele>
        <time>2021-06-12T22:07:52.095Z</time>
      </trkpt>
      <trkpt lat="44.64693" lon="3.05635">
        <ele>1254.822689</ele>
        <time>2021-06-12T22:08:01.232Z</time>
      </trkpt>
      <trkpt lat="44.64723" lon="3.05655">
        <ele>1251.751779</ele>
        <time>2021-06-12T22:08:14.930Z</time>
      </trkpt>
      <trkpt lat="44.64767" lon="3.05656">
        <ele>1247.127847</ele>
        <time>2021-06-12T22:08:33.159Z</time>
      </trkpt>
      <trkpt lat="44.64791" lon="3.05668">
        <ele>1244.218676</ele>
        <time>2021-06-12T22:08:43.437Z</time>
      </trkpt>
      <trkpt lat="44.64834" lon="3.05671">
        <ele>1239.205425</ele>
        <time>2021-06-12T22:09:01.197Z</time>
      </trkpt>
      <trkpt lat="44.64894" lon="3.05618">
        <ele>1231.032662</ele>
        <time>2021-06-12T22:09:30.226Z</time>
      </trkpt>
      <trkpt lat="44.64898" lon="3.05623">
        <ele>1230.34284</ele>
        <time>2021-06-12T22:09:32.673Z</time>
      </trkpt>
      <trkpt lat="44.64901" lon="3.05646">
        <ele>1228.630638</ele>
        <time>2021-06-12T22:09:39.522Z</time>
      </trkpt>
      <trkpt lat="44.6489" lon="3.05682">
        <ele>1226.908831</ele>
        <time>2021-06-12T22:09:51.274Z</time>
      </trkpt>
      <trkpt lat="44.64856" lon="3.05736">
        <ele>1223.718328</ele>
        <time>2021-06-12T22:10:14.009Z</time>
      </trkpt>
      <trkpt lat="44.64864" lon="3.05758">
        <ele>1222.623179</ele>
        <time>2021-06-12T22:10:22.010Z</time>
      </trkpt>
      <trkpt lat="44.64879" lon="3.05802">
        <ele>1220.456108</ele>
        <time>2021-06-12T22:10:38.299Z</time>
      </trkpt>
      <trkpt lat="44.64915" lon="3.05803">
        <ele>1218.196662</ele>
        <time>2021-06-12T22:10:55.800Z</time>
      </trkpt>
      <trkpt lat="44.64958" lon="3.05792">
        <ele>1217.108671</ele>
        <time>2021-06-12T22:11:17.698Z</time>
      </trkpt>
      <trkpt lat="44.65004" lon="3.05808">
        <ele>1216.38149</ele>
        <time>2021-06-12T22:11:41.620Z</time>
      </trkpt>
      <trkpt lat="44.65028" lon="3.05825">
        <ele>1215.967456</ele>
        <time>2021-06-12T22:11:55.177Z</time>
      </trkpt>
      <trkpt lat="44.65052" lon="3.0585">
        <ele>1215.503939</ele>
        <time>2021-06-12T22:12:10.652Z</time>
      </trkpt>
      <trkpt lat="44.65059" lon="3.05877">
        <ele>1215.18645</ele>
        <time>2021-06-12T22:12:21.159Z</time>
      </trkpt>
      <trkpt lat="44.65066" lon="3.05885">
        <ele>1215.048448</ele>
        <time>2021-06-12T22:12:25.769Z</time>
      </trkpt>
      <trkpt lat="44.65096" lon="3.05882">
        <ele>1214.440558</ele>
        <time>2021-06-12T22:12:40.729Z</time>
      </trkpt>
      <trkpt lat="44.65125" lon="3.05876">
        <ele>1213.735404</ele>
        <time>2021-06-12T22:12:55.876Z</time>
      </trkpt>
      <trkpt lat="44.65121" lon="3.05864">
        <ele>1213.518832</ele>
        <time>2021-06-12T22:13:00.107Z</time>
      </trkpt>
      <trkpt lat="44.65125" lon="3.05827">
        <ele>1212.890125</ele>
        <time>2021-06-12T22:13:13.580Z</time>
      </trkpt>
      <trkpt lat="44.65134" lon="3.05816">
        <ele>1212.598211</ele>
        <time>2021-06-12T22:13:19.413Z</time>
      </trkpt>
      <trkpt lat="44.65211" lon="3.05792">
        <ele>1210.720818</ele>
        <time>2021-06-12T22:13:57.983Z</time>
      </trkpt>
      <trkpt lat="44.65224" lon="3.05771">
        <ele>1210.327893</ele>
        <time>2021-06-12T22:14:07.750Z</time>
      </trkpt>
      <trkpt lat="44.65228" lon="3.05764">
        <ele>1210.20935</ele>
        <time>2021-06-12T22:14:10.526Z</time>
      </trkpt>
      <trkpt lat="44.65228" lon="3.05756">
        <ele>1210.108937</ele>
        <time>2021-06-12T22:14:13.233Z</time>
      </trkpt>
      <trkpt lat="44.65161" lon="3.05648">
        <ele>1208.210242</ele>
        <time>2021-06-12T22:15:04.206Z</time>
      </trkpt>
      <trkpt lat="44.65159" lon="3.05594">
        <ele>1207.492963</ele>
        <time>2021-06-12T22:15:23.656Z</time>
      </trkpt>
      <trkpt lat="44.65191" lon="3.05519">
        <ele>1207.232745</ele>
        <time>2021-06-12T22:15:55.865Z</time>
      </trkpt>
      <trkpt lat="44.65191" lon="3.05508">
        <ele>1207.230064</ele>
        <time>2021-06-12T22:16:00.246Z</time>
      </trkpt>
      <trkpt lat="44.65176" lon="3.0547">
        <ele>1207.219815</ele>
        <time>2021-06-12T22:16:16.429Z</time>
      </trkpt>
      <trkpt lat="44.65147" lon="3.05418">
        <ele>1207.204445</ele>
        <time>2021-06-12T22:16:41.085Z</time>
      </trkpt>
      <trkpt lat="44.65152" lon="3.05407">
        <ele>1207.201278</ele>
        <time>2021-06-12T22:16:46.141Z</time>
      </trkpt>
      <trkpt lat="44.6516" lon="3.05403">
        <ele>1207.198612</ele>
        <time>2021-06-12T22:16:50.392Z</time>
      </trkpt>
      <trkpt lat="44.65165" lon="3.05404">
        <ele>1207.196793</ele>
        <time>2021-06-12T22:16:53.222Z</time>
      </trkpt>
      <trkpt lat="44.6517" lon="3.05413">
        <ele>1207.194071</ele>
        <time>2021-06-12T22:16:57.143Z</time>
      </trkpt>
      <trkpt lat="44.65218" lon="3.05439">
        <ele>1207.43374</ele>
        <time>2021-06-12T22:17:20.587Z</time>
      </trkpt>
      <trkpt lat="44.65258" lon="3.05476">
        <ele>1207.738702</ele>
        <time>2021-06-12T22:17:42.167Z</time>
      </trkpt>
      <trkpt lat="44.65286" lon="3.05511">
        <ele>1207.984851</ele>
        <time>2021-06-12T22:17:59.748Z</time>
      </trkpt>
      <trkpt lat="44.65309" lon="3.05539">
        <ele>1208.175264</ele>
        <time>2021-06-12T22:18:13.445Z</time>
      </trkpt>
      <trkpt lat="44.65364" lon="3.05573">
        <ele>1208.456587</ele>
        <time>2021-06-12T22:18:40.566Z</time>
      </trkpt>
      <trkpt lat="44.65441" lon="3.05648">
        <ele>1208.758633</ele>
        <time>2021-06-12T22:19:22.664Z</time>
      </trkpt>
      <trkpt lat="44.65453" lon="3.05667">
        <ele>1208.81687</ele>
        <time>2021-06-12T22:19:30.668Z</time>
      </trkpt>
      <trkpt lat="44.65467" lon="3.05674">
        <ele>1208.861838</ele>
        <time>2021-06-12T22:19:37.031Z</time>
      </trkpt>
      <trkpt lat="44.65508" lon="3.05714">
        <ele>1209.210468</ele>
        <time>2021-06-12T22:19:59.872Z</time>
      </trkpt>
      <trkpt lat="44.6555" lon="3.05732">
        <ele>1209.628888</ele>
        <time>2021-06-12T22:20:19.980Z</time>
      </trkpt>
      <trkpt lat="44.65576" lon="3.05729">
        <ele>1209.877172</ele>
        <time>2021-06-12T22:20:32.079Z</time>
      </trkpt>
      <trkpt lat="44.65601" lon="3.0573">
        <ele>1210.110702</ele>
        <time>2021-06-12T22:20:43.628Z</time>
      </trkpt>
      <trkpt lat="44.65602" lon="3.05737">
        <ele>1210.162407</ele>
        <time>2021-06-12T22:20:46.291Z</time>
      </trkpt>
      <trkpt lat="44.6561" lon="3.05741">
        <ele>1210.240833</ele>
        <time>2021-06-12T22:20:50.414Z</time>
      </trkpt>
      <trkpt lat="44.65731" lon="3.05788">
        <ele>1210.46314</ele>
        <time>2021-06-12T22:21:48.272Z</time>
      </trkpt>
      <trkpt lat="44.6574" lon="3.05799">
        <ele>1210.43891</ele>
        <time>2021-06-12T22:21:53.834Z</time>
      </trkpt>
      <trkpt lat="44.65751" lon="3.05775">
        <ele>1210.397753</ele>
        <time>2021-06-12T22:22:04.221Z</time>
      </trkpt>
      <trkpt lat="44.65849" lon="3.05645">
        <ele>1207.676647</ele>
        <time>2021-06-12T22:23:11.713Z</time>
      </trkpt>
      <trkpt lat="44.65854" lon="3.05564">
        <ele>1205.579705</ele>
        <time>2021-06-12T22:23:38.973Z</time>
      </trkpt>
      <trkpt lat="44.65855" lon="3.05558">
        <ele>1205.402252</ele>
        <time>2021-06-12T22:23:41.182Z</time>
      </trkpt>
      <trkpt lat="44.65859" lon="3.05537">
        <ele>1204.839864</ele>
        <time>2021-06-12T22:23:48.319Z</time>
      </trkpt>
      <trkpt lat="44.65896" lon="3.05432">
        <ele>1200.900284</ele>
        <time>2021-06-12T22:24:27.063Z</time>
      </trkpt>
      <trkpt lat="44.65902" lon="3.05413">
        <ele>1200.094594</ele>
        <time>2021-06-12T22:24:33.837Z</time>
      </trkpt>
      <trkpt lat="44.65911" lon="3.05399">
        <ele>1199.365136</ele>
        <time>2021-06-12T22:24:39.139Z</time>
      </trkpt>
      <trkpt lat="44.6592" lon="3.05384">
        <ele>1198.613461</ele>
        <time>2021-06-12T22:24:44.750Z</time>
      </trkpt>
      <trkpt lat="44.65928" lon="3.05367">
        <ele>1197.835051</ele>
        <time>2021-06-12T22:24:50.162Z</time>
      </trkpt>
      <trkpt lat="44.65941" lon="3.05316">
        <ele>1195.73914</ele>
        <time>2021-06-12T22:25:05.470Z</time>
      </trkpt>
      <trkpt lat="44.6594" lon="3.05289">
        <ele>1194.705058</ele>
        <time>2021-06-12T22:25:13.217Z</time>
      </trkpt>
      <trkpt lat="44.65938" lon="3.05263">
        <ele>1193.821953</ele>
        <time>2021-06-12T22:25:20.253Z</time>
      </trkpt>
      <trkpt lat="44.65926" lon="3.05247">
        <ele>1193.260212</ele>
        <time>2021-06-12T22:25:26.839Z</time>
      </trkpt>
      <trkpt lat="44.65923" lon="3.05231">
        <ele>1192.84396</ele>
        <time>2021-06-12T22:25:31.358Z</time>
      </trkpt>
      <trkpt lat="44.65915" lon="3.05211">
        <ele>1192.279745</ele>
        <time>2021-06-12T22:25:37.962Z</time>
      </trkpt>
      <trkpt lat="44.65924" lon="3.05202">
        <ele>1191.916599</ele>
        <time>2021-06-12T22:25:42.269Z</time>
      </trkpt>
      <trkpt lat="44.65929" lon="3.05197">
        <ele>1191.693046</ele>
        <time>2021-06-12T22:25:44.683Z</time>
      </trkpt>
      <trkpt lat="44.65965" lon="3.05159">
        <ele>1190.109252</ele>
        <time>2021-06-12T22:26:03.522Z</time>
      </trkpt>
      <trkpt lat="44.65985" lon="3.05139">
        <ele>1189.272089</ele>
        <time>2021-06-12T22:26:13.537Z</time>
      </trkpt>
      <trkpt lat="44.66003" lon="3.05119">
        <ele>1188.468909</ele>
        <time>2021-06-12T22:26:23.240Z</time>
      </trkpt>
      <trkpt lat="44.66008" lon="3.05115">
        <ele>1188.27806</ele>
        <time>2021-06-12T22:26:25.581Z</time>
      </trkpt>
      <trkpt lat="44.66021" lon="3.05101">
        <ele>1187.7338</ele>
        <time>2021-06-12T22:26:32.485Z</time>
      </trkpt>
      <trkpt lat="44.66041" lon="3.05075">
        <ele>1187.280343</ele>
        <time>2021-06-12T22:26:44.221Z</time>
      </trkpt>
      <trkpt lat="44.66038" lon="3.0506">
        <ele>1187.096994</ele>
        <time>2021-06-12T22:26:49.104Z</time>
      </trkpt>
      <trkpt lat="44.66036" lon="3.05042">
        <ele>1186.882657</ele>
        <time>2021-06-12T22:26:54.808Z</time>
      </trkpt>
      <trkpt lat="44.66044" lon="3.05023">
        <ele>1186.618745</ele>
        <time>2021-06-12T22:27:02.989Z</time>
      </trkpt>
      <trkpt lat="44.66071" lon="3.04998">
        <ele>1186.093785</ele>
        <time>2021-06-12T22:27:19.349Z</time>
      </trkpt>
      <trkpt lat="44.6612" lon="3.04954">
        <ele>1185.12662</ele>
        <time>2021-06-12T22:27:49.260Z</time>
      </trkpt>
      <trkpt lat="44.66151" lon="3.04907">
        <ele>1184.799566</ele>
        <time>2021-06-12T22:28:11.720Z</time>
      </trkpt>
      <trkpt lat="44.66156" lon="3.04892">
        <ele>1184.799566</ele>
        <time>2021-06-12T22:28:17.211Z</time>
      </trkpt>
      <trkpt lat="44.66162" lon="3.04878">
        <ele>1184.799566</ele>
        <time>2021-06-12T22:28:23.166Z</time>
      </trkpt>
      <trkpt lat="44.66166" lon="3.04858">
        <ele>1184.799566</ele>
        <time>2021-06-12T22:28:28.968Z</time>
      </trkpt>
      <trkpt lat="44.66169" lon="3.04855">
        <ele>1184.799566</ele>
        <time>2021-06-12T22:28:30.545Z</time>
      </trkpt>
      <trkpt lat="44.66171" lon="3.04849">
        <ele>1184.799566</ele>
        <time>2021-06-12T22:28:32.398Z</time>
      </trkpt>
      <trkpt lat="44.66178" lon="3.04824">
        <ele>1184.799566</ele>
        <time>2021-06-12T22:28:40.232Z</time>
      </trkpt>
      <trkpt lat="44.66182" lon="3.0481">
        <ele>1184.799566</ele>
        <time>2021-06-12T22:28:44.671Z</time>
      </trkpt>
      <trkpt lat="44.66186" lon="3.04767">
        <ele>1184.799566</ele>
        <time>2021-06-12T22:28:57.498Z</time>
      </trkpt>
      <trkpt lat="44.66187" lon="3.04745">
        <ele>1184.799566</ele>
        <time>2021-06-12T22:29:03.754Z</time>
      </trkpt>
      <trkpt lat="44.66189" lon="3.04733">
        <ele>1184.799566</ele>
        <time>2021-06-12T22:29:07.501Z</time>
      </trkpt>
      <trkpt lat="44.6619" lon="3.04729">
        <ele>1184.799566</ele>
        <time>2021-06-12T22:29:08.841Z</time>
      </trkpt>
      <trkpt lat="44.66192" lon="3.04718">
        <ele>1184.799566</ele>
        <time>2021-06-12T22:29:11.984Z</time>
      </trkpt>
      <trkpt lat="44.66197" lon="3.04697">
        <ele>1184.799566</ele>
        <time>2021-06-12T22:29:18.475Z</time>
      </trkpt>
      <trkpt lat="44.66204" lon="3.04684">
        <ele>1184.799566</ele>
        <time>2021-06-12T22:29:23.437Z</time>
      </trkpt>
      <trkpt lat="44.66209" lon="3.04674">
        <ele>1184.799566</ele>
        <time>2021-06-12T22:29:26.918Z</time>
      </trkpt>
      <trkpt lat="44.66218" lon="3.04666">
        <ele>1184.799566</ele>
        <time>2021-06-12T22:29:31.189Z</time>
      </trkpt>
      <trkpt lat="44.6622" lon="3.04662">
        <ele>1184.799566</ele>
        <time>2021-06-12T22:29:32.764Z</time>
      </trkpt>
      <trkpt lat="44.66232" lon="3.0467">
        <ele>1184.799566</ele>
        <time>2021-06-12T22:29:38.205Z</time>
      </trkpt>
      <trkpt lat="44.66234" lon="3.04671">
        <ele>1184.799566</ele>
        <time>2021-06-12T22:29:39.130Z</time>
      </trkpt>
    </trkseg>
  </trk>
</gpx>